<?xml version='1.0' encoding='UTF-8'?>
<gpx version="1.1" creator="https://www.komoot.de" xmlns="http://www.topografix.com/GPX/1/1" xmlns:xsi="http://www.w3.org/2001/XMLSchema-instance" xsi:schemaLocation="http://www.topografix.com/GPX/1/1 http://www.topografix.com/GPX/1/1/gpx.xsd">
  <metadata>
    <name>50_870BuusKaenerkiSiflue</name>
    <author>
      <link href="https://www.komoot.de">
        <text>komoot</text>
        <type>text/html</type>
      </link>
    </author>
  </metadata>
  <trk>
    <name>50_870BuusKaenerkiSiflue</name>
    <trkseg>
      <trkpt lat="47.541210" lon="7.870957">
        <ele>339.227354</ele>
        <time>2021-11-12T20:00:29.649Z</time>
      </trkpt>
      <trkpt lat="47.541410" lon="7.870791">
        <ele>339.227354</ele>
        <time>2021-11-12T20:00:33.070Z</time>
      </trkpt>
      <trkpt lat="47.541576" lon="7.870664">
        <ele>339.227354</ele>
        <time>2021-11-12T20:00:35.502Z</time>
      </trkpt>
      <trkpt lat="47.541550" lon="7.870601">
        <ele>339.227354</ele>
        <time>2021-11-12T20:00:36.301Z</time>
      </trkpt>
      <trkpt lat="47.541521" lon="7.870517">
        <ele>339.227354</ele>
        <time>2021-11-12T20:00:37.344Z</time>
      </trkpt>
      <trkpt lat="47.541606" lon="7.870424">
        <ele>339.227354</ele>
        <time>2021-11-12T20:00:39.010Z</time>
      </trkpt>
      <trkpt lat="47.541910" lon="7.870106">
        <ele>339.135206</ele>
        <time>2021-11-12T20:00:44.672Z</time>
      </trkpt>
      <trkpt lat="47.542014" lon="7.870126">
        <ele>339.045830</ele>
        <time>2021-11-12T20:00:46.137Z</time>
      </trkpt>
      <trkpt lat="47.542118" lon="7.870135">
        <ele>338.957047</ele>
        <time>2021-11-12T20:00:47.856Z</time>
      </trkpt>
      <trkpt lat="47.542181" lon="7.870131">
        <ele>338.903306</ele>
        <time>2021-11-12T20:00:48.734Z</time>
      </trkpt>
      <trkpt lat="47.542317" lon="7.870012">
        <ele>338.768694</ele>
        <time>2021-11-12T20:00:50.855Z</time>
      </trkpt>
      <trkpt lat="47.542348" lon="7.869983">
        <ele>338.737448</ele>
        <time>2021-11-12T20:00:51.291Z</time>
      </trkpt>
      <trkpt lat="47.542329" lon="7.869820">
        <ele>338.642286</ele>
        <time>2021-11-12T20:00:53.051Z</time>
      </trkpt>
      <trkpt lat="47.542372" lon="7.869746">
        <ele>338.586114</ele>
        <time>2021-11-12T20:00:53.869Z</time>
      </trkpt>
      <trkpt lat="47.542657" lon="7.869354">
        <ele>338.254676</ele>
        <time>2021-11-12T20:00:58.670Z</time>
      </trkpt>
      <trkpt lat="47.542696" lon="7.869257">
        <ele>338.189724</ele>
        <time>2021-11-12T20:00:59.606Z</time>
      </trkpt>
      <trkpt lat="47.542722" lon="7.869201">
        <ele>338.150623</ele>
        <time>2021-11-12T20:01:00.197Z</time>
      </trkpt>
      <trkpt lat="47.543049" lon="7.868759">
        <ele>337.773369</ele>
        <time>2021-11-12T20:01:05.110Z</time>
      </trkpt>
      <trkpt lat="47.543105" lon="7.868711">
        <ele>337.718230</ele>
        <time>2021-11-12T20:01:05.848Z</time>
      </trkpt>
      <trkpt lat="47.543201" lon="7.868657">
        <ele>337.590682</ele>
        <time>2021-11-12T20:01:06.927Z</time>
      </trkpt>
      <trkpt lat="47.543657" lon="7.868359">
        <ele>336.899269</ele>
        <time>2021-11-12T20:01:12.722Z</time>
      </trkpt>
      <trkpt lat="47.543801" lon="7.868269">
        <ele>336.682452</ele>
        <time>2021-11-12T20:01:15.201Z</time>
      </trkpt>
      <trkpt lat="47.544214" lon="7.867988">
        <ele>336.051972</ele>
        <time>2021-11-12T20:01:22.818Z</time>
      </trkpt>
      <trkpt lat="47.544246" lon="7.867967">
        <ele>336.003419</ele>
        <time>2021-11-12T20:01:23.415Z</time>
      </trkpt>
      <trkpt lat="47.544410" lon="7.867825">
        <ele>335.739897</ele>
        <time>2021-11-12T20:01:26.668Z</time>
      </trkpt>
      <trkpt lat="47.544469" lon="7.867776">
        <ele>335.646064</ele>
        <time>2021-11-12T20:01:27.689Z</time>
      </trkpt>
      <trkpt lat="47.544568" lon="7.867693">
        <ele>335.488257</ele>
        <time>2021-11-12T20:01:29.617Z</time>
      </trkpt>
      <trkpt lat="47.545003" lon="7.867278">
        <ele>335.405328</ele>
        <time>2021-11-12T20:01:38.465Z</time>
      </trkpt>
      <trkpt lat="47.545160" lon="7.866985">
        <ele>335.573657</ele>
        <time>2021-11-12T20:01:43.115Z</time>
      </trkpt>
      <trkpt lat="47.545240" lon="7.866887">
        <ele>335.642855</ele>
        <time>2021-11-12T20:01:45.389Z</time>
      </trkpt>
      <trkpt lat="47.546096" lon="7.866147">
        <ele>336.303511</ele>
        <time>2021-11-12T20:02:10.459Z</time>
      </trkpt>
      <trkpt lat="47.546327" lon="7.865959">
        <ele>336.640143</ele>
        <time>2021-11-12T20:02:18.196Z</time>
      </trkpt>
      <trkpt lat="47.546510" lon="7.865766">
        <ele>337.087646</ele>
        <time>2021-11-12T20:02:25.297Z</time>
      </trkpt>
      <trkpt lat="47.546819" lon="7.865489">
        <ele>337.807139</ele>
        <time>2021-11-12T20:02:35.528Z</time>
      </trkpt>
      <trkpt lat="47.546889" lon="7.865225">
        <ele>338.188541</ele>
        <time>2021-11-12T20:02:40.720Z</time>
      </trkpt>
      <trkpt lat="47.546894" lon="7.864837">
        <ele>338.710369</ele>
        <time>2021-11-12T20:02:48.140Z</time>
      </trkpt>
      <trkpt lat="47.546885" lon="7.864500">
        <ele>339.163879</ele>
        <time>2021-11-12T20:02:54.928Z</time>
      </trkpt>
      <trkpt lat="47.546877" lon="7.864345">
        <ele>339.372912</ele>
        <time>2021-11-12T20:02:57.822Z</time>
      </trkpt>
      <trkpt lat="47.546592" lon="7.863006">
        <ele>340.557325</ele>
        <time>2021-11-12T20:03:23.831Z</time>
      </trkpt>
      <trkpt lat="47.546526" lon="7.861665">
        <ele>341.371158</ele>
        <time>2021-11-12T20:03:44.563Z</time>
      </trkpt>
      <trkpt lat="47.546487" lon="7.859119">
        <ele>341.173734</ele>
        <time>2021-11-12T20:04:17.183Z</time>
      </trkpt>
      <trkpt lat="47.546537" lon="7.857497">
        <ele>340.875562</ele>
        <time>2021-11-12T20:04:38.195Z</time>
      </trkpt>
      <trkpt lat="47.546582" lon="7.856413">
        <ele>340.680523</ele>
        <time>2021-11-12T20:04:52.549Z</time>
      </trkpt>
      <trkpt lat="47.546945" lon="7.851719">
        <ele>339.233846</ele>
        <time>2021-11-12T20:05:53.583Z</time>
      </trkpt>
      <trkpt lat="47.547141" lon="7.850355">
        <ele>338.213490</ele>
        <time>2021-11-12T20:06:09.149Z</time>
      </trkpt>
      <trkpt lat="47.547143" lon="7.849985">
        <ele>337.729996</ele>
        <time>2021-11-12T20:06:13.057Z</time>
      </trkpt>
      <trkpt lat="47.547124" lon="7.848795">
        <ele>336.174586</ele>
        <time>2021-11-12T20:06:25.655Z</time>
      </trkpt>
      <trkpt lat="47.547274" lon="7.845536">
        <ele>332.081418</ele>
        <time>2021-11-12T20:07:00.414Z</time>
      </trkpt>
      <trkpt lat="47.547295" lon="7.844722">
        <ele>331.907404</ele>
        <time>2021-11-12T20:07:09.897Z</time>
      </trkpt>
      <trkpt lat="47.547313" lon="7.843735">
        <ele>331.932666</ele>
        <time>2021-11-12T20:07:22.521Z</time>
      </trkpt>
      <trkpt lat="47.547354" lon="7.842839">
        <ele>331.955642</ele>
        <time>2021-11-12T20:07:36.926Z</time>
      </trkpt>
      <trkpt lat="47.547448" lon="7.842262">
        <ele>333.069113</ele>
        <time>2021-11-12T20:07:48.180Z</time>
      </trkpt>
      <trkpt lat="47.547314" lon="7.842270">
        <ele>333.534073</ele>
        <time>2021-11-12T20:07:52.124Z</time>
      </trkpt>
      <trkpt lat="47.547314" lon="7.842270">
        <ele>333.534073</ele>
        <time>2021-11-12T20:07:52.178Z</time>
      </trkpt>
      <trkpt lat="47.546951" lon="7.842267">
        <ele>334.792626</ele>
        <time>2021-11-12T20:08:03.553Z</time>
      </trkpt>
      <trkpt lat="47.546843" lon="7.842270">
        <ele>335.167132</ele>
        <time>2021-11-12T20:08:06.538Z</time>
      </trkpt>
      <trkpt lat="47.545011" lon="7.842239">
        <ele>344.070290</ele>
        <time>2021-11-12T20:09:08.919Z</time>
      </trkpt>
      <trkpt lat="47.544939" lon="7.842229">
        <ele>344.513408</ele>
        <time>2021-11-12T20:09:12.431Z</time>
      </trkpt>
      <trkpt lat="47.544480" lon="7.842116">
        <ele>347.364521</ele>
        <time>2021-11-12T20:09:31.033Z</time>
      </trkpt>
      <trkpt lat="47.543343" lon="7.841595">
        <ele>358.675339</ele>
        <time>2021-11-12T20:10:30.608Z</time>
      </trkpt>
      <trkpt lat="47.543032" lon="7.841467">
        <ele>362.113728</ele>
        <time>2021-11-12T20:10:49.635Z</time>
      </trkpt>
      <trkpt lat="47.542890" lon="7.841434">
        <ele>363.644874</ele>
        <time>2021-11-12T20:10:59.334Z</time>
      </trkpt>
      <trkpt lat="47.542795" lon="7.841432">
        <ele>364.656957</ele>
        <time>2021-11-12T20:11:05.507Z</time>
      </trkpt>
      <trkpt lat="47.542781" lon="7.841430">
        <ele>364.806783</ele>
        <time>2021-11-12T20:11:06.589Z</time>
      </trkpt>
      <trkpt lat="47.542339" lon="7.841424">
        <ele>369.824176</ele>
        <time>2021-11-12T20:11:36.551Z</time>
      </trkpt>
      <trkpt lat="47.542097" lon="7.841420">
        <ele>373.100899</ele>
        <time>2021-11-12T20:11:54.681Z</time>
      </trkpt>
      <trkpt lat="47.541583" lon="7.841568">
        <ele>380.190360</ele>
        <time>2021-11-12T20:12:32.213Z</time>
      </trkpt>
      <trkpt lat="47.541483" lon="7.841624">
        <ele>381.637808</ele>
        <time>2021-11-12T20:12:39.813Z</time>
      </trkpt>
      <trkpt lat="47.541409" lon="7.841671">
        <ele>382.727925</ele>
        <time>2021-11-12T20:12:45.939Z</time>
      </trkpt>
      <trkpt lat="47.541351" lon="7.841740">
        <ele>383.735092</ele>
        <time>2021-11-12T20:12:51.227Z</time>
      </trkpt>
      <trkpt lat="47.541050" lon="7.841906">
        <ele>388.083694</ele>
        <time>2021-11-12T20:13:12.793Z</time>
      </trkpt>
      <trkpt lat="47.540817" lon="7.841934">
        <ele>391.248722</ele>
        <time>2021-11-12T20:13:27.862Z</time>
      </trkpt>
      <trkpt lat="47.540744" lon="7.841906">
        <ele>392.269688</ele>
        <time>2021-11-12T20:13:34.099Z</time>
      </trkpt>
      <trkpt lat="47.540531" lon="7.841825">
        <ele>394.732259</ele>
        <time>2021-11-12T20:13:46.985Z</time>
      </trkpt>
      <trkpt lat="47.540305" lon="7.841591">
        <ele>397.702475</ele>
        <time>2021-11-12T20:14:05.355Z</time>
      </trkpt>
      <trkpt lat="47.540168" lon="7.841414">
        <ele>399.660685</ele>
        <time>2021-11-12T20:14:17.165Z</time>
      </trkpt>
      <trkpt lat="47.540066" lon="7.841269">
        <ele>401.183531</ele>
        <time>2021-11-12T20:14:25.651Z</time>
      </trkpt>
      <trkpt lat="47.539702" lon="7.840734">
        <ele>406.707144</ele>
        <time>2021-11-12T20:14:51.148Z</time>
      </trkpt>
      <trkpt lat="47.539657" lon="7.840668">
        <ele>407.389292</ele>
        <time>2021-11-12T20:14:55.635Z</time>
      </trkpt>
      <trkpt lat="47.539459" lon="7.840353">
        <ele>410.519196</ele>
        <time>2021-11-12T20:15:10.654Z</time>
      </trkpt>
      <trkpt lat="47.539357" lon="7.840201">
        <ele>412.077732</ele>
        <time>2021-11-12T20:15:18.426Z</time>
      </trkpt>
      <trkpt lat="47.539226" lon="7.839805">
        <ele>414.893694</ele>
        <time>2021-11-12T20:15:35.131Z</time>
      </trkpt>
      <trkpt lat="47.538868" lon="7.838681">
        <ele>422.820960</ele>
        <time>2021-11-12T20:16:21.513Z</time>
      </trkpt>
      <trkpt lat="47.538837" lon="7.838580">
        <ele>423.528645</ele>
        <time>2021-11-12T20:16:26.624Z</time>
      </trkpt>
      <trkpt lat="47.538810" lon="7.838491">
        <ele>424.151016</ele>
        <time>2021-11-12T20:16:29.708Z</time>
      </trkpt>
      <trkpt lat="47.538712" lon="7.838169">
        <ele>426.403963</ele>
        <time>2021-11-12T20:16:40.913Z</time>
      </trkpt>
      <trkpt lat="47.538612" lon="7.837844">
        <ele>428.682144</ele>
        <time>2021-11-12T20:16:52.464Z</time>
      </trkpt>
      <trkpt lat="47.538505" lon="7.837464">
        <ele>430.844308</ele>
        <time>2021-11-12T20:17:05.005Z</time>
      </trkpt>
      <trkpt lat="47.538410" lon="7.837106">
        <ele>432.782889</ele>
        <time>2021-11-12T20:17:17.465Z</time>
      </trkpt>
      <trkpt lat="47.538222" lon="7.835464">
        <ele>441.176223</ele>
        <time>2021-11-12T20:18:08.294Z</time>
      </trkpt>
      <trkpt lat="47.538158" lon="7.835307">
        <ele>442.100514</ele>
        <time>2021-11-12T20:18:13.135Z</time>
      </trkpt>
      <trkpt lat="47.537707" lon="7.834801">
        <ele>445.603470</ele>
        <time>2021-11-12T20:18:34.422Z</time>
      </trkpt>
      <trkpt lat="47.537138" lon="7.834039">
        <ele>450.243764</ele>
        <time>2021-11-12T20:19:04.827Z</time>
      </trkpt>
      <trkpt lat="47.536897" lon="7.833599">
        <ele>452.557746</ele>
        <time>2021-11-12T20:19:20.629Z</time>
      </trkpt>
      <trkpt lat="47.536802" lon="7.833477">
        <ele>453.318350</ele>
        <time>2021-11-12T20:19:25.650Z</time>
      </trkpt>
      <trkpt lat="47.536644" lon="7.833357">
        <ele>453.611940</ele>
        <time>2021-11-12T20:19:31.989Z</time>
      </trkpt>
      <trkpt lat="47.536401" lon="7.833309">
        <ele>453.922446</ele>
        <time>2021-11-12T20:19:40.130Z</time>
      </trkpt>
      <trkpt lat="47.536091" lon="7.833355">
        <ele>454.317054</ele>
        <time>2021-11-12T20:19:49.875Z</time>
      </trkpt>
      <trkpt lat="47.535868" lon="7.833423">
        <ele>454.605427</ele>
        <time>2021-11-12T20:19:54.474Z</time>
      </trkpt>
      <trkpt lat="47.535301" lon="7.833465">
        <ele>455.324480</ele>
        <time>2021-11-12T20:20:02.638Z</time>
      </trkpt>
      <trkpt lat="47.535041" lon="7.833445">
        <ele>455.654237</ele>
        <time>2021-11-12T20:20:05.298Z</time>
      </trkpt>
      <trkpt lat="47.534869" lon="7.833423">
        <ele>454.653409</ele>
        <time>2021-11-12T20:20:06.878Z</time>
      </trkpt>
      <trkpt lat="47.534581" lon="7.833360">
        <ele>452.649494</ele>
        <time>2021-11-12T20:20:09.789Z</time>
      </trkpt>
      <trkpt lat="47.534536" lon="7.833350">
        <ele>452.336275</ele>
        <time>2021-11-12T20:20:10.172Z</time>
      </trkpt>
      <trkpt lat="47.534258" lon="7.833316">
        <ele>450.416184</ele>
        <time>2021-11-12T20:20:12.842Z</time>
      </trkpt>
      <trkpt lat="47.534141" lon="7.833324">
        <ele>449.609971</ele>
        <time>2021-11-12T20:20:13.861Z</time>
      </trkpt>
      <trkpt lat="47.534011" lon="7.833341">
        <ele>448.711651</ele>
        <time>2021-11-12T20:20:15.138Z</time>
      </trkpt>
      <trkpt lat="47.533862" lon="7.833372">
        <ele>447.675959</ele>
        <time>2021-11-12T20:20:16.452Z</time>
      </trkpt>
      <trkpt lat="47.533532" lon="7.833561">
        <ele>445.240537</ele>
        <time>2021-11-12T20:20:19.541Z</time>
      </trkpt>
      <trkpt lat="47.532636" lon="7.834081">
        <ele>437.941859</ele>
        <time>2021-11-12T20:20:27.752Z</time>
      </trkpt>
      <trkpt lat="47.532463" lon="7.834255">
        <ele>436.295202</ele>
        <time>2021-11-12T20:20:29.545Z</time>
      </trkpt>
      <trkpt lat="47.532205" lon="7.834515">
        <ele>433.837970</ele>
        <time>2021-11-12T20:20:32.323Z</time>
      </trkpt>
      <trkpt lat="47.532044" lon="7.834687">
        <ele>432.274825</ele>
        <time>2021-11-12T20:20:34.247Z</time>
      </trkpt>
      <trkpt lat="47.531889" lon="7.834953">
        <ele>430.406772</ele>
        <time>2021-11-12T20:20:36.418Z</time>
      </trkpt>
      <trkpt lat="47.531845" lon="7.835185">
        <ele>429.138342</ele>
        <time>2021-11-12T20:20:38.057Z</time>
      </trkpt>
      <trkpt lat="47.531842" lon="7.835360">
        <ele>429.053899</ele>
        <time>2021-11-12T20:20:39.109Z</time>
      </trkpt>
      <trkpt lat="47.531902" lon="7.835562">
        <ele>428.947447</ele>
        <time>2021-11-12T20:20:40.703Z</time>
      </trkpt>
      <trkpt lat="47.532166" lon="7.836191">
        <ele>428.590187</ele>
        <time>2021-11-12T20:20:46.029Z</time>
      </trkpt>
      <trkpt lat="47.532213" lon="7.836549">
        <ele>428.414264</ele>
        <time>2021-11-12T20:20:49.980Z</time>
      </trkpt>
      <trkpt lat="47.532075" lon="7.836901">
        <ele>428.217920</ele>
        <time>2021-11-12T20:20:54.747Z</time>
      </trkpt>
      <trkpt lat="47.531841" lon="7.837301">
        <ele>427.962619</ele>
        <time>2021-11-12T20:21:02.818Z</time>
      </trkpt>
      <trkpt lat="47.531768" lon="7.837658">
        <ele>427.921463</ele>
        <time>2021-11-12T20:21:09.335Z</time>
      </trkpt>
      <trkpt lat="47.531720" lon="7.837849">
        <ele>428.012890</ele>
        <time>2021-11-12T20:21:13.605Z</time>
      </trkpt>
      <trkpt lat="47.531704" lon="7.837885">
        <ele>428.032225</ele>
        <time>2021-11-12T20:21:14.298Z</time>
      </trkpt>
      <trkpt lat="47.531681" lon="7.837936">
        <ele>428.059739</ele>
        <time>2021-11-12T20:21:15.484Z</time>
      </trkpt>
      <trkpt lat="47.530895" lon="7.838718">
        <ele>428.688871</ele>
        <time>2021-11-12T20:21:34.771Z</time>
      </trkpt>
      <trkpt lat="47.530488" lon="7.839231">
        <ele>429.043968</ele>
        <time>2021-11-12T20:21:41.428Z</time>
      </trkpt>
      <trkpt lat="47.529858" lon="7.839444">
        <ele>426.381538</ele>
        <time>2021-11-12T20:21:48.092Z</time>
      </trkpt>
      <trkpt lat="47.529548" lon="7.839617">
        <ele>424.995343</ele>
        <time>2021-11-12T20:21:51.471Z</time>
      </trkpt>
      <trkpt lat="47.529245" lon="7.839917">
        <ele>423.470243</ele>
        <time>2021-11-12T20:21:54.949Z</time>
      </trkpt>
      <trkpt lat="47.529163" lon="7.839998">
        <ele>423.057804</ele>
        <time>2021-11-12T20:21:55.835Z</time>
      </trkpt>
      <trkpt lat="47.528485" lon="7.841355">
        <ele>414.949883</ele>
        <time>2021-11-12T20:22:06.026Z</time>
      </trkpt>
      <trkpt lat="47.528418" lon="7.841430">
        <ele>414.235815</ele>
        <time>2021-11-12T20:22:06.786Z</time>
      </trkpt>
      <trkpt lat="47.528193" lon="7.841373">
        <ele>412.295019</ele>
        <time>2021-11-12T20:22:08.742Z</time>
      </trkpt>
      <trkpt lat="47.527938" lon="7.841436">
        <ele>410.096980</ele>
        <time>2021-11-12T20:22:11.028Z</time>
      </trkpt>
      <trkpt lat="47.527351" lon="7.841981">
        <ele>403.833057</ele>
        <time>2021-11-12T20:22:17.017Z</time>
      </trkpt>
      <trkpt lat="47.527193" lon="7.842130">
        <ele>401.946705</ele>
        <time>2021-11-12T20:22:18.585Z</time>
      </trkpt>
      <trkpt lat="47.526899" lon="7.842437">
        <ele>398.323985</ele>
        <time>2021-11-12T20:22:21.633Z</time>
      </trkpt>
      <trkpt lat="47.526451" lon="7.843043">
        <ele>392.213664</ele>
        <time>2021-11-12T20:22:26.895Z</time>
      </trkpt>
      <trkpt lat="47.526312" lon="7.843288">
        <ele>390.037631</ele>
        <time>2021-11-12T20:22:28.751Z</time>
      </trkpt>
      <trkpt lat="47.526186" lon="7.843427">
        <ele>388.455379</ele>
        <time>2021-11-12T20:22:30.106Z</time>
      </trkpt>
      <trkpt lat="47.526076" lon="7.843504">
        <ele>387.520747</ele>
        <time>2021-11-12T20:22:31.132Z</time>
      </trkpt>
      <trkpt lat="47.525755" lon="7.843791">
        <ele>384.981281</ele>
        <time>2021-11-12T20:22:34.464Z</time>
      </trkpt>
      <trkpt lat="47.525593" lon="7.843962">
        <ele>383.633951</ele>
        <time>2021-11-12T20:22:36.269Z</time>
      </trkpt>
      <trkpt lat="47.525497" lon="7.844134">
        <ele>382.613439</ele>
        <time>2021-11-12T20:22:37.592Z</time>
      </trkpt>
      <trkpt lat="47.525447" lon="7.844752">
        <ele>379.766963</ele>
        <time>2021-11-12T20:22:41.384Z</time>
      </trkpt>
      <trkpt lat="47.525394" lon="7.844881">
        <ele>379.076398</ele>
        <time>2021-11-12T20:22:42.332Z</time>
      </trkpt>
      <trkpt lat="47.525370" lon="7.844925">
        <ele>378.817728</ele>
        <time>2021-11-12T20:22:42.696Z</time>
      </trkpt>
      <trkpt lat="47.525256" lon="7.845127">
        <ele>377.613779</ele>
        <time>2021-11-12T20:22:44.336Z</time>
      </trkpt>
      <trkpt lat="47.525219" lon="7.845193">
        <ele>377.221483</ele>
        <time>2021-11-12T20:22:44.893Z</time>
      </trkpt>
      <trkpt lat="47.525182" lon="7.845309">
        <ele>376.634779</ele>
        <time>2021-11-12T20:22:45.759Z</time>
      </trkpt>
      <trkpt lat="47.525131" lon="7.845562">
        <ele>375.801908</ele>
        <time>2021-11-12T20:22:47.504Z</time>
      </trkpt>
      <trkpt lat="47.525131" lon="7.845562">
        <ele>375.801908</ele>
        <time>2021-11-12T20:22:47.505Z</time>
      </trkpt>
      <trkpt lat="47.525131" lon="7.845562">
        <ele>375.801908</ele>
        <time>2021-11-12T20:22:47.507Z</time>
      </trkpt>
      <trkpt lat="47.525010" lon="7.845540">
        <ele>375.584025</ele>
        <time>2021-11-12T20:22:48.693Z</time>
      </trkpt>
      <trkpt lat="47.524912" lon="7.845454">
        <ele>375.380430</ele>
        <time>2021-11-12T20:22:49.861Z</time>
      </trkpt>
      <trkpt lat="47.524830" lon="7.845597">
        <ele>375.154014</ele>
        <time>2021-11-12T20:22:51.072Z</time>
      </trkpt>
      <trkpt lat="47.524758" lon="7.845742">
        <ele>374.936796</ele>
        <time>2021-11-12T20:22:52.326Z</time>
      </trkpt>
      <trkpt lat="47.524656" lon="7.846182">
        <ele>374.375344</ele>
        <time>2021-11-12T20:22:55.796Z</time>
      </trkpt>
      <trkpt lat="47.524625" lon="7.846298">
        <ele>374.224779</ele>
        <time>2021-11-12T20:22:57.135Z</time>
      </trkpt>
      <trkpt lat="47.524516" lon="7.846775">
        <ele>373.617022</ele>
        <time>2021-11-12T20:23:02.701Z</time>
      </trkpt>
      <trkpt lat="47.524504" lon="7.846866">
        <ele>373.505120</ele>
        <time>2021-11-12T20:23:04.409Z</time>
      </trkpt>
      <trkpt lat="47.524447" lon="7.846830">
        <ele>373.394368</ele>
        <time>2021-11-12T20:23:05.140Z</time>
      </trkpt>
      <trkpt lat="47.524304" lon="7.846784">
        <ele>373.132829</ele>
        <time>2021-11-12T20:23:07.328Z</time>
      </trkpt>
      <trkpt lat="47.524142" lon="7.846731">
        <ele>372.836310</ele>
        <time>2021-11-12T20:23:10.317Z</time>
      </trkpt>
      <trkpt lat="47.524030" lon="7.846759">
        <ele>372.815717</ele>
        <time>2021-11-12T20:23:11.927Z</time>
      </trkpt>
      <trkpt lat="47.523919" lon="7.846774">
        <ele>373.028243</ele>
        <time>2021-11-12T20:23:14.090Z</time>
      </trkpt>
      <trkpt lat="47.523835" lon="7.846794">
        <ele>373.190466</ele>
        <time>2021-11-12T20:23:15.918Z</time>
      </trkpt>
      <trkpt lat="47.523802" lon="7.847022">
        <ele>373.490703</ele>
        <time>2021-11-12T20:23:19.158Z</time>
      </trkpt>
      <trkpt lat="47.523686" lon="7.847545">
        <ele>374.199504</ele>
        <time>2021-11-12T20:23:27.149Z</time>
      </trkpt>
      <trkpt lat="47.523555" lon="7.847886">
        <ele>374.704649</ele>
        <time>2021-11-12T20:23:32.705Z</time>
      </trkpt>
      <trkpt lat="47.523494" lon="7.848012">
        <ele>374.904271</ele>
        <time>2021-11-12T20:23:35.063Z</time>
      </trkpt>
      <trkpt lat="47.523462" lon="7.848071">
        <ele>375.001708</ele>
        <time>2021-11-12T20:23:36.367Z</time>
      </trkpt>
      <trkpt lat="47.522383" lon="7.849771">
        <ele>379.744389</ele>
        <time>2021-11-12T20:24:19.029Z</time>
      </trkpt>
      <trkpt lat="47.522016" lon="7.850249">
        <ele>381.549974</ele>
        <time>2021-11-12T20:24:34.290Z</time>
      </trkpt>
      <trkpt lat="47.521905" lon="7.850364">
        <ele>382.050430</ele>
        <time>2021-11-12T20:24:39.073Z</time>
      </trkpt>
      <trkpt lat="47.521788" lon="7.850457">
        <ele>382.540987</ele>
        <time>2021-11-12T20:24:43.403Z</time>
      </trkpt>
      <trkpt lat="47.521526" lon="7.850659">
        <ele>383.972869</ele>
        <time>2021-11-12T20:24:53.392Z</time>
      </trkpt>
      <trkpt lat="47.521382" lon="7.850770">
        <ele>384.816826</ele>
        <time>2021-11-12T20:24:58.600Z</time>
      </trkpt>
      <trkpt lat="47.520894" lon="7.851134">
        <ele>387.657435</ele>
        <time>2021-11-12T20:25:18.451Z</time>
      </trkpt>
      <trkpt lat="47.519998" lon="7.851794">
        <ele>393.006673</ele>
        <time>2021-11-12T20:25:54.880Z</time>
      </trkpt>
      <trkpt lat="47.519059" lon="7.852195">
        <ele>399.131822</ele>
        <time>2021-11-12T20:26:32.488Z</time>
      </trkpt>
      <trkpt lat="47.518404" lon="7.852651">
        <ele>403.714648</ele>
        <time>2021-11-12T20:27:02.468Z</time>
      </trkpt>
      <trkpt lat="47.518338" lon="7.852687">
        <ele>404.237730</ele>
        <time>2021-11-12T20:27:06.551Z</time>
      </trkpt>
      <trkpt lat="47.518274" lon="7.852715">
        <ele>404.734035</ele>
        <time>2021-11-12T20:27:09.758Z</time>
      </trkpt>
      <trkpt lat="47.517407" lon="7.852910">
        <ele>411.255817</ele>
        <time>2021-11-12T20:27:48.355Z</time>
      </trkpt>
      <trkpt lat="47.516157" lon="7.853414">
        <ele>420.032653</ele>
        <time>2021-11-12T20:28:47.759Z</time>
      </trkpt>
      <trkpt lat="47.515319" lon="7.853580">
        <ele>425.003087</ele>
        <time>2021-11-12T20:29:20.612Z</time>
      </trkpt>
      <trkpt lat="47.514548" lon="7.853897">
        <ele>428.185905</ele>
        <time>2021-11-12T20:29:44.168Z</time>
      </trkpt>
      <trkpt lat="47.513486" lon="7.854188">
        <ele>430.402745</ele>
        <time>2021-11-12T20:30:08.019Z</time>
      </trkpt>
      <trkpt lat="47.513406" lon="7.854237">
        <ele>430.580446</ele>
        <time>2021-11-12T20:30:08.997Z</time>
      </trkpt>
      <trkpt lat="47.513384" lon="7.854250">
        <ele>430.629066</ele>
        <time>2021-11-12T20:30:09.510Z</time>
      </trkpt>
      <trkpt lat="47.513112" lon="7.854470">
        <ele>431.033661</ele>
        <time>2021-11-12T20:30:15.077Z</time>
      </trkpt>
      <trkpt lat="47.513025" lon="7.854549">
        <ele>431.004871</ele>
        <time>2021-11-12T20:30:16.583Z</time>
      </trkpt>
      <trkpt lat="47.512998" lon="7.854574">
        <ele>430.995888</ele>
        <time>2021-11-12T20:30:17.783Z</time>
      </trkpt>
      <trkpt lat="47.512545" lon="7.855000">
        <ele>430.844504</ele>
        <time>2021-11-12T20:30:25.966Z</time>
      </trkpt>
      <trkpt lat="47.512091" lon="7.855323">
        <ele>430.702416</ele>
        <time>2021-11-12T20:30:32.884Z</time>
      </trkpt>
      <trkpt lat="47.510645" lon="7.856175">
        <ele>428.787800</ele>
        <time>2021-11-12T20:30:51.095Z</time>
      </trkpt>
      <trkpt lat="47.509866" lon="7.856623">
        <ele>427.430797</ele>
        <time>2021-11-12T20:30:59.963Z</time>
      </trkpt>
      <trkpt lat="47.509612" lon="7.856783">
        <ele>427.260350</ele>
        <time>2021-11-12T20:31:02.967Z</time>
      </trkpt>
      <trkpt lat="47.509242" lon="7.857142">
        <ele>426.987188</ele>
        <time>2021-11-12T20:31:08.135Z</time>
      </trkpt>
      <trkpt lat="47.509118" lon="7.857296">
        <ele>426.887247</ele>
        <time>2021-11-12T20:31:10.250Z</time>
      </trkpt>
      <trkpt lat="47.508916" lon="7.857621">
        <ele>426.703039</ele>
        <time>2021-11-12T20:31:14.277Z</time>
      </trkpt>
      <trkpt lat="47.508546" lon="7.858348">
        <ele>426.488806</ele>
        <time>2021-11-12T20:31:24.894Z</time>
      </trkpt>
      <trkpt lat="47.508474" lon="7.858558">
        <ele>426.808336</ele>
        <time>2021-11-12T20:31:28.400Z</time>
      </trkpt>
      <trkpt lat="47.508421" lon="7.858745">
        <ele>427.083486</ele>
        <time>2021-11-12T20:31:31.312Z</time>
      </trkpt>
      <trkpt lat="47.508381" lon="7.858911">
        <ele>427.322617</ele>
        <time>2021-11-12T20:31:33.721Z</time>
      </trkpt>
      <trkpt lat="47.508349" lon="7.859039">
        <ele>427.507800</ele>
        <time>2021-11-12T20:31:35.902Z</time>
      </trkpt>
      <trkpt lat="47.508332" lon="7.859103">
        <ele>427.601108</ele>
        <time>2021-11-12T20:31:36.981Z</time>
      </trkpt>
      <trkpt lat="47.508015" lon="7.860357">
        <ele>429.417785</ele>
        <time>2021-11-12T20:31:59.117Z</time>
      </trkpt>
      <trkpt lat="47.507928" lon="7.861309">
        <ele>430.982466</ele>
        <time>2021-11-12T20:32:15.336Z</time>
      </trkpt>
      <trkpt lat="47.507840" lon="7.861638">
        <ele>431.630672</ele>
        <time>2021-11-12T20:32:20.750Z</time>
      </trkpt>
      <trkpt lat="47.507768" lon="7.861796">
        <ele>431.979808</ele>
        <time>2021-11-12T20:32:24.163Z</time>
      </trkpt>
      <trkpt lat="47.507702" lon="7.861899">
        <ele>432.239877</ele>
        <time>2021-11-12T20:32:26.527Z</time>
      </trkpt>
      <trkpt lat="47.507509" lon="7.862078">
        <ele>432.857501</ele>
        <time>2021-11-12T20:32:32.062Z</time>
      </trkpt>
      <trkpt lat="47.507355" lon="7.862189">
        <ele>433.322002</ele>
        <time>2021-11-12T20:32:36.606Z</time>
      </trkpt>
      <trkpt lat="47.507294" lon="7.862232">
        <ele>433.505223</ele>
        <time>2021-11-12T20:32:37.932Z</time>
      </trkpt>
      <trkpt lat="47.506679" lon="7.862634">
        <ele>435.505613</ele>
        <time>2021-11-12T20:32:56.801Z</time>
      </trkpt>
      <trkpt lat="47.506544" lon="7.862713">
        <ele>436.045996</ele>
        <time>2021-11-12T20:33:00.777Z</time>
      </trkpt>
      <trkpt lat="47.506248" lon="7.862922">
        <ele>437.266790</ele>
        <time>2021-11-12T20:33:10.486Z</time>
      </trkpt>
      <trkpt lat="47.506215" lon="7.862947">
        <ele>437.404785</ele>
        <time>2021-11-12T20:33:11.933Z</time>
      </trkpt>
      <trkpt lat="47.506122" lon="7.863012">
        <ele>437.787628</ele>
        <time>2021-11-12T20:33:15.135Z</time>
      </trkpt>
      <trkpt lat="47.505782" lon="7.863270">
        <ele>439.209889</ele>
        <time>2021-11-12T20:33:25.906Z</time>
      </trkpt>
      <trkpt lat="47.505748" lon="7.863314">
        <ele>439.378000</ele>
        <time>2021-11-12T20:33:28.082Z</time>
      </trkpt>
      <trkpt lat="47.505692" lon="7.863406">
        <ele>439.689413</ele>
        <time>2021-11-12T20:33:29.776Z</time>
      </trkpt>
      <trkpt lat="47.505675" lon="7.863444">
        <ele>439.804025</ele>
        <time>2021-11-12T20:33:30.410Z</time>
      </trkpt>
      <trkpt lat="47.505633" lon="7.863539">
        <ele>440.089531</ele>
        <time>2021-11-12T20:33:33.146Z</time>
      </trkpt>
      <trkpt lat="47.505528" lon="7.864048">
        <ele>441.427840</ele>
        <time>2021-11-12T20:33:43.978Z</time>
      </trkpt>
      <trkpt lat="47.505513" lon="7.864163">
        <ele>441.803676</ele>
        <time>2021-11-12T20:33:46.294Z</time>
      </trkpt>
      <trkpt lat="47.505507" lon="7.864261">
        <ele>442.166742</ele>
        <time>2021-11-12T20:33:48.619Z</time>
      </trkpt>
      <trkpt lat="47.505465" lon="7.864478">
        <ele>442.999609</ele>
        <time>2021-11-12T20:33:53.051Z</time>
      </trkpt>
      <trkpt lat="47.505441" lon="7.864505">
        <ele>443.164253</ele>
        <time>2021-11-12T20:33:54.336Z</time>
      </trkpt>
      <trkpt lat="47.505405" lon="7.864527">
        <ele>443.376978</ele>
        <time>2021-11-12T20:33:55.859Z</time>
      </trkpt>
      <trkpt lat="47.505256" lon="7.864486">
        <ele>444.204745</ele>
        <time>2021-11-12T20:34:01.672Z</time>
      </trkpt>
      <trkpt lat="47.504995" lon="7.864288">
        <ele>445.806598</ele>
        <time>2021-11-12T20:34:10.832Z</time>
      </trkpt>
      <trkpt lat="47.504952" lon="7.864282">
        <ele>446.042502</ele>
        <time>2021-11-12T20:34:12.389Z</time>
      </trkpt>
      <trkpt lat="47.504920" lon="7.864294">
        <ele>446.222804</ele>
        <time>2021-11-12T20:34:14.433Z</time>
      </trkpt>
      <trkpt lat="47.504643" lon="7.864558">
        <ele>448.022207</ele>
        <time>2021-11-12T20:34:25.983Z</time>
      </trkpt>
      <trkpt lat="47.504308" lon="7.864735">
        <ele>449.965007</ele>
        <time>2021-11-12T20:34:39.404Z</time>
      </trkpt>
      <trkpt lat="47.504143" lon="7.864781">
        <ele>450.882067</ele>
        <time>2021-11-12T20:34:47.406Z</time>
      </trkpt>
      <trkpt lat="47.503852" lon="7.864881">
        <ele>453.159945</ele>
        <time>2021-11-12T20:35:00.538Z</time>
      </trkpt>
      <trkpt lat="47.503302" lon="7.865016">
        <ele>457.929030</ele>
        <time>2021-11-12T20:35:23.917Z</time>
      </trkpt>
      <trkpt lat="47.503247" lon="7.865009">
        <ele>458.401250</ele>
        <time>2021-11-12T20:35:27.239Z</time>
      </trkpt>
      <trkpt lat="47.503195" lon="7.864995">
        <ele>458.853369</ele>
        <time>2021-11-12T20:35:29.858Z</time>
      </trkpt>
      <trkpt lat="47.503152" lon="7.864980">
        <ele>459.231278</ele>
        <time>2021-11-12T20:35:33.611Z</time>
      </trkpt>
      <trkpt lat="47.503106" lon="7.864958">
        <ele>459.644803</ele>
        <time>2021-11-12T20:35:35.661Z</time>
      </trkpt>
      <trkpt lat="47.503068" lon="7.864937">
        <ele>459.991779</ele>
        <time>2021-11-12T20:35:37.633Z</time>
      </trkpt>
      <trkpt lat="47.502975" lon="7.864876">
        <ele>460.861927</ele>
        <time>2021-11-12T20:35:40.935Z</time>
      </trkpt>
      <trkpt lat="47.502843" lon="7.864785">
        <ele>462.107540</ele>
        <time>2021-11-12T20:35:48.721Z</time>
      </trkpt>
      <trkpt lat="47.502827" lon="7.864774">
        <ele>462.258450</ele>
        <time>2021-11-12T20:35:50.669Z</time>
      </trkpt>
      <trkpt lat="47.502294" lon="7.864417">
        <ele>467.364500</ele>
        <time>2021-11-12T20:36:21.015Z</time>
      </trkpt>
      <trkpt lat="47.502167" lon="7.864327">
        <ele>468.811555</ele>
        <time>2021-11-12T20:36:31.043Z</time>
      </trkpt>
      <trkpt lat="47.502040" lon="7.864236">
        <ele>470.261623</ele>
        <time>2021-11-12T20:36:38.000Z</time>
      </trkpt>
      <trkpt lat="47.501887" lon="7.864052">
        <ele>472.287555</ele>
        <time>2021-11-12T20:36:49.097Z</time>
      </trkpt>
      <trkpt lat="47.501772" lon="7.863893">
        <ele>473.904788</ele>
        <time>2021-11-12T20:36:58.734Z</time>
      </trkpt>
      <trkpt lat="47.501711" lon="7.863821">
        <ele>474.706596</ele>
        <time>2021-11-12T20:37:01.957Z</time>
      </trkpt>
      <trkpt lat="47.501653" lon="7.863755">
        <ele>475.458445</ele>
        <time>2021-11-12T20:37:06.027Z</time>
      </trkpt>
      <trkpt lat="47.501511" lon="7.863635">
        <ele>477.138872</ele>
        <time>2021-11-12T20:37:16.343Z</time>
      </trkpt>
      <trkpt lat="47.501300" lon="7.863507">
        <ele>479.482382</ele>
        <time>2021-11-12T20:37:28.129Z</time>
      </trkpt>
      <trkpt lat="47.501035" lon="7.863348">
        <ele>482.421047</ele>
        <time>2021-11-12T20:37:42.897Z</time>
      </trkpt>
      <trkpt lat="47.500468" lon="7.862843">
        <ele>490.648995</ele>
        <time>2021-11-12T20:38:19.936Z</time>
      </trkpt>
      <trkpt lat="47.499952" lon="7.862524">
        <ele>498.457703</ele>
        <time>2021-11-12T20:39:00.610Z</time>
      </trkpt>
      <trkpt lat="47.499629" lon="7.862416">
        <ele>503.081768</ele>
        <time>2021-11-12T20:39:23.669Z</time>
      </trkpt>
      <trkpt lat="47.499406" lon="7.862482">
        <ele>506.257411</ele>
        <time>2021-11-12T20:39:38.728Z</time>
      </trkpt>
      <trkpt lat="47.499376" lon="7.862501">
        <ele>506.713073</ele>
        <time>2021-11-12T20:39:42.435Z</time>
      </trkpt>
      <trkpt lat="47.499273" lon="7.862595">
        <ele>508.402794</ele>
        <time>2021-11-12T20:39:53.495Z</time>
      </trkpt>
      <trkpt lat="47.499113" lon="7.862818">
        <ele>511.494446</ele>
        <time>2021-11-12T20:40:09.860Z</time>
      </trkpt>
      <trkpt lat="47.498820" lon="7.863196">
        <ele>517.033118</ele>
        <time>2021-11-12T20:40:44.600Z</time>
      </trkpt>
      <trkpt lat="47.498580" lon="7.863425">
        <ele>521.102202</ele>
        <time>2021-11-12T20:41:02.231Z</time>
      </trkpt>
      <trkpt lat="47.498435" lon="7.863451">
        <ele>523.183588</ele>
        <time>2021-11-12T20:41:17.779Z</time>
      </trkpt>
      <trkpt lat="47.498210" lon="7.863375">
        <ele>526.472312</ele>
        <time>2021-11-12T20:41:29.228Z</time>
      </trkpt>
      <trkpt lat="47.498143" lon="7.863313">
        <ele>527.598312</ele>
        <time>2021-11-12T20:41:37.834Z</time>
      </trkpt>
      <trkpt lat="47.498094" lon="7.863239">
        <ele>528.595882</ele>
        <time>2021-11-12T20:41:41.802Z</time>
      </trkpt>
      <trkpt lat="47.498044" lon="7.863155">
        <ele>529.673705</ele>
        <time>2021-11-12T20:41:44.997Z</time>
      </trkpt>
      <trkpt lat="47.497989" lon="7.863021">
        <ele>531.183226</ele>
        <time>2021-11-12T20:41:50.303Z</time>
      </trkpt>
      <trkpt lat="47.497959" lon="7.862857">
        <ele>532.819014</ele>
        <time>2021-11-12T20:41:59.950Z</time>
      </trkpt>
      <trkpt lat="47.497995" lon="7.862394">
        <ele>536.801438</ele>
        <time>2021-11-12T20:42:18.425Z</time>
      </trkpt>
      <trkpt lat="47.498287" lon="7.861611">
        <ele>542.108402</ele>
        <time>2021-11-12T20:42:48.602Z</time>
      </trkpt>
      <trkpt lat="47.498322" lon="7.861024">
        <ele>545.605064</ele>
        <time>2021-11-12T20:43:10.704Z</time>
      </trkpt>
      <trkpt lat="47.498298" lon="7.860778">
        <ele>547.079913</ele>
        <time>2021-11-12T20:43:15.672Z</time>
      </trkpt>
      <trkpt lat="47.498262" lon="7.860571">
        <ele>548.348246</ele>
        <time>2021-11-12T20:43:22.231Z</time>
      </trkpt>
      <trkpt lat="47.498026" lon="7.859791">
        <ele>553.371257</ele>
        <time>2021-11-12T20:43:46.451Z</time>
      </trkpt>
      <trkpt lat="47.497901" lon="7.859533">
        <ele>555.199395</ele>
        <time>2021-11-12T20:43:56.926Z</time>
      </trkpt>
      <trkpt lat="47.497833" lon="7.859414">
        <ele>556.096854</ele>
        <time>2021-11-12T20:44:02.864Z</time>
      </trkpt>
      <trkpt lat="47.497149" lon="7.858438">
        <ele>564.194426</ele>
        <time>2021-11-12T20:44:52.746Z</time>
      </trkpt>
      <trkpt lat="47.497045" lon="7.858131">
        <ele>566.172006</ele>
        <time>2021-11-12T20:45:05.247Z</time>
      </trkpt>
      <trkpt lat="47.496867" lon="7.857284">
        <ele>568.863834</ele>
        <time>2021-11-12T20:45:31.677Z</time>
      </trkpt>
      <trkpt lat="47.496570" lon="7.856657">
        <ele>570.713728</ele>
        <time>2021-11-12T20:45:50.066Z</time>
      </trkpt>
      <trkpt lat="47.495985" lon="7.856090">
        <ele>573.214059</ele>
        <time>2021-11-12T20:46:04.147Z</time>
      </trkpt>
      <trkpt lat="47.495761" lon="7.855963">
        <ele>572.735000</ele>
        <time>2021-11-12T20:46:06.550Z</time>
      </trkpt>
      <trkpt lat="47.495682" lon="7.855928">
        <ele>572.275905</ele>
        <time>2021-11-12T20:46:08.235Z</time>
      </trkpt>
      <trkpt lat="47.495626" lon="7.855911">
        <ele>571.957648</ele>
        <time>2021-11-12T20:46:08.805Z</time>
      </trkpt>
      <trkpt lat="47.495339" lon="7.855822">
        <ele>570.325148</ele>
        <time>2021-11-12T20:46:11.570Z</time>
      </trkpt>
      <trkpt lat="47.495219" lon="7.855764">
        <ele>569.622356</ele>
        <time>2021-11-12T20:46:12.739Z</time>
      </trkpt>
      <trkpt lat="47.495162" lon="7.855728">
        <ele>569.277337</ele>
        <time>2021-11-12T20:46:13.266Z</time>
      </trkpt>
      <trkpt lat="47.494903" lon="7.855508">
        <ele>567.614820</ele>
        <time>2021-11-12T20:46:16.070Z</time>
      </trkpt>
      <trkpt lat="47.494791" lon="7.855375">
        <ele>566.815395</ele>
        <time>2021-11-12T20:46:17.312Z</time>
      </trkpt>
      <trkpt lat="47.494366" lon="7.854877">
        <ele>563.797532</ele>
        <time>2021-11-12T20:46:22.206Z</time>
      </trkpt>
      <trkpt lat="47.494198" lon="7.854677">
        <ele>562.119279</ele>
        <time>2021-11-12T20:46:24.071Z</time>
      </trkpt>
      <trkpt lat="47.494057" lon="7.854507">
        <ele>560.591042</ele>
        <time>2021-11-12T20:46:25.686Z</time>
      </trkpt>
      <trkpt lat="47.493734" lon="7.854034">
        <ele>556.772745</ele>
        <time>2021-11-12T20:46:29.645Z</time>
      </trkpt>
      <trkpt lat="47.493043" lon="7.852307">
        <ele>544.518730</ele>
        <time>2021-11-12T20:46:41.570Z</time>
      </trkpt>
      <trkpt lat="47.493033" lon="7.852285">
        <ele>544.325745</ele>
        <time>2021-11-12T20:46:41.722Z</time>
      </trkpt>
      <trkpt lat="47.492920" lon="7.852087">
        <ele>542.439363</ele>
        <time>2021-11-12T20:46:43.255Z</time>
      </trkpt>
      <trkpt lat="47.492804" lon="7.851886">
        <ele>540.515415</ele>
        <time>2021-11-12T20:46:44.757Z</time>
      </trkpt>
      <trkpt lat="47.492688" lon="7.851670">
        <ele>538.507196</ele>
        <time>2021-11-12T20:46:46.376Z</time>
      </trkpt>
      <trkpt lat="47.492659" lon="7.851591">
        <ele>537.852825</ele>
        <time>2021-11-12T20:46:46.873Z</time>
      </trkpt>
      <trkpt lat="47.492601" lon="7.850751">
        <ele>531.707130</ele>
        <time>2021-11-12T20:46:51.741Z</time>
      </trkpt>
      <trkpt lat="47.492541" lon="7.850563">
        <ele>530.193829</ele>
        <time>2021-11-12T20:46:52.915Z</time>
      </trkpt>
      <trkpt lat="47.492414" lon="7.850375">
        <ele>528.229932</ele>
        <time>2021-11-12T20:46:54.438Z</time>
      </trkpt>
      <trkpt lat="47.492293" lon="7.850293">
        <ele>526.743608</ele>
        <time>2021-11-12T20:46:55.545Z</time>
      </trkpt>
      <trkpt lat="47.492141" lon="7.850226">
        <ele>524.972307</ele>
        <time>2021-11-12T20:46:56.861Z</time>
      </trkpt>
      <trkpt lat="47.491187" lon="7.849815">
        <ele>513.875329</ele>
        <time>2021-11-12T20:47:05.346Z</time>
      </trkpt>
      <trkpt lat="47.490767" lon="7.849632">
        <ele>508.985502</ele>
        <time>2021-11-12T20:47:09.079Z</time>
      </trkpt>
      <trkpt lat="47.490721" lon="7.849614">
        <ele>508.573008</ele>
        <time>2021-11-12T20:47:09.501Z</time>
      </trkpt>
      <trkpt lat="47.490655" lon="7.849589">
        <ele>507.991583</ele>
        <time>2021-11-12T20:47:10.072Z</time>
      </trkpt>
      <trkpt lat="47.490088" lon="7.849193">
        <ele>502.640815</ele>
        <time>2021-11-12T20:47:15.623Z</time>
      </trkpt>
      <trkpt lat="47.489830" lon="7.849115">
        <ele>500.393477</ele>
        <time>2021-11-12T20:47:17.886Z</time>
      </trkpt>
      <trkpt lat="47.489714" lon="7.849112">
        <ele>499.403341</ele>
        <time>2021-11-12T20:47:18.956Z</time>
      </trkpt>
      <trkpt lat="47.489636" lon="7.849127">
        <ele>498.732065</ele>
        <time>2021-11-12T20:47:19.615Z</time>
      </trkpt>
      <trkpt lat="47.489366" lon="7.849261">
        <ele>496.301666</ele>
        <time>2021-11-12T20:47:22.187Z</time>
      </trkpt>
      <trkpt lat="47.489046" lon="7.849642">
        <ele>493.001402</ele>
        <time>2021-11-12T20:47:25.878Z</time>
      </trkpt>
      <trkpt lat="47.488993" lon="7.849683">
        <ele>492.619865</ele>
        <time>2021-11-12T20:47:26.385Z</time>
      </trkpt>
      <trkpt lat="47.488939" lon="7.849720">
        <ele>492.240225</ele>
        <time>2021-11-12T20:47:26.896Z</time>
      </trkpt>
      <trkpt lat="47.488639" lon="7.849855">
        <ele>490.239772</ele>
        <time>2021-11-12T20:47:29.695Z</time>
      </trkpt>
      <trkpt lat="47.488402" lon="7.849885">
        <ele>488.722251</ele>
        <time>2021-11-12T20:47:31.926Z</time>
      </trkpt>
      <trkpt lat="47.487361" lon="7.849792">
        <ele>482.111195</ele>
        <time>2021-11-12T20:47:41.361Z</time>
      </trkpt>
      <trkpt lat="47.487219" lon="7.849782">
        <ele>481.801666</ele>
        <time>2021-11-12T20:47:42.754Z</time>
      </trkpt>
      <trkpt lat="47.487073" lon="7.849767">
        <ele>481.483013</ele>
        <time>2021-11-12T20:47:44.309Z</time>
      </trkpt>
      <trkpt lat="47.486894" lon="7.849739">
        <ele>481.091101</ele>
        <time>2021-11-12T20:47:46.212Z</time>
      </trkpt>
      <trkpt lat="47.486773" lon="7.849704">
        <ele>480.822660</ele>
        <time>2021-11-12T20:47:47.477Z</time>
      </trkpt>
      <trkpt lat="47.486469" lon="7.849589">
        <ele>480.139470</ele>
        <time>2021-11-12T20:47:51.055Z</time>
      </trkpt>
      <trkpt lat="47.486303" lon="7.849650">
        <ele>479.767058</ele>
        <time>2021-11-12T20:47:53.523Z</time>
      </trkpt>
      <trkpt lat="47.486279" lon="7.849670">
        <ele>479.707087</ele>
        <time>2021-11-12T20:47:53.829Z</time>
      </trkpt>
      <trkpt lat="47.486240" lon="7.849728">
        <ele>479.586698</ele>
        <time>2021-11-12T20:47:54.485Z</time>
      </trkpt>
      <trkpt lat="47.486083" lon="7.849946">
        <ele>479.117935</ele>
        <time>2021-11-12T20:47:57.044Z</time>
      </trkpt>
      <trkpt lat="47.485987" lon="7.849975">
        <ele>478.904602</ele>
        <time>2021-11-12T20:47:59.351Z</time>
      </trkpt>
      <trkpt lat="47.485932" lon="7.849984">
        <ele>478.784119</ele>
        <time>2021-11-12T20:47:59.968Z</time>
      </trkpt>
      <trkpt lat="47.485834" lon="7.849993">
        <ele>478.570332</ele>
        <time>2021-11-12T20:48:00.939Z</time>
      </trkpt>
      <trkpt lat="47.485547" lon="7.850079">
        <ele>477.907323</ele>
        <time>2021-11-12T20:48:04.811Z</time>
      </trkpt>
      <trkpt lat="47.485423" lon="7.850124">
        <ele>477.604453</ele>
        <time>2021-11-12T20:48:06.084Z</time>
      </trkpt>
      <trkpt lat="47.485302" lon="7.850164">
        <ele>477.310340</ele>
        <time>2021-11-12T20:48:08.082Z</time>
      </trkpt>
      <trkpt lat="47.485140" lon="7.850236">
        <ele>476.909083</ele>
        <time>2021-11-12T20:48:10.051Z</time>
      </trkpt>
      <trkpt lat="47.484922" lon="7.850473">
        <ele>476.267378</ele>
        <time>2021-11-12T20:48:13.308Z</time>
      </trkpt>
      <trkpt lat="47.484736" lon="7.850560">
        <ele>475.804629</ele>
        <time>2021-11-12T20:48:15.244Z</time>
      </trkpt>
      <trkpt lat="47.484631" lon="7.850586">
        <ele>475.552083</ele>
        <time>2021-11-12T20:48:17.064Z</time>
      </trkpt>
      <trkpt lat="47.484548" lon="7.850572">
        <ele>475.353915</ele>
        <time>2021-11-12T20:48:17.942Z</time>
      </trkpt>
      <trkpt lat="47.484518" lon="7.850556">
        <ele>475.278267</ele>
        <time>2021-11-12T20:48:18.232Z</time>
      </trkpt>
      <trkpt lat="47.484352" lon="7.850459">
        <ele>474.854889</ele>
        <time>2021-11-12T20:48:19.864Z</time>
      </trkpt>
      <trkpt lat="47.484041" lon="7.850377">
        <ele>474.105512</ele>
        <time>2021-11-12T20:48:22.983Z</time>
      </trkpt>
      <trkpt lat="47.483128" lon="7.850517">
        <ele>471.259193</ele>
        <time>2021-11-12T20:48:32.497Z</time>
      </trkpt>
      <trkpt lat="47.483011" lon="7.850573">
        <ele>470.870991</ele>
        <time>2021-11-12T20:48:33.628Z</time>
      </trkpt>
      <trkpt lat="47.482915" lon="7.850629">
        <ele>470.545226</ele>
        <time>2021-11-12T20:48:34.629Z</time>
      </trkpt>
      <trkpt lat="47.482807" lon="7.850688">
        <ele>470.181784</ele>
        <time>2021-11-12T20:48:35.961Z</time>
      </trkpt>
      <trkpt lat="47.482794" lon="7.850696">
        <ele>470.137336</ele>
        <time>2021-11-12T20:48:36.119Z</time>
      </trkpt>
      <trkpt lat="47.482738" lon="7.850728">
        <ele>469.947824</ele>
        <time>2021-11-12T20:48:36.718Z</time>
      </trkpt>
      <trkpt lat="47.482665" lon="7.850768">
        <ele>469.702074</ele>
        <time>2021-11-12T20:48:37.487Z</time>
      </trkpt>
      <trkpt lat="47.482608" lon="7.850799">
        <ele>469.510360</ele>
        <time>2021-11-12T20:48:38.178Z</time>
      </trkpt>
      <trkpt lat="47.482358" lon="7.850933">
        <ele>468.670944</ele>
        <time>2021-11-12T20:48:42.307Z</time>
      </trkpt>
      <trkpt lat="47.481766" lon="7.851223">
        <ele>466.618765</ele>
        <time>2021-11-12T20:48:51.477Z</time>
      </trkpt>
      <trkpt lat="47.481608" lon="7.851297">
        <ele>466.067741</ele>
        <time>2021-11-12T20:48:53.723Z</time>
      </trkpt>
      <trkpt lat="47.481334" lon="7.851437">
        <ele>465.103929</ele>
        <time>2021-11-12T20:48:58.137Z</time>
      </trkpt>
      <trkpt lat="47.480852" lon="7.851729">
        <ele>463.372202</ele>
        <time>2021-11-12T20:49:06.046Z</time>
      </trkpt>
      <trkpt lat="47.480750" lon="7.851790">
        <ele>463.006408</ele>
        <time>2021-11-12T20:49:07.521Z</time>
      </trkpt>
      <trkpt lat="47.480646" lon="7.851849">
        <ele>462.636073</ele>
        <time>2021-11-12T20:49:08.980Z</time>
      </trkpt>
      <trkpt lat="47.480217" lon="7.852063">
        <ele>460.783781</ele>
        <time>2021-11-12T20:49:15.302Z</time>
      </trkpt>
      <trkpt lat="47.479485" lon="7.852237">
        <ele>457.581835</ele>
        <time>2021-11-12T20:49:25.385Z</time>
      </trkpt>
      <trkpt lat="47.479244" lon="7.852259">
        <ele>456.539009</ele>
        <time>2021-11-12T20:49:28.591Z</time>
      </trkpt>
      <trkpt lat="47.479117" lon="7.852270">
        <ele>455.989575</ele>
        <time>2021-11-12T20:49:30.483Z</time>
      </trkpt>
      <trkpt lat="47.476984" lon="7.852449">
        <ele>447.752322</ele>
        <time>2021-11-12T20:50:01.175Z</time>
      </trkpt>
      <trkpt lat="47.476792" lon="7.852449">
        <ele>446.725184</ele>
        <time>2021-11-12T20:50:03.734Z</time>
      </trkpt>
      <trkpt lat="47.476682" lon="7.852438">
        <ele>446.133855</ele>
        <time>2021-11-12T20:50:05.244Z</time>
      </trkpt>
      <trkpt lat="47.476520" lon="7.852417">
        <ele>445.261643</ele>
        <time>2021-11-12T20:50:07.363Z</time>
      </trkpt>
      <trkpt lat="47.476289" lon="7.852358">
        <ele>444.004354</ele>
        <time>2021-11-12T20:50:10.571Z</time>
      </trkpt>
      <trkpt lat="47.476190" lon="7.852326">
        <ele>443.460846</ele>
        <time>2021-11-12T20:50:11.852Z</time>
      </trkpt>
      <trkpt lat="47.476000" lon="7.852252">
        <ele>442.407067</ele>
        <time>2021-11-12T20:50:14.512Z</time>
      </trkpt>
      <trkpt lat="47.475712" lon="7.852137">
        <ele>440.807116</ele>
        <time>2021-11-12T20:50:18.436Z</time>
      </trkpt>
      <trkpt lat="47.475474" lon="7.852041">
        <ele>439.484018</ele>
        <time>2021-11-12T20:50:21.637Z</time>
      </trkpt>
      <trkpt lat="47.475005" lon="7.851847">
        <ele>437.063899</ele>
        <time>2021-11-12T20:50:28.115Z</time>
      </trkpt>
      <trkpt lat="47.474489" lon="7.851469">
        <ele>434.458450</ele>
        <time>2021-11-12T20:50:35.864Z</time>
      </trkpt>
      <trkpt lat="47.474073" lon="7.851261">
        <ele>432.471456</ele>
        <time>2021-11-12T20:50:42.001Z</time>
      </trkpt>
      <trkpt lat="47.473706" lon="7.851184">
        <ele>430.794165</ele>
        <time>2021-11-12T20:50:47.326Z</time>
      </trkpt>
      <trkpt lat="47.473275" lon="7.851189">
        <ele>428.941972</ele>
        <time>2021-11-12T20:50:53.544Z</time>
      </trkpt>
      <trkpt lat="47.473132" lon="7.851211">
        <ele>428.348598</ele>
        <time>2021-11-12T20:50:55.473Z</time>
      </trkpt>
      <trkpt lat="47.473090" lon="7.851217">
        <ele>428.174449</ele>
        <time>2021-11-12T20:50:56.040Z</time>
      </trkpt>
      <trkpt lat="47.472594" lon="7.851279">
        <ele>426.120058</ele>
        <time>2021-11-12T20:51:03.131Z</time>
      </trkpt>
      <trkpt lat="47.472223" lon="7.851237">
        <ele>424.584387</ele>
        <time>2021-11-12T20:51:08.368Z</time>
      </trkpt>
      <trkpt lat="47.472075" lon="7.851198">
        <ele>423.963945</ele>
        <time>2021-11-12T20:51:10.411Z</time>
      </trkpt>
      <trkpt lat="47.472010" lon="7.851173">
        <ele>423.686758</ele>
        <time>2021-11-12T20:51:11.316Z</time>
      </trkpt>
      <trkpt lat="47.471898" lon="7.851131">
        <ele>423.209892</ele>
        <time>2021-11-12T20:51:12.991Z</time>
      </trkpt>
      <trkpt lat="47.471670" lon="7.851035">
        <ele>422.179855</ele>
        <time>2021-11-12T20:51:16.116Z</time>
      </trkpt>
      <trkpt lat="47.471325" lon="7.850935">
        <ele>420.483389</ele>
        <time>2021-11-12T20:51:21.004Z</time>
      </trkpt>
      <trkpt lat="47.470525" lon="7.850877">
        <ele>416.618322</ele>
        <time>2021-11-12T20:51:31.877Z</time>
      </trkpt>
      <trkpt lat="47.470421" lon="7.850868">
        <ele>416.115608</ele>
        <time>2021-11-12T20:51:33.231Z</time>
      </trkpt>
      <trkpt lat="47.470145" lon="7.850841">
        <ele>414.780850</ele>
        <time>2021-11-12T20:51:37.023Z</time>
      </trkpt>
      <trkpt lat="47.469772" lon="7.850804">
        <ele>413.029155</ele>
        <time>2021-11-12T20:51:42.106Z</time>
      </trkpt>
      <trkpt lat="47.469555" lon="7.850782">
        <ele>412.041867</ele>
        <time>2021-11-12T20:51:44.998Z</time>
      </trkpt>
      <trkpt lat="47.469464" lon="7.850775">
        <ele>411.628254</ele>
        <time>2021-11-12T20:51:46.313Z</time>
      </trkpt>
      <trkpt lat="47.469352" lon="7.850770">
        <ele>411.119647</ele>
        <time>2021-11-12T20:51:47.357Z</time>
      </trkpt>
      <trkpt lat="47.469315" lon="7.850771">
        <ele>410.951674</ele>
        <time>2021-11-12T20:51:47.692Z</time>
      </trkpt>
      <trkpt lat="47.469115" lon="7.850772">
        <ele>410.043855</ele>
        <time>2021-11-12T20:51:49.631Z</time>
      </trkpt>
      <trkpt lat="47.468931" lon="7.850775">
        <ele>409.208616</ele>
        <time>2021-11-12T20:51:51.335Z</time>
      </trkpt>
      <trkpt lat="47.468807" lon="7.850777">
        <ele>408.645738</ele>
        <time>2021-11-12T20:51:52.539Z</time>
      </trkpt>
      <trkpt lat="47.468794" lon="7.850777">
        <ele>408.586731</ele>
        <time>2021-11-12T20:51:52.666Z</time>
      </trkpt>
      <trkpt lat="47.468646" lon="7.850779">
        <ele>407.914921</ele>
        <time>2021-11-12T20:51:54.170Z</time>
      </trkpt>
      <trkpt lat="47.468532" lon="7.850782">
        <ele>407.397385</ele>
        <time>2021-11-12T20:51:55.242Z</time>
      </trkpt>
      <trkpt lat="47.467007" lon="7.850894">
        <ele>401.693891</ele>
        <time>2021-11-12T20:52:10.214Z</time>
      </trkpt>
      <trkpt lat="47.466831" lon="7.850929">
        <ele>401.077081</ele>
        <time>2021-11-12T20:52:12.003Z</time>
      </trkpt>
      <trkpt lat="47.466767" lon="7.850952">
        <ele>400.848321</ele>
        <time>2021-11-12T20:52:12.714Z</time>
      </trkpt>
      <trkpt lat="47.466576" lon="7.851019">
        <ele>400.166512</ele>
        <time>2021-11-12T20:52:14.778Z</time>
      </trkpt>
      <trkpt lat="47.466513" lon="7.851046">
        <ele>399.938692</ele>
        <time>2021-11-12T20:52:15.456Z</time>
      </trkpt>
      <trkpt lat="47.466390" lon="7.851107">
        <ele>399.488099</ele>
        <time>2021-11-12T20:52:16.833Z</time>
      </trkpt>
      <trkpt lat="47.466015" lon="7.851377">
        <ele>398.633550</ele>
        <time>2021-11-12T20:52:21.245Z</time>
      </trkpt>
      <trkpt lat="47.465925" lon="7.851458">
        <ele>398.422191</ele>
        <time>2021-11-12T20:52:22.331Z</time>
      </trkpt>
      <trkpt lat="47.465914" lon="7.851427">
        <ele>398.374706</ele>
        <time>2021-11-12T20:52:22.574Z</time>
      </trkpt>
      <trkpt lat="47.465853" lon="7.851380">
        <ele>398.236717</ele>
        <time>2021-11-12T20:52:23.288Z</time>
      </trkpt>
      <trkpt lat="47.465829" lon="7.851383">
        <ele>398.188395</ele>
        <time>2021-11-12T20:52:23.543Z</time>
      </trkpt>
      <trkpt lat="47.465784" lon="7.851200">
        <ele>397.924283</ele>
        <time>2021-11-12T20:52:25.015Z</time>
      </trkpt>
      <trkpt lat="47.465714" lon="7.850917">
        <ele>397.515565</ele>
        <time>2021-11-12T20:52:27.158Z</time>
      </trkpt>
      <trkpt lat="47.465620" lon="7.850585">
        <ele>397.027376</ele>
        <time>2021-11-12T20:52:29.929Z</time>
      </trkpt>
      <trkpt lat="47.465558" lon="7.850405">
        <ele>396.753379</ele>
        <time>2021-11-12T20:52:31.527Z</time>
      </trkpt>
      <trkpt lat="47.465348" lon="7.849875">
        <ele>395.920168</ele>
        <time>2021-11-12T20:52:36.439Z</time>
      </trkpt>
      <trkpt lat="47.465152" lon="7.849351">
        <ele>395.351696</ele>
        <time>2021-11-12T20:52:41.152Z</time>
      </trkpt>
      <trkpt lat="47.464952" lon="7.848443">
        <ele>394.489292</ele>
        <time>2021-11-12T20:52:48.644Z</time>
      </trkpt>
      <trkpt lat="47.464909" lon="7.848219">
        <ele>394.279009</ele>
        <time>2021-11-12T20:52:50.489Z</time>
      </trkpt>
      <trkpt lat="47.464850" lon="7.847870">
        <ele>393.954135</ele>
        <time>2021-11-12T20:52:53.290Z</time>
      </trkpt>
      <trkpt lat="47.464820" lon="7.847644">
        <ele>393.746146</ele>
        <time>2021-11-12T20:52:55.202Z</time>
      </trkpt>
      <trkpt lat="47.464784" lon="7.847333">
        <ele>393.461205</ele>
        <time>2021-11-12T20:52:57.709Z</time>
      </trkpt>
      <trkpt lat="47.464771" lon="7.847028">
        <ele>393.261030</ele>
        <time>2021-11-12T20:53:00.205Z</time>
      </trkpt>
      <trkpt lat="47.464737" lon="7.846119">
        <ele>392.688678</ele>
        <time>2021-11-12T20:53:07.518Z</time>
      </trkpt>
      <trkpt lat="47.464585" lon="7.844988">
        <ele>391.963715</ele>
        <time>2021-11-12T20:53:17.315Z</time>
      </trkpt>
      <trkpt lat="47.464433" lon="7.844273">
        <ele>391.777363</ele>
        <time>2021-11-12T20:53:24.030Z</time>
      </trkpt>
      <trkpt lat="47.464386" lon="7.844088">
        <ele>391.784409</ele>
        <time>2021-11-12T20:53:25.678Z</time>
      </trkpt>
      <trkpt lat="47.464354" lon="7.843960">
        <ele>391.789275</ele>
        <time>2021-11-12T20:53:27.081Z</time>
      </trkpt>
      <trkpt lat="47.464234" lon="7.843434">
        <ele>391.809069</ele>
        <time>2021-11-12T20:53:32.253Z</time>
      </trkpt>
      <trkpt lat="47.464176" lon="7.843178">
        <ele>391.818695</ele>
        <time>2021-11-12T20:53:34.671Z</time>
      </trkpt>
      <trkpt lat="47.464165" lon="7.843130">
        <ele>391.820502</ele>
        <time>2021-11-12T20:53:35.205Z</time>
      </trkpt>
      <trkpt lat="47.464075" lon="7.842774">
        <ele>391.834054</ele>
        <time>2021-11-12T20:53:40.097Z</time>
      </trkpt>
      <trkpt lat="47.464053" lon="7.842690">
        <ele>391.837266</ele>
        <time>2021-11-12T20:53:40.819Z</time>
      </trkpt>
      <trkpt lat="47.463971" lon="7.842355">
        <ele>391.849969</ele>
        <time>2021-11-12T20:53:45.750Z</time>
      </trkpt>
      <trkpt lat="47.463922" lon="7.842123">
        <ele>391.860812</ele>
        <time>2021-11-12T20:53:48.080Z</time>
      </trkpt>
      <trkpt lat="47.463874" lon="7.841863">
        <ele>391.882728</ele>
        <time>2021-11-12T20:53:52.286Z</time>
      </trkpt>
      <trkpt lat="47.463685" lon="7.841203">
        <ele>391.941011</ele>
        <time>2021-11-12T20:54:00.676Z</time>
      </trkpt>
      <trkpt lat="47.463616" lon="7.840992">
        <ele>391.960070</ele>
        <time>2021-11-12T20:54:03.623Z</time>
      </trkpt>
      <trkpt lat="47.463588" lon="7.840904">
        <ele>391.967978</ele>
        <time>2021-11-12T20:54:04.515Z</time>
      </trkpt>
      <trkpt lat="47.463287" lon="7.840028">
        <ele>392.047882</ele>
        <time>2021-11-12T20:54:13.257Z</time>
      </trkpt>
      <trkpt lat="47.463133" lon="7.839561">
        <ele>391.931395</ele>
        <time>2021-11-12T20:54:17.829Z</time>
      </trkpt>
      <trkpt lat="47.463043" lon="7.839292">
        <ele>391.726070</ele>
        <time>2021-11-12T20:54:20.280Z</time>
      </trkpt>
      <trkpt lat="47.462982" lon="7.839106">
        <ele>391.584646</ele>
        <time>2021-11-12T20:54:22.676Z</time>
      </trkpt>
      <trkpt lat="47.462967" lon="7.839047">
        <ele>391.541524</ele>
        <time>2021-11-12T20:54:23.160Z</time>
      </trkpt>
      <trkpt lat="47.462936" lon="7.838934">
        <ele>391.458098</ele>
        <time>2021-11-12T20:54:24.105Z</time>
      </trkpt>
      <trkpt lat="47.462883" lon="7.838488">
        <ele>391.148310</ele>
        <time>2021-11-12T20:54:28.059Z</time>
      </trkpt>
      <trkpt lat="47.462873" lon="7.838016">
        <ele>390.825254</ele>
        <time>2021-11-12T20:54:31.938Z</time>
      </trkpt>
      <trkpt lat="47.462871" lon="7.837954">
        <ele>390.782791</ele>
        <time>2021-11-12T20:54:32.386Z</time>
      </trkpt>
      <trkpt lat="47.462869" lon="7.837866">
        <ele>390.722555</ele>
        <time>2021-11-12T20:54:33.005Z</time>
      </trkpt>
      <trkpt lat="47.462865" lon="7.837711">
        <ele>390.616442</ele>
        <time>2021-11-12T20:54:34.310Z</time>
      </trkpt>
      <trkpt lat="47.462856" lon="7.837506">
        <ele>390.475905</ele>
        <time>2021-11-12T20:54:36.150Z</time>
      </trkpt>
      <trkpt lat="47.462851" lon="7.837404">
        <ele>390.405943</ele>
        <time>2021-11-12T20:54:36.859Z</time>
      </trkpt>
      <trkpt lat="47.462748" lon="7.836556">
        <ele>389.820928</ele>
        <time>2021-11-12T20:54:43.455Z</time>
      </trkpt>
      <trkpt lat="47.462730" lon="7.836472">
        <ele>389.761253</ele>
        <time>2021-11-12T20:54:44.309Z</time>
      </trkpt>
      <trkpt lat="47.462700" lon="7.836337">
        <ele>389.665016</ele>
        <time>2021-11-12T20:54:45.490Z</time>
      </trkpt>
      <trkpt lat="47.462666" lon="7.836201">
        <ele>389.566818</ele>
        <time>2021-11-12T20:54:46.697Z</time>
      </trkpt>
      <trkpt lat="47.462586" lon="7.835900">
        <ele>389.347788</ele>
        <time>2021-11-12T20:54:49.348Z</time>
      </trkpt>
      <trkpt lat="47.462388" lon="7.834991">
        <ele>388.701029</ele>
        <time>2021-11-12T20:54:57.812Z</time>
      </trkpt>
      <trkpt lat="47.462375" lon="7.834910">
        <ele>388.644649</ele>
        <time>2021-11-12T20:54:58.465Z</time>
      </trkpt>
      <trkpt lat="47.462357" lon="7.834782">
        <ele>388.556109</ele>
        <time>2021-11-12T20:54:59.509Z</time>
      </trkpt>
      <trkpt lat="47.462317" lon="7.834216">
        <ele>388.220104</ele>
        <time>2021-11-12T20:55:04.457Z</time>
      </trkpt>
      <trkpt lat="47.462296" lon="7.833933">
        <ele>388.061210</ele>
        <time>2021-11-12T20:55:06.895Z</time>
      </trkpt>
      <trkpt lat="47.462285" lon="7.833721">
        <ele>387.942543</ele>
        <time>2021-11-12T20:55:08.544Z</time>
      </trkpt>
      <trkpt lat="47.462217" lon="7.832953">
        <ele>387.510253</ele>
        <time>2021-11-12T20:55:15.058Z</time>
      </trkpt>
      <trkpt lat="47.462179" lon="7.832744">
        <ele>387.389463</ele>
        <time>2021-11-12T20:55:16.763Z</time>
      </trkpt>
      <trkpt lat="47.462080" lon="7.832335">
        <ele>387.147006</ele>
        <time>2021-11-12T20:55:20.495Z</time>
      </trkpt>
      <trkpt lat="47.462048" lon="7.832204">
        <ele>387.069267</ele>
        <time>2021-11-12T20:55:21.714Z</time>
      </trkpt>
      <trkpt lat="47.461918" lon="7.831668">
        <ele>386.882381</ele>
        <time>2021-11-12T20:55:26.606Z</time>
      </trkpt>
      <trkpt lat="47.461787" lon="7.831158">
        <ele>386.763082</ele>
        <time>2021-11-12T20:55:31.617Z</time>
      </trkpt>
      <trkpt lat="47.461585" lon="7.830158">
        <ele>386.534860</ele>
        <time>2021-11-12T20:55:41.462Z</time>
      </trkpt>
      <trkpt lat="47.461548" lon="7.829918">
        <ele>386.481032</ele>
        <time>2021-11-12T20:55:43.684Z</time>
      </trkpt>
      <trkpt lat="47.461473" lon="7.829886">
        <ele>386.455785</ele>
        <time>2021-11-12T20:55:44.745Z</time>
      </trkpt>
      <trkpt lat="47.460850" lon="7.828883">
        <ele>386.936221</ele>
        <time>2021-11-12T20:55:58.943Z</time>
      </trkpt>
      <trkpt lat="47.460628" lon="7.828763">
        <ele>387.121840</ele>
        <time>2021-11-12T20:56:02.797Z</time>
      </trkpt>
      <trkpt lat="47.459940" lon="7.828652">
        <ele>387.665346</ele>
        <time>2021-11-12T20:56:16.578Z</time>
      </trkpt>
      <trkpt lat="47.459537" lon="7.828672">
        <ele>388.145836</ele>
        <time>2021-11-12T20:56:25.732Z</time>
      </trkpt>
      <trkpt lat="47.459456" lon="7.828693">
        <ele>388.267755</ele>
        <time>2021-11-12T20:56:27.876Z</time>
      </trkpt>
      <trkpt lat="47.459211" lon="7.828910">
        <ele>388.691137</ele>
        <time>2021-11-12T20:56:33.736Z</time>
      </trkpt>
      <trkpt lat="47.458992" lon="7.829105">
        <ele>389.070119</ele>
        <time>2021-11-12T20:56:39.060Z</time>
      </trkpt>
      <trkpt lat="47.458779" lon="7.829408">
        <ele>389.508267</ele>
        <time>2021-11-12T20:56:45.249Z</time>
      </trkpt>
      <trkpt lat="47.458605" lon="7.829769">
        <ele>389.952672</ele>
        <time>2021-11-12T20:56:51.566Z</time>
      </trkpt>
      <trkpt lat="47.458483" lon="7.830002">
        <ele>390.248080</ele>
        <time>2021-11-12T20:56:55.697Z</time>
      </trkpt>
      <trkpt lat="47.458385" lon="7.829959">
        <ele>390.399632</ele>
        <time>2021-11-12T20:56:58.002Z</time>
      </trkpt>
      <trkpt lat="47.458230" lon="7.829919">
        <ele>390.540089</ele>
        <time>2021-11-12T20:57:00.942Z</time>
      </trkpt>
      <trkpt lat="47.457731" lon="7.829812">
        <ele>390.876554</ele>
        <time>2021-11-12T20:57:12.606Z</time>
      </trkpt>
      <trkpt lat="47.457427" lon="7.829810">
        <ele>391.079417</ele>
        <time>2021-11-12T20:57:19.649Z</time>
      </trkpt>
      <trkpt lat="47.456847" lon="7.829841">
        <ele>391.466705</ele>
        <time>2021-11-12T20:57:31.977Z</time>
      </trkpt>
      <trkpt lat="47.456508" lon="7.829890">
        <ele>391.724122</ele>
        <time>2021-11-12T20:57:39.012Z</time>
      </trkpt>
      <trkpt lat="47.456217" lon="7.829960">
        <ele>392.120813</ele>
        <time>2021-11-12T20:57:46.025Z</time>
      </trkpt>
      <trkpt lat="47.455686" lon="7.830084">
        <ele>392.844136</ele>
        <time>2021-11-12T20:57:59.076Z</time>
      </trkpt>
      <trkpt lat="47.455667" lon="7.830016">
        <ele>392.911076</ele>
        <time>2021-11-12T20:58:00.336Z</time>
      </trkpt>
      <trkpt lat="47.455644" lon="7.829891">
        <ele>393.028935</ele>
        <time>2021-11-12T20:58:02.855Z</time>
      </trkpt>
      <trkpt lat="47.455626" lon="7.829799">
        <ele>393.116069</ele>
        <time>2021-11-12T20:58:04.331Z</time>
      </trkpt>
      <trkpt lat="47.455584" lon="7.829685">
        <ele>393.234181</ele>
        <time>2021-11-12T20:58:06.413Z</time>
      </trkpt>
      <trkpt lat="47.455556" lon="7.829615">
        <ele>393.308176</ele>
        <time>2021-11-12T20:58:07.804Z</time>
      </trkpt>
      <trkpt lat="47.455471" lon="7.829717">
        <ele>393.455457</ele>
        <time>2021-11-12T20:58:10.568Z</time>
      </trkpt>
      <trkpt lat="47.455265" lon="7.829874">
        <ele>393.767274</ele>
        <time>2021-11-12T20:58:15.434Z</time>
      </trkpt>
      <trkpt lat="47.455185" lon="7.829882">
        <ele>393.875161</ele>
        <time>2021-11-12T20:58:17.329Z</time>
      </trkpt>
      <trkpt lat="47.455119" lon="7.829864">
        <ele>393.965463</ele>
        <time>2021-11-12T20:58:19.282Z</time>
      </trkpt>
      <trkpt lat="47.454803" lon="7.829577">
        <ele>394.658937</ele>
        <time>2021-11-12T20:58:28.302Z</time>
      </trkpt>
      <trkpt lat="47.454625" lon="7.829495">
        <ele>395.038211</ele>
        <time>2021-11-12T20:58:32.624Z</time>
      </trkpt>
      <trkpt lat="47.454472" lon="7.829506">
        <ele>395.349834</ele>
        <time>2021-11-12T20:58:36.526Z</time>
      </trkpt>
      <trkpt lat="47.454287" lon="7.829611">
        <ele>395.752952</ele>
        <time>2021-11-12T20:58:41.053Z</time>
      </trkpt>
      <trkpt lat="47.453989" lon="7.829813">
        <ele>396.419834</ele>
        <time>2021-11-12T20:58:49.093Z</time>
      </trkpt>
      <trkpt lat="47.453757" lon="7.829984">
        <ele>396.947172</ele>
        <time>2021-11-12T20:58:55.240Z</time>
      </trkpt>
      <trkpt lat="47.453492" lon="7.830220">
        <ele>397.576475</ele>
        <time>2021-11-12T20:59:01.549Z</time>
      </trkpt>
      <trkpt lat="47.453398" lon="7.830308">
        <ele>397.766324</ele>
        <time>2021-11-12T20:59:04.225Z</time>
      </trkpt>
      <trkpt lat="47.453305" lon="7.830406">
        <ele>397.855662</ele>
        <time>2021-11-12T20:59:06.361Z</time>
      </trkpt>
      <trkpt lat="47.453250" lon="7.830464">
        <ele>397.908510</ele>
        <time>2021-11-12T20:59:07.626Z</time>
      </trkpt>
      <trkpt lat="47.452618" lon="7.831252">
        <ele>398.555228</ele>
        <time>2021-11-12T20:59:23.849Z</time>
      </trkpt>
      <trkpt lat="47.452373" lon="7.831505">
        <ele>398.789005</ele>
        <time>2021-11-12T20:59:28.513Z</time>
      </trkpt>
      <trkpt lat="47.452175" lon="7.831696">
        <ele>398.973950</ele>
        <time>2021-11-12T20:59:32.266Z</time>
      </trkpt>
      <trkpt lat="47.451989" lon="7.831857">
        <ele>399.142559</ele>
        <time>2021-11-12T20:59:35.230Z</time>
      </trkpt>
      <trkpt lat="47.451701" lon="7.832106">
        <ele>399.237235</ele>
        <time>2021-11-12T20:59:40.033Z</time>
      </trkpt>
      <trkpt lat="47.451426" lon="7.832356">
        <ele>399.323677</ele>
        <time>2021-11-12T20:59:44.746Z</time>
      </trkpt>
      <trkpt lat="47.451327" lon="7.832461">
        <ele>399.356301</ele>
        <time>2021-11-12T20:59:46.580Z</time>
      </trkpt>
      <trkpt lat="47.451121" lon="7.832696">
        <ele>399.425970</ele>
        <time>2021-11-12T20:59:50.522Z</time>
      </trkpt>
      <trkpt lat="47.450016" lon="7.834124">
        <ele>400.481770</ele>
        <time>2021-11-12T21:00:15.755Z</time>
      </trkpt>
      <trkpt lat="47.449811" lon="7.834354">
        <ele>400.795431</ele>
        <time>2021-11-12T21:00:21.115Z</time>
      </trkpt>
      <trkpt lat="47.449811" lon="7.834354">
        <ele>400.795431</ele>
        <time>2021-11-12T21:00:21.150Z</time>
      </trkpt>
      <trkpt lat="47.449811" lon="7.834354">
        <ele>400.795431</ele>
        <time>2021-11-12T21:00:21.156Z</time>
      </trkpt>
      <trkpt lat="47.449669" lon="7.834494">
        <ele>401.003462</ele>
        <time>2021-11-12T21:00:24.460Z</time>
      </trkpt>
      <trkpt lat="47.449505" lon="7.834629">
        <ele>401.232253</ele>
        <time>2021-11-12T21:00:28.567Z</time>
      </trkpt>
      <trkpt lat="47.449275" lon="7.834788">
        <ele>401.541731</ele>
        <time>2021-11-12T21:00:33.828Z</time>
      </trkpt>
      <trkpt lat="47.448956" lon="7.834983">
        <ele>402.101526</ele>
        <time>2021-11-12T21:00:41.496Z</time>
      </trkpt>
      <trkpt lat="47.448594" lon="7.835238">
        <ele>403.083705</ele>
        <time>2021-11-12T21:00:51.028Z</time>
      </trkpt>
      <trkpt lat="47.448080" lon="7.835715">
        <ele>404.570137</ele>
        <time>2021-11-12T21:01:06.037Z</time>
      </trkpt>
      <trkpt lat="47.447446" lon="7.836384">
        <ele>406.527328</ele>
        <time>2021-11-12T21:01:26.041Z</time>
      </trkpt>
      <trkpt lat="47.447115" lon="7.836735">
        <ele>407.724052</ele>
        <time>2021-11-12T21:01:36.880Z</time>
      </trkpt>
      <trkpt lat="47.446511" lon="7.837269">
        <ele>409.791657</ele>
        <time>2021-11-12T21:01:55.160Z</time>
      </trkpt>
      <trkpt lat="47.446416" lon="7.837359">
        <ele>410.123147</ele>
        <time>2021-11-12T21:01:58.332Z</time>
      </trkpt>
      <trkpt lat="47.446386" lon="7.837385">
        <ele>410.225313</ele>
        <time>2021-11-12T21:01:59.243Z</time>
      </trkpt>
      <trkpt lat="47.446198" lon="7.837551">
        <ele>410.868658</ele>
        <time>2021-11-12T21:02:05.012Z</time>
      </trkpt>
      <trkpt lat="47.446117" lon="7.837623">
        <ele>411.146333</ele>
        <time>2021-11-12T21:02:08.012Z</time>
      </trkpt>
      <trkpt lat="47.446087" lon="7.837647">
        <ele>411.246549</ele>
        <time>2021-11-12T21:02:09.041Z</time>
      </trkpt>
      <trkpt lat="47.445999" lon="7.837719">
        <ele>411.544813</ele>
        <time>2021-11-12T21:02:11.994Z</time>
      </trkpt>
      <trkpt lat="47.445517" lon="7.838127">
        <ele>413.344207</ele>
        <time>2021-11-12T21:02:26.940Z</time>
      </trkpt>
      <trkpt lat="47.445225" lon="7.838480">
        <ele>414.566186</ele>
        <time>2021-11-12T21:02:37.400Z</time>
      </trkpt>
      <trkpt lat="47.445033" lon="7.838726">
        <ele>415.389282</ele>
        <time>2021-11-12T21:02:44.218Z</time>
      </trkpt>
      <trkpt lat="47.444912" lon="7.838914">
        <ele>415.957938</ele>
        <time>2021-11-12T21:02:49.133Z</time>
      </trkpt>
      <trkpt lat="47.444056" lon="7.840544">
        <ele>420.262800</ele>
        <time>2021-11-12T21:03:28.824Z</time>
      </trkpt>
      <trkpt lat="47.443792" lon="7.841068">
        <ele>421.595505</ele>
        <time>2021-11-12T21:03:40.283Z</time>
      </trkpt>
      <trkpt lat="47.443626" lon="7.841391">
        <ele>422.422927</ele>
        <time>2021-11-12T21:03:47.046Z</time>
      </trkpt>
      <trkpt lat="47.443546" lon="7.841569">
        <ele>422.842830</ele>
        <time>2021-11-12T21:03:50.748Z</time>
      </trkpt>
      <trkpt lat="47.443035" lon="7.842530">
        <ele>424.903061</ele>
        <time>2021-11-12T21:04:11.210Z</time>
      </trkpt>
      <trkpt lat="47.442611" lon="7.843200">
        <ele>426.449469</ele>
        <time>2021-11-12T21:04:26.506Z</time>
      </trkpt>
      <trkpt lat="47.442350" lon="7.843611">
        <ele>427.423902</ele>
        <time>2021-11-12T21:04:35.098Z</time>
      </trkpt>
      <trkpt lat="47.441172" lon="7.845276">
        <ele>432.138179</ele>
        <time>2021-11-12T21:05:19.039Z</time>
      </trkpt>
      <trkpt lat="47.440848" lon="7.845724">
        <ele>433.091731</ele>
        <time>2021-11-12T21:05:31.344Z</time>
      </trkpt>
      <trkpt lat="47.440435" lon="7.846294">
        <ele>434.170307</ele>
        <time>2021-11-12T21:05:45.256Z</time>
      </trkpt>
      <trkpt lat="47.440202" lon="7.846615">
        <ele>434.778298</ele>
        <time>2021-11-12T21:05:52.888Z</time>
      </trkpt>
      <trkpt lat="47.438961" lon="7.848371">
        <ele>435.743664</ele>
        <time>2021-11-12T21:06:21.210Z</time>
      </trkpt>
      <trkpt lat="47.438927" lon="7.848420">
        <ele>435.737741</ele>
        <time>2021-11-12T21:06:21.683Z</time>
      </trkpt>
      <trkpt lat="47.438605" lon="7.848874">
        <ele>435.682229</ele>
        <time>2021-11-12T21:06:27.387Z</time>
      </trkpt>
      <trkpt lat="47.438366" lon="7.849212">
        <ele>435.555237</ele>
        <time>2021-11-12T21:06:31.374Z</time>
      </trkpt>
      <trkpt lat="47.438227" lon="7.849403">
        <ele>435.431303</ele>
        <time>2021-11-12T21:06:34.022Z</time>
      </trkpt>
      <trkpt lat="47.438089" lon="7.849574">
        <ele>435.313706</ele>
        <time>2021-11-12T21:06:35.977Z</time>
      </trkpt>
      <trkpt lat="47.437725" lon="7.849904">
        <ele>435.034843</ele>
        <time>2021-11-12T21:06:41.126Z</time>
      </trkpt>
      <trkpt lat="47.437622" lon="7.849998">
        <ele>434.955790</ele>
        <time>2021-11-12T21:06:42.964Z</time>
      </trkpt>
      <trkpt lat="47.437326" lon="7.850142">
        <ele>434.752277</ele>
        <time>2021-11-12T21:06:47.104Z</time>
      </trkpt>
      <trkpt lat="47.437212" lon="7.850178">
        <ele>434.676144</ele>
        <time>2021-11-12T21:06:48.418Z</time>
      </trkpt>
      <trkpt lat="47.437043" lon="7.850211">
        <ele>434.564813</ele>
        <time>2021-11-12T21:06:51.279Z</time>
      </trkpt>
      <trkpt lat="47.436809" lon="7.850224">
        <ele>434.621434</ele>
        <time>2021-11-12T21:06:54.543Z</time>
      </trkpt>
      <trkpt lat="47.436670" lon="7.850213">
        <ele>434.785742</ele>
        <time>2021-11-12T21:06:56.824Z</time>
      </trkpt>
      <trkpt lat="47.436557" lon="7.850181">
        <ele>434.921550</ele>
        <time>2021-11-12T21:06:58.859Z</time>
      </trkpt>
      <trkpt lat="47.436538" lon="7.850283">
        <ele>435.006020</ele>
        <time>2021-11-12T21:06:59.633Z</time>
      </trkpt>
      <trkpt lat="47.436479" lon="7.850260">
        <ele>435.078043</ele>
        <time>2021-11-12T21:07:01.656Z</time>
      </trkpt>
      <trkpt lat="47.436050" lon="7.850036">
        <ele>435.615082</ele>
        <time>2021-11-12T21:07:12.146Z</time>
      </trkpt>
      <trkpt lat="47.434500" lon="7.848920">
        <ele>439.072289</ele>
        <time>2021-11-12T21:08:01.562Z</time>
      </trkpt>
      <trkpt lat="47.433795" lon="7.848524">
        <ele>441.179244</ele>
        <time>2021-11-12T21:08:26.777Z</time>
      </trkpt>
      <trkpt lat="47.433528" lon="7.848396">
        <ele>442.229543</ele>
        <time>2021-11-12T21:08:35.869Z</time>
      </trkpt>
      <trkpt lat="47.433544" lon="7.848319">
        <ele>442.504949</ele>
        <time>2021-11-12T21:08:37.491Z</time>
      </trkpt>
      <trkpt lat="47.433556" lon="7.848240">
        <ele>442.781777</ele>
        <time>2021-11-12T21:08:40.067Z</time>
      </trkpt>
      <trkpt lat="47.433664" lon="7.848024">
        <ele>443.700130</ele>
        <time>2021-11-12T21:08:47.133Z</time>
      </trkpt>
      <trkpt lat="47.433803" lon="7.847991">
        <ele>444.411693</ele>
        <time>2021-11-12T21:08:51.758Z</time>
      </trkpt>
      <trkpt lat="47.434989" lon="7.848471">
        <ele>450.626786</ele>
        <time>2021-11-12T21:09:42.617Z</time>
      </trkpt>
      <trkpt lat="47.435028" lon="7.848463">
        <ele>450.905810</ele>
        <time>2021-11-12T21:09:45.081Z</time>
      </trkpt>
      <trkpt lat="47.435042" lon="7.848417">
        <ele>451.215953</ele>
        <time>2021-11-12T21:09:47.229Z</time>
      </trkpt>
      <trkpt lat="47.435019" lon="7.848289">
        <ele>452.030260</ele>
        <time>2021-11-12T21:09:50.928Z</time>
      </trkpt>
      <trkpt lat="47.434893" lon="7.848197">
        <ele>453.307642</ele>
        <time>2021-11-12T21:09:57.109Z</time>
      </trkpt>
      <trkpt lat="47.434625" lon="7.848019">
        <ele>455.978249</ele>
        <time>2021-11-12T21:10:12.224Z</time>
      </trkpt>
      <trkpt lat="47.434180" lon="7.847710">
        <ele>460.447161</ele>
        <time>2021-11-12T21:10:39.442Z</time>
      </trkpt>
      <trkpt lat="47.433957" lon="7.847446">
        <ele>463.044022</ele>
        <time>2021-11-12T21:10:56.956Z</time>
      </trkpt>
      <trkpt lat="47.433829" lon="7.847163">
        <ele>465.137237</ele>
        <time>2021-11-12T21:11:12.471Z</time>
      </trkpt>
      <trkpt lat="47.433779" lon="7.846858">
        <ele>467.066869</ele>
        <time>2021-11-12T21:11:26.104Z</time>
      </trkpt>
      <trkpt lat="47.433693" lon="7.846326">
        <ele>472.045010</ele>
        <time>2021-11-12T21:11:51.144Z</time>
      </trkpt>
      <trkpt lat="47.433682" lon="7.846047">
        <ele>474.590479</ele>
        <time>2021-11-12T21:12:04.754Z</time>
      </trkpt>
      <trkpt lat="47.433878" lon="7.843980">
        <ele>493.167403</ele>
        <time>2021-11-12T21:13:54.971Z</time>
      </trkpt>
      <trkpt lat="47.433880" lon="7.843726">
        <ele>495.046419</ele>
        <time>2021-11-12T21:14:07.169Z</time>
      </trkpt>
      <trkpt lat="47.433877" lon="7.843574">
        <ele>496.171272</ele>
        <time>2021-11-12T21:14:17.462Z</time>
      </trkpt>
      <trkpt lat="47.433758" lon="7.843170">
        <ele>499.430783</ele>
        <time>2021-11-12T21:14:36.710Z</time>
      </trkpt>
      <trkpt lat="47.433508" lon="7.842944">
        <ele>502.635292</ele>
        <time>2021-11-12T21:14:54.737Z</time>
      </trkpt>
      <trkpt lat="47.433454" lon="7.842940">
        <ele>503.226548</ele>
        <time>2021-11-12T21:14:58.226Z</time>
      </trkpt>
      <trkpt lat="47.433417" lon="7.842951">
        <ele>503.639262</ele>
        <time>2021-11-12T21:15:02.446Z</time>
      </trkpt>
      <trkpt lat="47.433198" lon="7.843131">
        <ele>506.379393</ele>
        <time>2021-11-12T21:15:13.904Z</time>
      </trkpt>
      <trkpt lat="47.433047" lon="7.843431">
        <ele>509.145522</ele>
        <time>2021-11-12T21:15:28.799Z</time>
      </trkpt>
      <trkpt lat="47.432686" lon="7.844763">
        <ele>514.640984</ele>
        <time>2021-11-12T21:16:13.000Z</time>
      </trkpt>
      <trkpt lat="47.432491" lon="7.845240">
        <ele>516.364977</ele>
        <time>2021-11-12T21:16:23.643Z</time>
      </trkpt>
      <trkpt lat="47.432307" lon="7.845499">
        <ele>517.526777</ele>
        <time>2021-11-12T21:16:30.999Z</time>
      </trkpt>
      <trkpt lat="47.432090" lon="7.845628">
        <ele>518.596288</ele>
        <time>2021-11-12T21:16:38.134Z</time>
      </trkpt>
      <trkpt lat="47.431567" lon="7.845688">
        <ele>521.252600</ele>
        <time>2021-11-12T21:16:56.367Z</time>
      </trkpt>
      <trkpt lat="47.431013" lon="7.845639">
        <ele>524.151911</ele>
        <time>2021-11-12T21:17:18.743Z</time>
      </trkpt>
      <trkpt lat="47.430624" lon="7.845539">
        <ele>526.214575</ele>
        <time>2021-11-12T21:17:36.500Z</time>
      </trkpt>
      <trkpt lat="47.430220" lon="7.845275">
        <ele>528.522120</ele>
        <time>2021-11-12T21:17:57.741Z</time>
      </trkpt>
      <trkpt lat="47.429914" lon="7.845225">
        <ele>530.093132</ele>
        <time>2021-11-12T21:18:12.353Z</time>
      </trkpt>
      <trkpt lat="47.429077" lon="7.845790">
        <ele>534.784190</ele>
        <time>2021-11-12T21:18:51.347Z</time>
      </trkpt>
      <trkpt lat="47.428751" lon="7.845871">
        <ele>536.469515</ele>
        <time>2021-11-12T21:19:03.420Z</time>
      </trkpt>
      <trkpt lat="47.428057" lon="7.845882">
        <ele>539.778957</ele>
        <time>2021-11-12T21:19:25.566Z</time>
      </trkpt>
      <trkpt lat="47.427688" lon="7.845804">
        <ele>541.486431</ele>
        <time>2021-11-12T21:19:37.765Z</time>
      </trkpt>
      <trkpt lat="47.427402" lon="7.845663">
        <ele>542.867460</ele>
        <time>2021-11-12T21:19:49.276Z</time>
      </trkpt>
      <trkpt lat="47.427161" lon="7.845395">
        <ele>544.248934</ele>
        <time>2021-11-12T21:20:01.458Z</time>
      </trkpt>
      <trkpt lat="47.426956" lon="7.845001">
        <ele>545.789270</ele>
        <time>2021-11-12T21:20:15.604Z</time>
      </trkpt>
      <trkpt lat="47.426915" lon="7.844919">
        <ele>546.198552</ele>
        <time>2021-11-12T21:20:18.161Z</time>
      </trkpt>
      <trkpt lat="47.426813" lon="7.844636">
        <ele>548.009241</ele>
        <time>2021-11-12T21:20:29.421Z</time>
      </trkpt>
      <trkpt lat="47.426840" lon="7.844524">
        <ele>548.680638</ele>
        <time>2021-11-12T21:20:34.349Z</time>
      </trkpt>
      <trkpt lat="47.426822" lon="7.844378">
        <ele>549.518653</ele>
        <time>2021-11-12T21:20:38.893Z</time>
      </trkpt>
      <trkpt lat="47.426732" lon="7.844072">
        <ele>551.402812</ele>
        <time>2021-11-12T21:20:53.156Z</time>
      </trkpt>
      <trkpt lat="47.426534" lon="7.843570">
        <ele>554.684107</ele>
        <time>2021-11-12T21:21:16.069Z</time>
      </trkpt>
      <trkpt lat="47.426337" lon="7.843251">
        <ele>557.123085</ele>
        <time>2021-11-12T21:21:32.526Z</time>
      </trkpt>
      <trkpt lat="47.426213" lon="7.842893">
        <ele>559.394213</ele>
        <time>2021-11-12T21:21:47.252Z</time>
      </trkpt>
      <trkpt lat="47.426134" lon="7.842673">
        <ele>560.800681</ele>
        <time>2021-11-12T21:21:57.734Z</time>
      </trkpt>
      <trkpt lat="47.426033" lon="7.842485">
        <ele>561.845622</ele>
        <time>2021-11-12T21:22:05.308Z</time>
      </trkpt>
      <trkpt lat="47.425934" lon="7.842301">
        <ele>562.815063</ele>
        <time>2021-11-12T21:22:14.606Z</time>
      </trkpt>
      <trkpt lat="47.425864" lon="7.842143">
        <ele>563.593869</ele>
        <time>2021-11-12T21:22:19.403Z</time>
      </trkpt>
      <trkpt lat="47.425807" lon="7.842068">
        <ele>564.059007</ele>
        <time>2021-11-12T21:22:22.533Z</time>
      </trkpt>
      <trkpt lat="47.425777" lon="7.842142">
        <ele>564.414749</ele>
        <time>2021-11-12T21:22:24.799Z</time>
      </trkpt>
      <trkpt lat="47.425638" lon="7.842262">
        <ele>565.395902</ele>
        <time>2021-11-12T21:22:32.629Z</time>
      </trkpt>
      <trkpt lat="47.425331" lon="7.842344">
        <ele>567.297424</ele>
        <time>2021-11-12T21:22:46.317Z</time>
      </trkpt>
      <trkpt lat="47.424863" lon="7.842266">
        <ele>570.168038</ele>
        <time>2021-11-12T21:23:06.366Z</time>
      </trkpt>
      <trkpt lat="47.424841" lon="7.842258">
        <ele>570.306130</ele>
        <time>2021-11-12T21:23:07.010Z</time>
      </trkpt>
      <trkpt lat="47.424733" lon="7.842217">
        <ele>570.985773</ele>
        <time>2021-11-12T21:23:11.485Z</time>
      </trkpt>
      <trkpt lat="47.424430" lon="7.841983">
        <ele>572.898538</ele>
        <time>2021-11-12T21:23:24.746Z</time>
      </trkpt>
      <trkpt lat="47.424366" lon="7.841892">
        <ele>573.355841</ele>
        <time>2021-11-12T21:23:27.382Z</time>
      </trkpt>
      <trkpt lat="47.424236" lon="7.841741">
        <ele>574.207245</ele>
        <time>2021-11-12T21:23:34.174Z</time>
      </trkpt>
      <trkpt lat="47.424088" lon="7.841571">
        <ele>575.172445</ele>
        <time>2021-11-12T21:23:40.422Z</time>
      </trkpt>
      <trkpt lat="47.423701" lon="7.841228">
        <ele>577.496113</ele>
        <time>2021-11-12T21:23:57.799Z</time>
      </trkpt>
      <trkpt lat="47.423650" lon="7.841191">
        <ele>577.788667</ele>
        <time>2021-11-12T21:24:01.855Z</time>
      </trkpt>
      <trkpt lat="47.423565" lon="7.841262">
        <ele>578.291432</ele>
        <time>2021-11-12T21:24:06.548Z</time>
      </trkpt>
      <trkpt lat="47.423524" lon="7.841186">
        <ele>578.630083</ele>
        <time>2021-11-12T21:24:08.969Z</time>
      </trkpt>
      <trkpt lat="47.423450" lon="7.841073">
        <ele>579.177988</ele>
        <time>2021-11-12T21:24:12.838Z</time>
      </trkpt>
      <trkpt lat="47.423411" lon="7.841024">
        <ele>579.441571</ele>
        <time>2021-11-12T21:24:15.463Z</time>
      </trkpt>
      <trkpt lat="47.423350" lon="7.840961">
        <ele>579.824776</ele>
        <time>2021-11-12T21:24:20.732Z</time>
      </trkpt>
      <trkpt lat="47.423032" lon="7.840729">
        <ele>581.455816</ele>
        <time>2021-11-12T21:24:37.358Z</time>
      </trkpt>
      <trkpt lat="47.422499" lon="7.840552">
        <ele>582.966078</ele>
        <time>2021-11-12T21:24:54.574Z</time>
      </trkpt>
      <trkpt lat="47.422351" lon="7.840526">
        <ele>583.378117</ele>
        <time>2021-11-12T21:25:00.415Z</time>
      </trkpt>
      <trkpt lat="47.422290" lon="7.840513">
        <ele>583.548501</ele>
        <time>2021-11-12T21:25:03.248Z</time>
      </trkpt>
      <trkpt lat="47.421929" lon="7.840465">
        <ele>584.550549</ele>
        <time>2021-11-12T21:25:13.559Z</time>
      </trkpt>
      <trkpt lat="47.421835" lon="7.840453">
        <ele>584.811388</ele>
        <time>2021-11-12T21:25:15.282Z</time>
      </trkpt>
      <trkpt lat="47.421954" lon="7.840066">
        <ele>585.606525</ele>
        <time>2021-11-12T21:25:22.768Z</time>
      </trkpt>
      <trkpt lat="47.421957" lon="7.840055">
        <ele>585.628709</ele>
        <time>2021-11-12T21:25:22.860Z</time>
      </trkpt>
      <trkpt lat="47.422043" lon="7.839821">
        <ele>586.126812</ele>
        <time>2021-11-12T21:25:26.645Z</time>
      </trkpt>
      <trkpt lat="47.422256" lon="7.839249">
        <ele>586.495423</ele>
        <time>2021-11-12T21:25:37.505Z</time>
      </trkpt>
      <trkpt lat="47.422309" lon="7.839135">
        <ele>586.561638</ele>
        <time>2021-11-12T21:25:39.863Z</time>
      </trkpt>
      <trkpt lat="47.422336" lon="7.839020">
        <ele>586.619910</ele>
        <time>2021-11-12T21:25:41.407Z</time>
      </trkpt>
      <trkpt lat="47.422369" lon="7.838922">
        <ele>586.672312</ele>
        <time>2021-11-12T21:25:42.570Z</time>
      </trkpt>
      <trkpt lat="47.422308" lon="7.838795">
        <ele>586.746870</ele>
        <time>2021-11-12T21:25:44.637Z</time>
      </trkpt>
      <trkpt lat="47.420767" lon="7.836023">
        <ele>588.908605</ele>
        <time>2021-11-12T21:26:42.793Z</time>
      </trkpt>
      <trkpt lat="47.420730" lon="7.835947">
        <ele>588.973550</ele>
        <time>2021-11-12T21:26:45.024Z</time>
      </trkpt>
      <trkpt lat="47.420353" lon="7.835315">
        <ele>589.377649</ele>
        <time>2021-11-12T21:26:58.998Z</time>
      </trkpt>
      <trkpt lat="47.420255" lon="7.835091">
        <ele>589.423254</ele>
        <time>2021-11-12T21:27:03.822Z</time>
      </trkpt>
      <trkpt lat="47.419865" lon="7.834320">
        <ele>589.587834</ele>
        <time>2021-11-12T21:27:18.165Z</time>
      </trkpt>
      <trkpt lat="47.419808" lon="7.834185">
        <ele>589.615040</ele>
        <time>2021-11-12T21:27:20.750Z</time>
      </trkpt>
      <trkpt lat="47.419764" lon="7.834108">
        <ele>589.632271</ele>
        <time>2021-11-12T21:27:21.929Z</time>
      </trkpt>
      <trkpt lat="47.419182" lon="7.832950">
        <ele>589.014866</ele>
        <time>2021-11-12T21:27:39.516Z</time>
      </trkpt>
      <trkpt lat="47.418688" lon="7.831819">
        <ele>587.364533</ele>
        <time>2021-11-12T21:27:53.807Z</time>
      </trkpt>
      <trkpt lat="47.418387" lon="7.831648">
        <ele>586.780268</ele>
        <time>2021-11-12T21:27:58.732Z</time>
      </trkpt>
      <trkpt lat="47.417899" lon="7.831238">
        <ele>585.333256</ele>
        <time>2021-11-12T21:28:07.346Z</time>
      </trkpt>
      <trkpt lat="47.417833" lon="7.831162">
        <ele>585.094885</ele>
        <time>2021-11-12T21:28:08.570Z</time>
      </trkpt>
      <trkpt lat="47.417746" lon="7.831250">
        <ele>584.794531</ele>
        <time>2021-11-12T21:28:10.253Z</time>
      </trkpt>
      <trkpt lat="47.417722" lon="7.831277">
        <ele>584.708599</ele>
        <time>2021-11-12T21:28:10.643Z</time>
      </trkpt>
      <trkpt lat="47.416481" lon="7.832685">
        <ele>579.965158</ele>
        <time>2021-11-12T21:28:33.643Z</time>
      </trkpt>
      <trkpt lat="47.416257" lon="7.832746">
        <ele>579.153198</ele>
        <time>2021-11-12T21:28:37.024Z</time>
      </trkpt>
      <trkpt lat="47.415845" lon="7.832655">
        <ele>577.668186</ele>
        <time>2021-11-12T21:28:43.058Z</time>
      </trkpt>
      <trkpt lat="47.415784" lon="7.832665">
        <ele>577.449399</ele>
        <time>2021-11-12T21:28:43.891Z</time>
      </trkpt>
      <trkpt lat="47.415738" lon="7.832680">
        <ele>577.281474</ele>
        <time>2021-11-12T21:28:44.489Z</time>
      </trkpt>
      <trkpt lat="47.415522" lon="7.832879">
        <ele>576.374101</ele>
        <time>2021-11-12T21:28:48.259Z</time>
      </trkpt>
      <trkpt lat="47.414398" lon="7.834546">
        <ele>571.278040</ele>
        <time>2021-11-12T21:29:10.353Z</time>
      </trkpt>
      <trkpt lat="47.414310" lon="7.834705">
        <ele>570.849748</ele>
        <time>2021-11-12T21:29:12.271Z</time>
      </trkpt>
      <trkpt lat="47.414261" lon="7.834648">
        <ele>570.657599</ele>
        <time>2021-11-12T21:29:13.455Z</time>
      </trkpt>
      <trkpt lat="47.412447" lon="7.833579">
        <ele>569.844014</ele>
        <time>2021-11-12T21:29:51.341Z</time>
      </trkpt>
      <trkpt lat="47.412245" lon="7.833434">
        <ele>569.902868</ele>
        <time>2021-11-12T21:29:58.131Z</time>
      </trkpt>
      <trkpt lat="47.411846" lon="7.833044">
        <ele>571.200722</ele>
        <time>2021-11-12T21:30:13.367Z</time>
      </trkpt>
      <trkpt lat="47.411675" lon="7.832923">
        <ele>571.732810</ele>
        <time>2021-11-12T21:30:19.429Z</time>
      </trkpt>
      <trkpt lat="47.411539" lon="7.832881">
        <ele>572.122734</ele>
        <time>2021-11-12T21:30:24.049Z</time>
      </trkpt>
      <trkpt lat="47.411524" lon="7.832786">
        <ele>572.308005</ele>
        <time>2021-11-12T21:30:25.961Z</time>
      </trkpt>
      <trkpt lat="47.411449" lon="7.832252">
        <ele>573.343795</ele>
        <time>2021-11-12T21:30:36.997Z</time>
      </trkpt>
      <trkpt lat="47.411370" lon="7.831550">
        <ele>574.695351</ele>
        <time>2021-11-12T21:30:50.071Z</time>
      </trkpt>
      <trkpt lat="47.411123" lon="7.830625">
        <ele>575.368792</ele>
        <time>2021-11-12T21:31:06.247Z</time>
      </trkpt>
      <trkpt lat="47.411089" lon="7.830400">
        <ele>575.479958</ele>
        <time>2021-11-12T21:31:09.956Z</time>
      </trkpt>
      <trkpt lat="47.411073" lon="7.830276">
        <ele>575.540827</ele>
        <time>2021-11-12T21:31:11.613Z</time>
      </trkpt>
      <trkpt lat="47.411036" lon="7.829964">
        <ele>575.693565</ele>
        <time>2021-11-12T21:31:15.018Z</time>
      </trkpt>
      <trkpt lat="47.410917" lon="7.829172">
        <ele>576.084765</ele>
        <time>2021-11-12T21:31:22.786Z</time>
      </trkpt>
      <trkpt lat="47.410839" lon="7.828759">
        <ele>576.013234</ele>
        <time>2021-11-12T21:31:26.164Z</time>
      </trkpt>
      <trkpt lat="47.410765" lon="7.828443">
        <ele>575.353193</ele>
        <time>2021-11-12T21:31:28.627Z</time>
      </trkpt>
      <trkpt lat="47.410563" lon="7.827634">
        <ele>573.651077</ele>
        <time>2021-11-12T21:31:34.668Z</time>
      </trkpt>
      <trkpt lat="47.410510" lon="7.827179">
        <ele>572.739742</ele>
        <time>2021-11-12T21:31:37.801Z</time>
      </trkpt>
      <trkpt lat="47.410491" lon="7.826956">
        <ele>572.296085</ele>
        <time>2021-11-12T21:31:39.322Z</time>
      </trkpt>
      <trkpt lat="47.410466" lon="7.826671">
        <ele>571.728814</ele>
        <time>2021-11-12T21:31:41.224Z</time>
      </trkpt>
      <trkpt lat="47.410381" lon="7.825922">
        <ele>569.464280</ele>
        <time>2021-11-12T21:31:46.335Z</time>
      </trkpt>
      <trkpt lat="47.410428" lon="7.825280">
        <ele>566.907427</ele>
        <time>2021-11-12T21:31:50.578Z</time>
      </trkpt>
      <trkpt lat="47.411082" lon="7.823262">
        <ele>557.419216</ele>
        <time>2021-11-12T21:32:04.155Z</time>
      </trkpt>
      <trkpt lat="47.411202" lon="7.822904">
        <ele>555.426057</ele>
        <time>2021-11-12T21:32:06.573Z</time>
      </trkpt>
      <trkpt lat="47.411269" lon="7.822710">
        <ele>554.339436</ele>
        <time>2021-11-12T21:32:07.842Z</time>
      </trkpt>
      <trkpt lat="47.411443" lon="7.822215">
        <ele>551.556596</ele>
        <time>2021-11-12T21:32:11.184Z</time>
      </trkpt>
      <trkpt lat="47.411897" lon="7.821410">
        <ele>546.336966</ele>
        <time>2021-11-12T21:32:17.553Z</time>
      </trkpt>
      <trkpt lat="47.411943" lon="7.821161">
        <ele>545.061475</ele>
        <time>2021-11-12T21:32:19.154Z</time>
      </trkpt>
      <trkpt lat="47.411885" lon="7.820944">
        <ele>543.908531</ele>
        <time>2021-11-12T21:32:20.597Z</time>
      </trkpt>
      <trkpt lat="47.411732" lon="7.820798">
        <ele>542.578576</ele>
        <time>2021-11-12T21:32:22.257Z</time>
      </trkpt>
      <trkpt lat="47.411618" lon="7.820798">
        <ele>541.746115</ele>
        <time>2021-11-12T21:32:23.310Z</time>
      </trkpt>
      <trkpt lat="47.411325" lon="7.820962">
        <ele>539.458196</ele>
        <time>2021-11-12T21:32:26.199Z</time>
      </trkpt>
      <trkpt lat="47.411259" lon="7.820982">
        <ele>538.966215</ele>
        <time>2021-11-12T21:32:26.766Z</time>
      </trkpt>
      <trkpt lat="47.411231" lon="7.820989">
        <ele>538.758846</ele>
        <time>2021-11-12T21:32:27.062Z</time>
      </trkpt>
      <trkpt lat="47.411082" lon="7.820940">
        <ele>537.644185</ele>
        <time>2021-11-12T21:32:28.384Z</time>
      </trkpt>
      <trkpt lat="47.410977" lon="7.820783">
        <ele>536.553391</ele>
        <time>2021-11-12T21:32:29.720Z</time>
      </trkpt>
      <trkpt lat="47.410950" lon="7.820708">
        <ele>536.133583</ele>
        <time>2021-11-12T21:32:30.234Z</time>
      </trkpt>
      <trkpt lat="47.410932" lon="7.820627">
        <ele>535.712275</ele>
        <time>2021-11-12T21:32:30.704Z</time>
      </trkpt>
      <trkpt lat="47.410870" lon="7.819785">
        <ele>530.696265</ele>
        <time>2021-11-12T21:32:35.832Z</time>
      </trkpt>
      <trkpt lat="47.410875" lon="7.819644">
        <ele>529.770918</ele>
        <time>2021-11-12T21:32:36.644Z</time>
      </trkpt>
      <trkpt lat="47.410889" lon="7.819549">
        <ele>529.133720</ele>
        <time>2021-11-12T21:32:37.190Z</time>
      </trkpt>
      <trkpt lat="47.410940" lon="7.819362">
        <ele>527.812389</ele>
        <time>2021-11-12T21:32:38.506Z</time>
      </trkpt>
      <trkpt lat="47.410982" lon="7.819269">
        <ele>527.079636</ele>
        <time>2021-11-12T21:32:39.171Z</time>
      </trkpt>
      <trkpt lat="47.411053" lon="7.819169">
        <ele>526.129744</ele>
        <time>2021-11-12T21:32:39.992Z</time>
      </trkpt>
      <trkpt lat="47.411675" lon="7.818402">
        <ele>518.284228</ele>
        <time>2021-11-12T21:32:46.909Z</time>
      </trkpt>
      <trkpt lat="47.412252" lon="7.817169">
        <ele>509.162920</ele>
        <time>2021-11-12T21:32:55.675Z</time>
      </trkpt>
      <trkpt lat="47.412340" lon="7.816932">
        <ele>507.543311</ele>
        <time>2021-11-12T21:32:57.303Z</time>
      </trkpt>
      <trkpt lat="47.412411" lon="7.816715">
        <ele>506.099238</ele>
        <time>2021-11-12T21:32:58.750Z</time>
      </trkpt>
      <trkpt lat="47.412538" lon="7.816206">
        <ele>502.849053</ele>
        <time>2021-11-12T21:33:02.039Z</time>
      </trkpt>
      <trkpt lat="47.412644" lon="7.815454">
        <ele>498.294817</ele>
        <time>2021-11-12T21:33:06.592Z</time>
      </trkpt>
      <trkpt lat="47.412661" lon="7.815346">
        <ele>497.643291</ele>
        <time>2021-11-12T21:33:07.248Z</time>
      </trkpt>
      <trkpt lat="47.412673" lon="7.815211">
        <ele>496.843247</ele>
        <time>2021-11-12T21:33:08.057Z</time>
      </trkpt>
      <trkpt lat="47.412651" lon="7.814791">
        <ele>494.368036</ele>
        <time>2021-11-12T21:33:10.513Z</time>
      </trkpt>
      <trkpt lat="47.412535" lon="7.814165">
        <ele>490.554383</ele>
        <time>2021-11-12T21:33:14.364Z</time>
      </trkpt>
      <trkpt lat="47.412508" lon="7.814020">
        <ele>489.670726</ele>
        <time>2021-11-12T21:33:15.251Z</time>
      </trkpt>
      <trkpt lat="47.412458" lon="7.813812">
        <ele>488.373741</ele>
        <time>2021-11-12T21:33:16.558Z</time>
      </trkpt>
      <trkpt lat="47.412453" lon="7.813489">
        <ele>486.475359</ele>
        <time>2021-11-12T21:33:18.479Z</time>
      </trkpt>
      <trkpt lat="47.412475" lon="7.813375">
        <ele>485.778813</ele>
        <time>2021-11-12T21:33:19.162Z</time>
      </trkpt>
      <trkpt lat="47.412590" lon="7.813097">
        <ele>484.197455</ele>
        <time>2021-11-12T21:33:21.105Z</time>
      </trkpt>
      <trkpt lat="47.412647" lon="7.812952">
        <ele>483.475052</ele>
        <time>2021-11-12T21:33:22.073Z</time>
      </trkpt>
      <trkpt lat="47.412767" lon="7.812703">
        <ele>482.158151</ele>
        <time>2021-11-12T21:33:23.977Z</time>
      </trkpt>
      <trkpt lat="47.412819" lon="7.812613">
        <ele>481.648341</ele>
        <time>2021-11-12T21:33:24.671Z</time>
      </trkpt>
      <trkpt lat="47.412863" lon="7.812536">
        <ele>481.214184</ele>
        <time>2021-11-12T21:33:25.243Z</time>
      </trkpt>
      <trkpt lat="47.412945" lon="7.812389">
        <ele>480.393497</ele>
        <time>2021-11-12T21:33:26.431Z</time>
      </trkpt>
      <trkpt lat="47.413015" lon="7.812281">
        <ele>479.749258</ele>
        <time>2021-11-12T21:33:27.381Z</time>
      </trkpt>
      <trkpt lat="47.413209" lon="7.811838">
        <ele>477.476090</ele>
        <time>2021-11-12T21:33:30.596Z</time>
      </trkpt>
      <trkpt lat="47.413242" lon="7.811717">
        <ele>476.914090</ele>
        <time>2021-11-12T21:33:31.396Z</time>
      </trkpt>
      <trkpt lat="47.413252" lon="7.811647">
        <ele>476.605889</ele>
        <time>2021-11-12T21:33:31.809Z</time>
      </trkpt>
      <trkpt lat="47.413271" lon="7.811524">
        <ele>476.062385</ele>
        <time>2021-11-12T21:33:32.656Z</time>
      </trkpt>
      <trkpt lat="47.413351" lon="7.811196">
        <ele>474.560410</ele>
        <time>2021-11-12T21:33:34.906Z</time>
      </trkpt>
      <trkpt lat="47.413454" lon="7.811217">
        <ele>473.898499</ele>
        <time>2021-11-12T21:33:36.427Z</time>
      </trkpt>
      <trkpt lat="47.413652" lon="7.811232">
        <ele>473.409734</ele>
        <time>2021-11-12T21:33:39.488Z</time>
      </trkpt>
      <trkpt lat="47.413716" lon="7.811229">
        <ele>473.309285</ele>
        <time>2021-11-12T21:33:40.379Z</time>
      </trkpt>
      <trkpt lat="47.413799" lon="7.811208">
        <ele>473.177185</ele>
        <time>2021-11-12T21:33:41.735Z</time>
      </trkpt>
      <trkpt lat="47.413959" lon="7.811165">
        <ele>472.922070</ele>
        <time>2021-11-12T21:33:44.582Z</time>
      </trkpt>
      <trkpt lat="47.414237" lon="7.811081">
        <ele>472.476938</ele>
        <time>2021-11-12T21:33:49.267Z</time>
      </trkpt>
      <trkpt lat="47.414706" lon="7.810912">
        <ele>471.719644</ele>
        <time>2021-11-12T21:33:57.528Z</time>
      </trkpt>
      <trkpt lat="47.415390" lon="7.810500">
        <ele>470.654646</ele>
        <time>2021-11-12T21:34:11.219Z</time>
      </trkpt>
      <trkpt lat="47.415633" lon="7.810382">
        <ele>470.387652</ele>
        <time>2021-11-12T21:34:15.731Z</time>
      </trkpt>
      <trkpt lat="47.415923" lon="7.810254">
        <ele>470.071728</ele>
        <time>2021-11-12T21:34:21.286Z</time>
      </trkpt>
      <trkpt lat="47.415983" lon="7.810241">
        <ele>470.008429</ele>
        <time>2021-11-12T21:34:22.192Z</time>
      </trkpt>
      <trkpt lat="47.416026" lon="7.810233">
        <ele>469.963190</ele>
        <time>2021-11-12T21:34:22.933Z</time>
      </trkpt>
      <trkpt lat="47.416349" lon="7.810346">
        <ele>469.616714</ele>
        <time>2021-11-12T21:34:28.535Z</time>
      </trkpt>
      <trkpt lat="47.416432" lon="7.810407">
        <ele>469.519954</ele>
        <time>2021-11-12T21:34:30.233Z</time>
      </trkpt>
      <trkpt lat="47.416598" lon="7.810554">
        <ele>469.317951</ele>
        <time>2021-11-12T21:34:33.684Z</time>
      </trkpt>
      <trkpt lat="47.416690" lon="7.810617">
        <ele>469.212110</ele>
        <time>2021-11-12T21:34:35.158Z</time>
      </trkpt>
      <trkpt lat="47.417067" lon="7.810695">
        <ele>468.864927</ele>
        <time>2021-11-12T21:34:41.591Z</time>
      </trkpt>
      <trkpt lat="47.417675" lon="7.810419">
        <ele>468.424894</ele>
        <time>2021-11-12T21:34:52.642Z</time>
      </trkpt>
      <trkpt lat="47.417743" lon="7.810418">
        <ele>468.377847</ele>
        <time>2021-11-12T21:34:53.605Z</time>
      </trkpt>
      <trkpt lat="47.417743" lon="7.810418">
        <ele>468.377847</ele>
        <time>2021-11-12T21:34:53.634Z</time>
      </trkpt>
      <trkpt lat="47.417828" lon="7.810432">
        <ele>468.318677</ele>
        <time>2021-11-12T21:34:55.022Z</time>
      </trkpt>
      <trkpt lat="47.418377" lon="7.810720">
        <ele>467.915641</ele>
        <time>2021-11-12T21:35:04.603Z</time>
      </trkpt>
      <trkpt lat="47.418762" lon="7.810815">
        <ele>468.151818</ele>
        <time>2021-11-12T21:35:13.581Z</time>
      </trkpt>
      <trkpt lat="47.419015" lon="7.810884">
        <ele>469.198238</ele>
        <time>2021-11-12T21:35:21.390Z</time>
      </trkpt>
      <trkpt lat="47.419069" lon="7.810903">
        <ele>469.424015</ele>
        <time>2021-11-12T21:35:23.104Z</time>
      </trkpt>
      <trkpt lat="47.419134" lon="7.810926">
        <ele>469.695866</ele>
        <time>2021-11-12T21:35:24.490Z</time>
      </trkpt>
      <trkpt lat="47.419155" lon="7.810934">
        <ele>469.784073</ele>
        <time>2021-11-12T21:35:24.930Z</time>
      </trkpt>
      <trkpt lat="47.419414" lon="7.811078">
        <ele>470.909600</ele>
        <time>2021-11-12T21:35:37.888Z</time>
      </trkpt>
      <trkpt lat="47.419508" lon="7.811160">
        <ele>471.353567</ele>
        <time>2021-11-12T21:35:41.211Z</time>
      </trkpt>
      <trkpt lat="47.419632" lon="7.811270">
        <ele>471.941800</ele>
        <time>2021-11-12T21:35:48.908Z</time>
      </trkpt>
      <trkpt lat="47.419766" lon="7.811395">
        <ele>472.586314</ele>
        <time>2021-11-12T21:35:54.905Z</time>
      </trkpt>
      <trkpt lat="47.420135" lon="7.811734">
        <ele>474.353509</ele>
        <time>2021-11-12T21:36:12.164Z</time>
      </trkpt>
      <trkpt lat="47.420458" lon="7.811986">
        <ele>475.478577</ele>
        <time>2021-11-12T21:36:26.884Z</time>
      </trkpt>
      <trkpt lat="47.420607" lon="7.812071">
        <ele>475.836963</ele>
        <time>2021-11-12T21:36:35.409Z</time>
      </trkpt>
      <trkpt lat="47.420767" lon="7.812138">
        <ele>476.210124</ele>
        <time>2021-11-12T21:36:40.783Z</time>
      </trkpt>
      <trkpt lat="47.420870" lon="7.812170">
        <ele>476.446300</ele>
        <time>2021-11-12T21:36:45.638Z</time>
      </trkpt>
      <trkpt lat="47.421065" lon="7.812200">
        <ele>476.886229</ele>
        <time>2021-11-12T21:36:53.912Z</time>
      </trkpt>
      <trkpt lat="47.421065" lon="7.812200">
        <ele>476.886229</ele>
        <time>2021-11-12T21:36:53.925Z</time>
      </trkpt>
      <trkpt lat="47.421441" lon="7.812208">
        <ele>477.730032</ele>
        <time>2021-11-12T21:37:06.531Z</time>
      </trkpt>
      <trkpt lat="47.421893" lon="7.812157">
        <ele>478.747238</ele>
        <time>2021-11-12T21:37:14.683Z</time>
      </trkpt>
      <trkpt lat="47.422397" lon="7.812011">
        <ele>477.392596</ele>
        <time>2021-11-12T21:37:22.101Z</time>
      </trkpt>
      <trkpt lat="47.422720" lon="7.811867">
        <ele>475.859424</ele>
        <time>2021-11-12T21:37:26.519Z</time>
      </trkpt>
      <trkpt lat="47.422978" lon="7.811734">
        <ele>474.617694</ele>
        <time>2021-11-12T21:37:30.092Z</time>
      </trkpt>
      <trkpt lat="47.423172" lon="7.811608">
        <ele>473.654711</ele>
        <time>2021-11-12T21:37:32.943Z</time>
      </trkpt>
      <trkpt lat="47.423767" lon="7.811175">
        <ele>470.730047</ele>
        <time>2021-11-12T21:37:41.899Z</time>
      </trkpt>
      <trkpt lat="47.423941" lon="7.811048">
        <ele>470.155180</ele>
        <time>2021-11-12T21:37:44.531Z</time>
      </trkpt>
      <trkpt lat="47.424697" lon="7.810643">
        <ele>467.773098</ele>
        <time>2021-11-12T21:37:56.446Z</time>
      </trkpt>
      <trkpt lat="47.424871" lon="7.810565">
        <ele>467.234468</ele>
        <time>2021-11-12T21:37:59.332Z</time>
      </trkpt>
      <trkpt lat="47.425184" lon="7.810445">
        <ele>466.276576</ele>
        <time>2021-11-12T21:38:04.747Z</time>
      </trkpt>
      <trkpt lat="47.426541" lon="7.810106">
        <ele>460.732100</ele>
        <time>2021-11-12T21:38:25.600Z</time>
      </trkpt>
      <trkpt lat="47.427284" lon="7.809847">
        <ele>457.150886</ele>
        <time>2021-11-12T21:38:35.389Z</time>
      </trkpt>
      <trkpt lat="47.427626" lon="7.809699">
        <ele>454.467047</ele>
        <time>2021-11-12T21:38:39.870Z</time>
      </trkpt>
      <trkpt lat="47.428078" lon="7.809508">
        <ele>450.926505</ele>
        <time>2021-11-12T21:38:45.748Z</time>
      </trkpt>
      <trkpt lat="47.428531" lon="7.809311">
        <ele>447.370217</ele>
        <time>2021-11-12T21:38:51.689Z</time>
      </trkpt>
      <trkpt lat="47.428816" lon="7.809184">
        <ele>445.128368</ele>
        <time>2021-11-12T21:38:55.441Z</time>
      </trkpt>
      <trkpt lat="47.429678" lon="7.808980">
        <ele>441.002346</ele>
        <time>2021-11-12T21:39:06.902Z</time>
      </trkpt>
      <trkpt lat="47.430471" lon="7.809009">
        <ele>437.541665</ele>
        <time>2021-11-12T21:39:18.528Z</time>
      </trkpt>
      <trkpt lat="47.430630" lon="7.809037">
        <ele>436.843090</ele>
        <time>2021-11-12T21:39:21.092Z</time>
      </trkpt>
      <trkpt lat="47.430797" lon="7.809083">
        <ele>436.302739</ele>
        <time>2021-11-12T21:39:23.691Z</time>
      </trkpt>
      <trkpt lat="47.431419" lon="7.809325">
        <ele>434.822712</ele>
        <time>2021-11-12T21:39:33.620Z</time>
      </trkpt>
      <trkpt lat="47.432022" lon="7.809706">
        <ele>433.313717</ele>
        <time>2021-11-12T21:39:43.751Z</time>
      </trkpt>
      <trkpt lat="47.432174" lon="7.809836">
        <ele>432.909630</ele>
        <time>2021-11-12T21:39:46.425Z</time>
      </trkpt>
      <trkpt lat="47.432554" lon="7.810136">
        <ele>431.961493</ele>
        <time>2021-11-12T21:39:53.144Z</time>
      </trkpt>
      <trkpt lat="47.432928" lon="7.810342">
        <ele>431.127497</ele>
        <time>2021-11-12T21:39:59.425Z</time>
      </trkpt>
      <trkpt lat="47.433316" lon="7.810451">
        <ele>430.302220</ele>
        <time>2021-11-12T21:40:05.503Z</time>
      </trkpt>
      <trkpt lat="47.433643" lon="7.810504">
        <ele>429.614825</ele>
        <time>2021-11-12T21:40:10.657Z</time>
      </trkpt>
      <trkpt lat="47.433643" lon="7.810504">
        <ele>429.614825</ele>
        <time>2021-11-12T21:40:10.668Z</time>
      </trkpt>
      <trkpt lat="47.434093" lon="7.810572">
        <ele>428.669603</ele>
        <time>2021-11-12T21:40:17.853Z</time>
      </trkpt>
      <trkpt lat="47.434221" lon="7.810592">
        <ele>428.432330</ele>
        <time>2021-11-12T21:40:20.026Z</time>
      </trkpt>
      <trkpt lat="47.434532" lon="7.810638">
        <ele>427.869639</ele>
        <time>2021-11-12T21:40:25.039Z</time>
      </trkpt>
      <trkpt lat="47.434890" lon="7.810694">
        <ele>427.221531</ele>
        <time>2021-11-12T21:40:30.847Z</time>
      </trkpt>
      <trkpt lat="47.435107" lon="7.810718">
        <ele>426.829772</ele>
        <time>2021-11-12T21:40:34.250Z</time>
      </trkpt>
      <trkpt lat="47.435676" lon="7.810622">
        <ele>425.798748</ele>
        <time>2021-11-12T21:40:43.612Z</time>
      </trkpt>
      <trkpt lat="47.436034" lon="7.810517">
        <ele>425.136865</ele>
        <time>2021-11-12T21:40:49.441Z</time>
      </trkpt>
      <trkpt lat="47.436286" lon="7.810439">
        <ele>424.664422</ele>
        <time>2021-11-12T21:40:53.424Z</time>
      </trkpt>
      <trkpt lat="47.436714" lon="7.810307">
        <ele>423.862139</ele>
        <time>2021-11-12T21:41:00.351Z</time>
      </trkpt>
      <trkpt lat="47.436754" lon="7.810295">
        <ele>423.787243</ele>
        <time>2021-11-12T21:41:00.988Z</time>
      </trkpt>
      <trkpt lat="47.436910" lon="7.810231">
        <ele>423.490167</ele>
        <time>2021-11-12T21:41:03.564Z</time>
      </trkpt>
      <trkpt lat="47.436971" lon="7.810198">
        <ele>423.370974</ele>
        <time>2021-11-12T21:41:04.556Z</time>
      </trkpt>
      <trkpt lat="47.437405" lon="7.809871">
        <ele>422.477130</ele>
        <time>2021-11-12T21:41:12.387Z</time>
      </trkpt>
      <trkpt lat="47.437530" lon="7.809761">
        <ele>422.210198</ele>
        <time>2021-11-12T21:41:14.726Z</time>
      </trkpt>
      <trkpt lat="47.437880" lon="7.809448">
        <ele>422.128150</ele>
        <time>2021-11-12T21:41:21.217Z</time>
      </trkpt>
      <trkpt lat="47.438351" lon="7.809132">
        <ele>422.184139</ele>
        <time>2021-11-12T21:41:30.213Z</time>
      </trkpt>
      <trkpt lat="47.438917" lon="7.808920">
        <ele>422.247343</ele>
        <time>2021-11-12T21:41:43.491Z</time>
      </trkpt>
      <trkpt lat="47.439160" lon="7.808856">
        <ele>422.274061</ele>
        <time>2021-11-12T21:41:50.024Z</time>
      </trkpt>
      <trkpt lat="47.439256" lon="7.808836">
        <ele>422.284556</ele>
        <time>2021-11-12T21:41:53.036Z</time>
      </trkpt>
      <trkpt lat="47.439561" lon="7.808777">
        <ele>423.234245</ele>
        <time>2021-11-12T21:42:02.175Z</time>
      </trkpt>
      <trkpt lat="47.439717" lon="7.808754">
        <ele>423.733511</ele>
        <time>2021-11-12T21:42:08.197Z</time>
      </trkpt>
      <trkpt lat="47.440417" lon="7.808777">
        <ele>425.963297</ele>
        <time>2021-11-12T21:42:33.347Z</time>
      </trkpt>
      <trkpt lat="47.442177" lon="7.809333">
        <ele>429.603897</ele>
        <time>2021-11-12T21:43:31.427Z</time>
      </trkpt>
      <trkpt lat="47.442683" lon="7.809428">
        <ele>430.305637</ele>
        <time>2021-11-12T21:43:40.407Z</time>
      </trkpt>
      <trkpt lat="47.442919" lon="7.809465">
        <ele>430.033415</ele>
        <time>2021-11-12T21:43:44.126Z</time>
      </trkpt>
      <trkpt lat="47.443441" lon="7.809553">
        <ele>427.750455</ele>
        <time>2021-11-12T21:43:52.527Z</time>
      </trkpt>
      <trkpt lat="47.443720" lon="7.809596">
        <ele>426.531538</ele>
        <time>2021-11-12T21:43:56.466Z</time>
      </trkpt>
      <trkpt lat="47.443991" lon="7.809623">
        <ele>425.351282</ele>
        <time>2021-11-12T21:44:00.026Z</time>
      </trkpt>
      <trkpt lat="47.444386" lon="7.809626">
        <ele>423.634853</ele>
        <time>2021-11-12T21:44:05.142Z</time>
      </trkpt>
      <trkpt lat="47.445054" lon="7.809404">
        <ele>419.780547</ele>
        <time>2021-11-12T21:44:13.919Z</time>
      </trkpt>
      <trkpt lat="47.445120" lon="7.809369">
        <ele>419.342775</ele>
        <time>2021-11-12T21:44:14.821Z</time>
      </trkpt>
      <trkpt lat="47.445298" lon="7.809256">
        <ele>418.133335</ele>
        <time>2021-11-12T21:44:16.599Z</time>
      </trkpt>
      <trkpt lat="47.445880" lon="7.808843">
        <ele>414.102828</ele>
        <time>2021-11-12T21:44:22.618Z</time>
      </trkpt>
      <trkpt lat="47.446066" lon="7.808703">
        <ele>412.799739</ele>
        <time>2021-11-12T21:44:24.495Z</time>
      </trkpt>
      <trkpt lat="47.446096" lon="7.808680">
        <ele>412.588754</ele>
        <time>2021-11-12T21:44:24.830Z</time>
      </trkpt>
      <trkpt lat="47.446142" lon="7.808642">
        <ele>412.259772</ele>
        <time>2021-11-12T21:44:25.321Z</time>
      </trkpt>
      <trkpt lat="47.446375" lon="7.808453">
        <ele>410.813765</ele>
        <time>2021-11-12T21:44:27.696Z</time>
      </trkpt>
      <trkpt lat="47.446473" lon="7.808376">
        <ele>410.296343</ele>
        <time>2021-11-12T21:44:28.702Z</time>
      </trkpt>
      <trkpt lat="47.446662" lon="7.808234">
        <ele>409.307911</ele>
        <time>2021-11-12T21:44:30.601Z</time>
      </trkpt>
      <trkpt lat="47.447314" lon="7.807756">
        <ele>405.914865</ele>
        <time>2021-11-12T21:44:37.490Z</time>
      </trkpt>
      <trkpt lat="47.447388" lon="7.807704">
        <ele>405.532866</ele>
        <time>2021-11-12T21:44:38.253Z</time>
      </trkpt>
      <trkpt lat="47.447457" lon="7.807654">
        <ele>405.174603</ele>
        <time>2021-11-12T21:44:39.140Z</time>
      </trkpt>
      <trkpt lat="47.447633" lon="7.807562">
        <ele>404.304246</ele>
        <time>2021-11-12T21:44:41.150Z</time>
      </trkpt>
      <trkpt lat="47.447668" lon="7.807553">
        <ele>404.138610</ele>
        <time>2021-11-12T21:44:41.509Z</time>
      </trkpt>
      <trkpt lat="47.447689" lon="7.807548">
        <ele>404.039437</ele>
        <time>2021-11-12T21:44:41.698Z</time>
      </trkpt>
      <trkpt lat="47.447914" lon="7.807549">
        <ele>403.021303</ele>
        <time>2021-11-12T21:44:44.218Z</time>
      </trkpt>
      <trkpt lat="47.448245" lon="7.807740">
        <ele>402.139504</ele>
        <time>2021-11-12T21:44:47.944Z</time>
      </trkpt>
      <trkpt lat="47.448284" lon="7.807767">
        <ele>402.032632</ele>
        <time>2021-11-12T21:44:48.358Z</time>
      </trkpt>
      <trkpt lat="47.448442" lon="7.807881">
        <ele>401.596323</ele>
        <time>2021-11-12T21:44:50.167Z</time>
      </trkpt>
      <trkpt lat="47.448807" lon="7.808072">
        <ele>400.635428</ele>
        <time>2021-11-12T21:44:54.209Z</time>
      </trkpt>
      <trkpt lat="47.448903" lon="7.808078">
        <ele>400.396964</ele>
        <time>2021-11-12T21:44:55.269Z</time>
      </trkpt>
      <trkpt lat="47.449015" lon="7.808053">
        <ele>400.115856</ele>
        <time>2021-11-12T21:44:56.422Z</time>
      </trkpt>
      <trkpt lat="47.449267" lon="7.807971">
        <ele>399.475485</ele>
        <time>2021-11-12T21:44:59.199Z</time>
      </trkpt>
      <trkpt lat="47.449353" lon="7.807942">
        <ele>399.256573</ele>
        <time>2021-11-12T21:45:00.091Z</time>
      </trkpt>
      <trkpt lat="47.449829" lon="7.807782">
        <ele>398.246618</ele>
        <time>2021-11-12T21:45:05.584Z</time>
      </trkpt>
      <trkpt lat="47.449896" lon="7.807771">
        <ele>398.140886</ele>
        <time>2021-11-12T21:45:06.369Z</time>
      </trkpt>
      <trkpt lat="47.450005" lon="7.807761">
        <ele>397.969596</ele>
        <time>2021-11-12T21:45:07.575Z</time>
      </trkpt>
      <trkpt lat="47.451415" lon="7.807774">
        <ele>395.759519</ele>
        <time>2021-11-12T21:45:23.810Z</time>
      </trkpt>
      <trkpt lat="47.451791" lon="7.807759">
        <ele>395.234241</ele>
        <time>2021-11-12T21:45:28.275Z</time>
      </trkpt>
      <trkpt lat="47.451923" lon="7.807754">
        <ele>395.049842</ele>
        <time>2021-11-12T21:45:29.856Z</time>
      </trkpt>
      <trkpt lat="47.452253" lon="7.807773">
        <ele>394.588645</ele>
        <time>2021-11-12T21:45:33.803Z</time>
      </trkpt>
      <trkpt lat="47.452456" lon="7.807753">
        <ele>394.304526</ele>
        <time>2021-11-12T21:45:36.200Z</time>
      </trkpt>
      <trkpt lat="47.452556" lon="7.807739">
        <ele>394.164251</ele>
        <time>2021-11-12T21:45:37.300Z</time>
      </trkpt>
      <trkpt lat="47.452649" lon="7.807724">
        <ele>394.033606</ele>
        <time>2021-11-12T21:45:38.404Z</time>
      </trkpt>
      <trkpt lat="47.452830" lon="7.807686">
        <ele>393.778304</ele>
        <time>2021-11-12T21:45:40.549Z</time>
      </trkpt>
      <trkpt lat="47.453183" lon="7.807608">
        <ele>393.279865</ele>
        <time>2021-11-12T21:45:44.563Z</time>
      </trkpt>
      <trkpt lat="47.453371" lon="7.807571">
        <ele>393.010562</ele>
        <time>2021-11-12T21:45:46.686Z</time>
      </trkpt>
      <trkpt lat="47.453677" lon="7.807487">
        <ele>392.568039</ele>
        <time>2021-11-12T21:45:50.384Z</time>
      </trkpt>
      <trkpt lat="47.453815" lon="7.807438">
        <ele>392.366245</ele>
        <time>2021-11-12T21:45:52.115Z</time>
      </trkpt>
      <trkpt lat="47.453901" lon="7.807402">
        <ele>392.239161</ele>
        <time>2021-11-12T21:45:53.200Z</time>
      </trkpt>
      <trkpt lat="47.453985" lon="7.807368">
        <ele>392.115331</ele>
        <time>2021-11-12T21:45:54.179Z</time>
      </trkpt>
      <trkpt lat="47.454310" lon="7.807191">
        <ele>391.622887</ele>
        <time>2021-11-12T21:45:58.376Z</time>
      </trkpt>
      <trkpt lat="47.454428" lon="7.807128">
        <ele>391.444508</ele>
        <time>2021-11-12T21:45:59.840Z</time>
      </trkpt>
      <trkpt lat="47.454559" lon="7.807067">
        <ele>391.249229</ele>
        <time>2021-11-12T21:46:01.608Z</time>
      </trkpt>
      <trkpt lat="47.455379" lon="7.806783">
        <ele>389.823475</ele>
        <time>2021-11-12T21:46:10.951Z</time>
      </trkpt>
      <trkpt lat="47.456100" lon="7.806718">
        <ele>388.436021</ele>
        <time>2021-11-12T21:46:18.889Z</time>
      </trkpt>
      <trkpt lat="47.456331" lon="7.806727">
        <ele>387.992166</ele>
        <time>2021-11-12T21:46:21.485Z</time>
      </trkpt>
      <trkpt lat="47.456502" lon="7.806745">
        <ele>387.662882</ele>
        <time>2021-11-12T21:46:23.303Z</time>
      </trkpt>
      <trkpt lat="47.456988" lon="7.806840">
        <ele>386.703514</ele>
        <time>2021-11-12T21:46:28.713Z</time>
      </trkpt>
      <trkpt lat="47.457291" lon="7.806917">
        <ele>386.093070</ele>
        <time>2021-11-12T21:46:32.021Z</time>
      </trkpt>
      <trkpt lat="47.457326" lon="7.806926">
        <ele>386.022533</ele>
        <time>2021-11-12T21:46:32.431Z</time>
      </trkpt>
      <trkpt lat="47.457732" lon="7.807037">
        <ele>385.202735</ele>
        <time>2021-11-12T21:46:36.915Z</time>
      </trkpt>
      <trkpt lat="47.458181" lon="7.807191">
        <ele>384.287557</ele>
        <time>2021-11-12T21:46:41.962Z</time>
      </trkpt>
      <trkpt lat="47.458237" lon="7.807215">
        <ele>384.171791</ele>
        <time>2021-11-12T21:46:42.596Z</time>
      </trkpt>
      <trkpt lat="47.458342" lon="7.807254">
        <ele>383.956833</ele>
        <time>2021-11-12T21:46:43.802Z</time>
      </trkpt>
      <trkpt lat="47.458678" lon="7.807409">
        <ele>383.365677</ele>
        <time>2021-11-12T21:46:47.796Z</time>
      </trkpt>
      <trkpt lat="47.459007" lon="7.807577">
        <ele>382.852545</ele>
        <time>2021-11-12T21:46:51.899Z</time>
      </trkpt>
      <trkpt lat="47.459282" lon="7.807707">
        <ele>382.426914</ele>
        <time>2021-11-12T21:46:55.360Z</time>
      </trkpt>
      <trkpt lat="47.459423" lon="7.807775">
        <ele>382.208269</ele>
        <time>2021-11-12T21:46:57.083Z</time>
      </trkpt>
      <trkpt lat="47.459865" lon="7.807952">
        <ele>381.533177</ele>
        <time>2021-11-12T21:47:02.302Z</time>
      </trkpt>
      <trkpt lat="47.460078" lon="7.808023">
        <ele>381.211280</ele>
        <time>2021-11-12T21:47:04.867Z</time>
      </trkpt>
      <trkpt lat="47.460298" lon="7.808103">
        <ele>380.876300</ele>
        <time>2021-11-12T21:47:07.477Z</time>
      </trkpt>
      <trkpt lat="47.460439" lon="7.808155">
        <ele>380.660637</ele>
        <time>2021-11-12T21:47:09.157Z</time>
      </trkpt>
      <trkpt lat="47.460827" lon="7.808276">
        <ele>380.072149</ele>
        <time>2021-11-12T21:47:13.731Z</time>
      </trkpt>
      <trkpt lat="47.460870" lon="7.808289">
        <ele>380.007014</ele>
        <time>2021-11-12T21:47:14.202Z</time>
      </trkpt>
      <trkpt lat="47.460938" lon="7.808308">
        <ele>379.904311</ele>
        <time>2021-11-12T21:47:15.047Z</time>
      </trkpt>
      <trkpt lat="47.461296" lon="7.808372">
        <ele>379.369140</ele>
        <time>2021-11-12T21:47:19.257Z</time>
      </trkpt>
      <trkpt lat="47.461822" lon="7.808433">
        <ele>378.586112</ele>
        <time>2021-11-12T21:47:25.247Z</time>
      </trkpt>
      <trkpt lat="47.461997" lon="7.808450">
        <ele>378.329167</ele>
        <time>2021-11-12T21:47:27.216Z</time>
      </trkpt>
      <trkpt lat="47.462052" lon="7.808470">
        <ele>378.254659</ele>
        <time>2021-11-12T21:47:27.910Z</time>
      </trkpt>
      <trkpt lat="47.462087" lon="7.808494">
        <ele>378.203909</ele>
        <time>2021-11-12T21:47:28.390Z</time>
      </trkpt>
      <trkpt lat="47.462185" lon="7.808547">
        <ele>378.066642</ele>
        <time>2021-11-12T21:47:29.523Z</time>
      </trkpt>
      <trkpt lat="47.462879" lon="7.809121">
        <ele>377.020640</ele>
        <time>2021-11-12T21:47:39.032Z</time>
      </trkpt>
      <trkpt lat="47.462918" lon="7.809150">
        <ele>376.963217</ele>
        <time>2021-11-12T21:47:39.495Z</time>
      </trkpt>
      <trkpt lat="47.463007" lon="7.809215">
        <ele>376.832642</ele>
        <time>2021-11-12T21:47:40.789Z</time>
      </trkpt>
      <trkpt lat="47.463122" lon="7.809317">
        <ele>376.656244</ele>
        <time>2021-11-12T21:47:43.011Z</time>
      </trkpt>
      <trkpt lat="47.463347" lon="7.809533">
        <ele>376.303379</ele>
        <time>2021-11-12T21:47:47.630Z</time>
      </trkpt>
      <trkpt lat="47.463403" lon="7.809601">
        <ele>376.208066</ele>
        <time>2021-11-12T21:47:48.750Z</time>
      </trkpt>
      <trkpt lat="47.463603" lon="7.809961">
        <ele>375.753432</ele>
        <time>2021-11-12T21:47:54.014Z</time>
      </trkpt>
      <trkpt lat="47.463616" lon="7.809990">
        <ele>375.716113</ele>
        <time>2021-11-12T21:47:54.396Z</time>
      </trkpt>
      <trkpt lat="47.463652" lon="7.810060">
        <ele>375.621784</ele>
        <time>2021-11-12T21:47:55.411Z</time>
      </trkpt>
      <trkpt lat="47.463689" lon="7.810134">
        <ele>375.523072</ele>
        <time>2021-11-12T21:47:56.509Z</time>
      </trkpt>
      <trkpt lat="47.463753" lon="7.810251">
        <ele>375.361659</ele>
        <time>2021-11-12T21:47:58.165Z</time>
      </trkpt>
      <trkpt lat="47.463831" lon="7.810395">
        <ele>375.163762</ele>
        <time>2021-11-12T21:48:00.211Z</time>
      </trkpt>
      <trkpt lat="47.463886" lon="7.810514">
        <ele>375.009161</ele>
        <time>2021-11-12T21:48:01.811Z</time>
      </trkpt>
      <trkpt lat="47.463897" lon="7.810575">
        <ele>374.941451</ele>
        <time>2021-11-12T21:48:02.555Z</time>
      </trkpt>
      <trkpt lat="47.464200" lon="7.810621">
        <ele>374.458246</ele>
        <time>2021-11-12T21:48:05.969Z</time>
      </trkpt>
      <trkpt lat="47.464340" lon="7.810632">
        <ele>374.235836</ele>
        <time>2021-11-12T21:48:07.696Z</time>
      </trkpt>
      <trkpt lat="47.464364" lon="7.810630">
        <ele>374.197702</ele>
        <time>2021-11-12T21:48:07.939Z</time>
      </trkpt>
      <trkpt lat="47.464385" lon="7.810619">
        <ele>374.162361</ele>
        <time>2021-11-12T21:48:08.180Z</time>
      </trkpt>
      <trkpt lat="47.464417" lon="7.810573">
        <ele>374.091573</ele>
        <time>2021-11-12T21:48:08.725Z</time>
      </trkpt>
      <trkpt lat="47.464452" lon="7.810429">
        <ele>373.927457</ele>
        <time>2021-11-12T21:48:09.895Z</time>
      </trkpt>
      <trkpt lat="47.464496" lon="7.810462">
        <ele>373.849195</ele>
        <time>2021-11-12T21:48:10.430Z</time>
      </trkpt>
      <trkpt lat="47.464636" lon="7.810572">
        <ele>373.597711</ele>
        <time>2021-11-12T21:48:12.295Z</time>
      </trkpt>
      <trkpt lat="47.465087" lon="7.810791">
        <ele>372.905855</ele>
        <time>2021-11-12T21:48:17.616Z</time>
      </trkpt>
      <trkpt lat="47.465212" lon="7.810852">
        <ele>372.740947</ele>
        <time>2021-11-12T21:48:19.057Z</time>
      </trkpt>
      <trkpt lat="47.465394" lon="7.810939">
        <ele>372.501318</ele>
        <time>2021-11-12T21:48:21.136Z</time>
      </trkpt>
      <trkpt lat="47.465536" lon="7.811007">
        <ele>372.314323</ele>
        <time>2021-11-12T21:48:22.720Z</time>
      </trkpt>
      <trkpt lat="47.465656" lon="7.811068">
        <ele>372.155352</ele>
        <time>2021-11-12T21:48:24.106Z</time>
      </trkpt>
      <trkpt lat="47.465897" lon="7.811237">
        <ele>371.821205</ele>
        <time>2021-11-12T21:48:26.978Z</time>
      </trkpt>
      <trkpt lat="47.466010" lon="7.811328">
        <ele>371.660013</ele>
        <time>2021-11-12T21:48:28.539Z</time>
      </trkpt>
      <trkpt lat="47.466094" lon="7.811396">
        <ele>371.540045</ele>
        <time>2021-11-12T21:48:29.633Z</time>
      </trkpt>
      <trkpt lat="47.466196" lon="7.811499">
        <ele>371.385318</ele>
        <time>2021-11-12T21:48:31.130Z</time>
      </trkpt>
      <trkpt lat="47.466262" lon="7.811579">
        <ele>371.278415</ele>
        <time>2021-11-12T21:48:32.161Z</time>
      </trkpt>
      <trkpt lat="47.466315" lon="7.811646">
        <ele>371.191070</ele>
        <time>2021-11-12T21:48:33.046Z</time>
      </trkpt>
      <trkpt lat="47.466490" lon="7.811850">
        <ele>370.911924</ele>
        <time>2021-11-12T21:48:36.160Z</time>
      </trkpt>
      <trkpt lat="47.466578" lon="7.811937">
        <ele>371.192191</ele>
        <time>2021-11-12T21:48:37.859Z</time>
      </trkpt>
      <trkpt lat="47.466676" lon="7.812018">
        <ele>371.615874</ele>
        <time>2021-11-12T21:48:39.712Z</time>
      </trkpt>
      <trkpt lat="47.466796" lon="7.812117">
        <ele>372.134441</ele>
        <time>2021-11-12T21:48:42.790Z</time>
      </trkpt>
      <trkpt lat="47.467013" lon="7.812269">
        <ele>373.040600</ele>
        <time>2021-11-12T21:48:48.313Z</time>
      </trkpt>
      <trkpt lat="47.467077" lon="7.812317">
        <ele>373.311415</ele>
        <time>2021-11-12T21:48:49.738Z</time>
      </trkpt>
      <trkpt lat="47.467146" lon="7.812375">
        <ele>373.610936</ele>
        <time>2021-11-12T21:48:52.261Z</time>
      </trkpt>
      <trkpt lat="47.467426" lon="7.812608">
        <ele>374.823416</ele>
        <time>2021-11-12T21:49:00.516Z</time>
      </trkpt>
      <trkpt lat="47.467739" lon="7.812865">
        <ele>376.174486</ele>
        <time>2021-11-12T21:49:13.078Z</time>
      </trkpt>
      <trkpt lat="47.467746" lon="7.812871">
        <ele>376.205019</ele>
        <time>2021-11-12T21:49:13.941Z</time>
      </trkpt>
      <trkpt lat="47.467857" lon="7.812969">
        <ele>376.692885</ele>
        <time>2021-11-12T21:49:18.455Z</time>
      </trkpt>
      <trkpt lat="47.467958" lon="7.813047">
        <ele>377.122890</ele>
        <time>2021-11-12T21:49:23.631Z</time>
      </trkpt>
      <trkpt lat="47.467986" lon="7.813069">
        <ele>377.242546</ele>
        <time>2021-11-12T21:49:24.423Z</time>
      </trkpt>
      <trkpt lat="47.468087" lon="7.813122">
        <ele>377.647004</ele>
        <time>2021-11-12T21:49:28.407Z</time>
      </trkpt>
      <trkpt lat="47.468231" lon="7.813117">
        <ele>378.972420</ele>
        <time>2021-11-12T21:49:35.076Z</time>
      </trkpt>
      <trkpt lat="47.468898" lon="7.813028">
        <ele>385.299038</ele>
        <time>2021-11-12T21:50:12.758Z</time>
      </trkpt>
      <trkpt lat="47.468968" lon="7.813033">
        <ele>385.961087</ele>
        <time>2021-11-12T21:50:17.599Z</time>
      </trkpt>
      <trkpt lat="47.469261" lon="7.813214">
        <ele>388.960653</ele>
        <time>2021-11-12T21:50:35.919Z</time>
      </trkpt>
      <trkpt lat="47.469382" lon="7.813432">
        <ele>390.761938</ele>
        <time>2021-11-12T21:50:46.183Z</time>
      </trkpt>
      <trkpt lat="47.469445" lon="7.813683">
        <ele>392.471725</ele>
        <time>2021-11-12T21:50:56.661Z</time>
      </trkpt>
      <trkpt lat="47.469471" lon="7.813955">
        <ele>394.225969</ele>
        <time>2021-11-12T21:51:05.571Z</time>
      </trkpt>
      <trkpt lat="47.469477" lon="7.814056">
        <ele>394.806116</ele>
        <time>2021-11-12T21:51:10.498Z</time>
      </trkpt>
      <trkpt lat="47.469564" lon="7.814419">
        <ele>396.482642</ele>
        <time>2021-11-12T21:51:21.098Z</time>
      </trkpt>
      <trkpt lat="47.469608" lon="7.814504">
        <ele>396.948675</ele>
        <time>2021-11-12T21:51:26.202Z</time>
      </trkpt>
      <trkpt lat="47.469647" lon="7.814557">
        <ele>397.289702</ele>
        <time>2021-11-12T21:51:28.643Z</time>
      </trkpt>
      <trkpt lat="47.469960" lon="7.814754">
        <ele>399.480122</ele>
        <time>2021-11-12T21:51:44.660Z</time>
      </trkpt>
      <trkpt lat="47.470163" lon="7.814758">
        <ele>400.787468</ele>
        <time>2021-11-12T21:51:50.534Z</time>
      </trkpt>
      <trkpt lat="47.470596" lon="7.814760">
        <ele>403.575808</ele>
        <time>2021-11-12T21:52:07.046Z</time>
      </trkpt>
      <trkpt lat="47.470838" lon="7.814669">
        <ele>405.183735</ele>
        <time>2021-11-12T21:52:15.698Z</time>
      </trkpt>
      <trkpt lat="47.470969" lon="7.814299">
        <ele>406.879792</ele>
        <time>2021-11-12T21:52:25.299Z</time>
      </trkpt>
      <trkpt lat="47.470938" lon="7.813871">
        <ele>408.451524</ele>
        <time>2021-11-12T21:52:33.400Z</time>
      </trkpt>
      <trkpt lat="47.470607" lon="7.813259">
        <ele>411.313425</ele>
        <time>2021-11-12T21:52:48.830Z</time>
      </trkpt>
      <trkpt lat="47.470614" lon="7.813052">
        <ele>412.070209</ele>
        <time>2021-11-12T21:52:54.203Z</time>
      </trkpt>
      <trkpt lat="47.470744" lon="7.812887">
        <ele>412.995466</ele>
        <time>2021-11-12T21:52:59.253Z</time>
      </trkpt>
      <trkpt lat="47.470794" lon="7.812878">
        <ele>413.267544</ele>
        <time>2021-11-12T21:53:01.259Z</time>
      </trkpt>
      <trkpt lat="47.470835" lon="7.812891">
        <ele>413.494044</ele>
        <time>2021-11-12T21:53:04.015Z</time>
      </trkpt>
      <trkpt lat="47.470923" lon="7.812993">
        <ele>414.097924</ele>
        <time>2021-11-12T21:53:07.563Z</time>
      </trkpt>
      <trkpt lat="47.471093" lon="7.813407">
        <ele>415.866651</ele>
        <time>2021-11-12T21:53:20.457Z</time>
      </trkpt>
      <trkpt lat="47.472320" lon="7.814860">
        <ele>432.187652</ele>
        <time>2021-11-12T21:54:51.438Z</time>
      </trkpt>
      <trkpt lat="47.472505" lon="7.815033">
        <ele>434.472542</ele>
        <time>2021-11-12T21:55:04.315Z</time>
      </trkpt>
      <trkpt lat="47.472623" lon="7.815140">
        <ele>436.154501</ele>
        <time>2021-11-12T21:55:13.979Z</time>
      </trkpt>
      <trkpt lat="47.473230" lon="7.815705">
        <ele>445.146239</ele>
        <time>2021-11-12T21:56:00.114Z</time>
      </trkpt>
      <trkpt lat="47.473672" lon="7.816216">
        <ele>452.179553</ele>
        <time>2021-11-12T21:56:42.563Z</time>
      </trkpt>
      <trkpt lat="47.473743" lon="7.816298">
        <ele>453.308900</ele>
        <time>2021-11-12T21:56:48.525Z</time>
      </trkpt>
      <trkpt lat="47.473926" lon="7.816632">
        <ele>456.952673</ele>
        <time>2021-11-12T21:57:06.723Z</time>
      </trkpt>
      <trkpt lat="47.474182" lon="7.817417">
        <ele>462.581972</ele>
        <time>2021-11-12T21:57:35.374Z</time>
      </trkpt>
      <trkpt lat="47.474210" lon="7.817475">
        <ele>463.035436</ele>
        <time>2021-11-12T21:57:40.267Z</time>
      </trkpt>
      <trkpt lat="47.474233" lon="7.817507">
        <ele>463.332620</ele>
        <time>2021-11-12T21:57:42.526Z</time>
      </trkpt>
      <trkpt lat="47.474389" lon="7.817613">
        <ele>464.948461</ele>
        <time>2021-11-12T21:57:49.784Z</time>
      </trkpt>
      <trkpt lat="47.474555" lon="7.817587">
        <ele>466.519696</ele>
        <time>2021-11-12T21:57:59.109Z</time>
      </trkpt>
      <trkpt lat="47.474613" lon="7.817546">
        <ele>467.124748</ele>
        <time>2021-11-12T21:58:02.944Z</time>
      </trkpt>
      <trkpt lat="47.474641" lon="7.817509">
        <ele>467.478125</ele>
        <time>2021-11-12T21:58:04.172Z</time>
      </trkpt>
      <trkpt lat="47.474739" lon="7.817281">
        <ele>469.197157</ele>
        <time>2021-11-12T21:58:10.976Z</time>
      </trkpt>
      <trkpt lat="47.474739" lon="7.816928">
        <ele>471.443003</ele>
        <time>2021-11-12T21:58:23.080Z</time>
      </trkpt>
      <trkpt lat="47.474616" lon="7.816226">
        <ele>476.270709</ele>
        <time>2021-11-12T21:58:47.975Z</time>
      </trkpt>
      <trkpt lat="47.474375" lon="7.815394">
        <ele>482.699992</ele>
        <time>2021-11-12T21:59:21.833Z</time>
      </trkpt>
      <trkpt lat="47.474430" lon="7.815154">
        <ele>484.499969</ele>
        <time>2021-11-12T21:59:31.616Z</time>
      </trkpt>
      <trkpt lat="47.474584" lon="7.814993">
        <ele>486.481513</ele>
        <time>2021-11-12T21:59:41.698Z</time>
      </trkpt>
      <trkpt lat="47.474804" lon="7.814845">
        <ele>489.021115</ele>
        <time>2021-11-12T21:59:57.699Z</time>
      </trkpt>
      <trkpt lat="47.474961" lon="7.814741">
        <ele>490.828738</ele>
        <time>2021-11-12T22:00:07.506Z</time>
      </trkpt>
      <trkpt lat="47.475210" lon="7.814595">
        <ele>493.677084</ele>
        <time>2021-11-12T22:00:24.519Z</time>
      </trkpt>
      <trkpt lat="47.475276" lon="7.814567">
        <ele>494.445198</ele>
        <time>2021-11-12T22:00:28.533Z</time>
      </trkpt>
      <trkpt lat="47.475471" lon="7.814482">
        <ele>496.719422</ele>
        <time>2021-11-12T22:00:41.695Z</time>
      </trkpt>
      <trkpt lat="47.475705" lon="7.814474">
        <ele>499.337934</ele>
        <time>2021-11-12T22:00:55.507Z</time>
      </trkpt>
      <trkpt lat="47.476077" lon="7.814575">
        <ele>503.569081</ele>
        <time>2021-11-12T22:01:20.059Z</time>
      </trkpt>
      <trkpt lat="47.476150" lon="7.814569">
        <ele>504.387008</ele>
        <time>2021-11-12T22:01:26.384Z</time>
      </trkpt>
      <trkpt lat="47.476204" lon="7.814552">
        <ele>505.004644</ele>
        <time>2021-11-12T22:01:29.703Z</time>
      </trkpt>
      <trkpt lat="47.476334" lon="7.814450">
        <ele>506.650838</ele>
        <time>2021-11-12T22:01:39.019Z</time>
      </trkpt>
      <trkpt lat="47.476534" lon="7.814226">
        <ele>509.457073</ele>
        <time>2021-11-12T22:01:53.430Z</time>
      </trkpt>
      <trkpt lat="47.476563" lon="7.814189">
        <ele>509.885473</ele>
        <time>2021-11-12T22:01:55.336Z</time>
      </trkpt>
      <trkpt lat="47.476884" lon="7.813858">
        <ele>513.992057</ele>
        <time>2021-11-12T22:02:14.688Z</time>
      </trkpt>
      <trkpt lat="47.476980" lon="7.813791">
        <ele>514.864570</ele>
        <time>2021-11-12T22:02:20.126Z</time>
      </trkpt>
      <trkpt lat="47.477155" lon="7.813696">
        <ele>516.396847</ele>
        <time>2021-11-12T22:02:28.456Z</time>
      </trkpt>
      <trkpt lat="47.477516" lon="7.813359">
        <ele>519.905572</ele>
        <time>2021-11-12T22:02:47.676Z</time>
      </trkpt>
      <trkpt lat="47.477546" lon="7.813318">
        <ele>520.241278</ele>
        <time>2021-11-12T22:02:51.010Z</time>
      </trkpt>
      <trkpt lat="47.477609" lon="7.813223">
        <ele>520.980704</ele>
        <time>2021-11-12T22:02:54.686Z</time>
      </trkpt>
      <trkpt lat="47.478172" lon="7.812240">
        <ele>528.180703</ele>
        <time>2021-11-12T22:03:33.916Z</time>
      </trkpt>
      <trkpt lat="47.478216" lon="7.812137">
        <ele>529.109354</ele>
        <time>2021-11-12T22:03:37.758Z</time>
      </trkpt>
      <trkpt lat="47.478245" lon="7.812069">
        <ele>529.722153</ele>
        <time>2021-11-12T22:03:42.391Z</time>
      </trkpt>
      <trkpt lat="47.478262" lon="7.811831">
        <ele>531.546130</ele>
        <time>2021-11-12T22:03:48.924Z</time>
      </trkpt>
      <trkpt lat="47.478204" lon="7.811401">
        <ele>534.887928</ele>
        <time>2021-11-12T22:04:04.688Z</time>
      </trkpt>
      <trkpt lat="47.478231" lon="7.811139">
        <ele>536.907795</ele>
        <time>2021-11-12T22:04:12.814Z</time>
      </trkpt>
      <trkpt lat="47.478335" lon="7.810955">
        <ele>538.735861</ele>
        <time>2021-11-12T22:04:22.604Z</time>
      </trkpt>
      <trkpt lat="47.478566" lon="7.810790">
        <ele>541.628349</ele>
        <time>2021-11-12T22:04:41.051Z</time>
      </trkpt>
      <trkpt lat="47.478809" lon="7.810763">
        <ele>544.376211</ele>
        <time>2021-11-12T22:04:56.707Z</time>
      </trkpt>
      <trkpt lat="47.478943" lon="7.810849">
        <ele>546.023266</ele>
        <time>2021-11-12T22:05:09.806Z</time>
      </trkpt>
      <trkpt lat="47.479473" lon="7.811584">
        <ele>554.684444</ele>
        <time>2021-11-12T22:05:59.397Z</time>
      </trkpt>
      <trkpt lat="47.479687" lon="7.811839">
        <ele>558.029426</ele>
        <time>2021-11-12T22:06:16.463Z</time>
      </trkpt>
      <trkpt lat="47.479735" lon="7.811893">
        <ele>558.763492</ele>
        <time>2021-11-12T22:06:22.233Z</time>
      </trkpt>
      <trkpt lat="47.480713" lon="7.812994">
        <ele>572.419455</ele>
        <time>2021-11-12T22:07:35.384Z</time>
      </trkpt>
      <trkpt lat="47.480872" lon="7.813093">
        <ele>573.740914</ele>
        <time>2021-11-12T22:07:45.282Z</time>
      </trkpt>
      <trkpt lat="47.481456" lon="7.813058">
        <ele>578.218286</ele>
        <time>2021-11-12T22:08:08.587Z</time>
      </trkpt>
      <trkpt lat="47.481920" lon="7.813196">
        <ele>581.843827</ele>
        <time>2021-11-12T22:08:25.595Z</time>
      </trkpt>
      <trkpt lat="47.482097" lon="7.813263">
        <ele>583.243391</ele>
        <time>2021-11-12T22:08:32.162Z</time>
      </trkpt>
      <trkpt lat="47.482420" lon="7.813239">
        <ele>585.982552</ele>
        <time>2021-11-12T22:08:46.492Z</time>
      </trkpt>
      <trkpt lat="47.482949" lon="7.813114">
        <ele>590.704669</ele>
        <time>2021-11-12T22:09:13.671Z</time>
      </trkpt>
      <trkpt lat="47.483220" lon="7.813099">
        <ele>593.095154</ele>
        <time>2021-11-12T22:09:29.546Z</time>
      </trkpt>
      <trkpt lat="47.483493" lon="7.813178">
        <ele>595.547182</ele>
        <time>2021-11-12T22:09:42.977Z</time>
      </trkpt>
      <trkpt lat="47.483708" lon="7.813293">
        <ele>597.562383</ele>
        <time>2021-11-12T22:09:55.997Z</time>
      </trkpt>
      <trkpt lat="47.483804" lon="7.813389">
        <ele>598.583722</ele>
        <time>2021-11-12T22:10:01.577Z</time>
      </trkpt>
      <trkpt lat="47.483867" lon="7.813452">
        <ele>599.253976</ele>
        <time>2021-11-12T22:10:08.433Z</time>
      </trkpt>
      <trkpt lat="47.484375" lon="7.813958">
        <ele>603.469073</ele>
        <time>2021-11-12T22:10:35.762Z</time>
      </trkpt>
      <trkpt lat="47.484474" lon="7.814023">
        <ele>604.189165</ele>
        <time>2021-11-12T22:10:44.107Z</time>
      </trkpt>
      <trkpt lat="47.484558" lon="7.814061">
        <ele>604.773162</ele>
        <time>2021-11-12T22:10:49.340Z</time>
      </trkpt>
      <trkpt lat="47.484689" lon="7.814083">
        <ele>605.649719</ele>
        <time>2021-11-12T22:10:56.519Z</time>
      </trkpt>
      <trkpt lat="47.484732" lon="7.814081">
        <ele>605.935750</ele>
        <time>2021-11-12T22:10:59.397Z</time>
      </trkpt>
      <trkpt lat="47.484810" lon="7.814067">
        <ele>606.458141</ele>
        <time>2021-11-12T22:11:05.409Z</time>
      </trkpt>
      <trkpt lat="47.485144" lon="7.813866">
        <ele>608.855384</ele>
        <time>2021-11-12T22:11:21.534Z</time>
      </trkpt>
      <trkpt lat="47.485925" lon="7.813196">
        <ele>611.246655</ele>
        <time>2021-11-12T22:11:41.751Z</time>
      </trkpt>
      <trkpt lat="47.486531" lon="7.812839">
        <ele>610.466484</ele>
        <time>2021-11-12T22:11:49.139Z</time>
      </trkpt>
      <trkpt lat="47.486782" lon="7.812718">
        <ele>610.150731</ele>
        <time>2021-11-12T22:11:51.866Z</time>
      </trkpt>
      <trkpt lat="47.488525" lon="7.812197">
        <ele>604.778470</ele>
        <time>2021-11-12T22:12:09.402Z</time>
      </trkpt>
      <trkpt lat="47.488654" lon="7.812154">
        <ele>604.303851</ele>
        <time>2021-11-12T22:12:10.674Z</time>
      </trkpt>
      <trkpt lat="47.489734" lon="7.811930">
        <ele>599.463303</ele>
        <time>2021-11-12T22:12:21.886Z</time>
      </trkpt>
      <trkpt lat="47.490230" lon="7.811766">
        <ele>597.035785</ele>
        <time>2021-11-12T22:12:26.628Z</time>
      </trkpt>
      <trkpt lat="47.490608" lon="7.811558">
        <ele>595.109529</ele>
        <time>2021-11-12T22:12:30.370Z</time>
      </trkpt>
      <trkpt lat="47.490921" lon="7.811332">
        <ele>592.302186</ele>
        <time>2021-11-12T22:12:33.504Z</time>
      </trkpt>
      <trkpt lat="47.491099" lon="7.811167">
        <ele>590.303544</ele>
        <time>2021-11-12T22:12:35.350Z</time>
      </trkpt>
      <trkpt lat="47.491168" lon="7.811103">
        <ele>589.528655</ele>
        <time>2021-11-12T22:12:36.083Z</time>
      </trkpt>
      <trkpt lat="47.491210" lon="7.811067">
        <ele>589.066799</ele>
        <time>2021-11-12T22:12:36.485Z</time>
      </trkpt>
      <trkpt lat="47.491305" lon="7.811022">
        <ele>588.117622</ele>
        <time>2021-11-12T22:12:37.320Z</time>
      </trkpt>
      <trkpt lat="47.491356" lon="7.811021">
        <ele>587.632274</ele>
        <time>2021-11-12T22:12:37.786Z</time>
      </trkpt>
      <trkpt lat="47.491417" lon="7.811033">
        <ele>587.046705</ele>
        <time>2021-11-12T22:12:38.345Z</time>
      </trkpt>
      <trkpt lat="47.491536" lon="7.811112">
        <ele>585.805615</ele>
        <time>2021-11-12T22:12:39.475Z</time>
      </trkpt>
      <trkpt lat="47.491701" lon="7.811206">
        <ele>584.123196</ele>
        <time>2021-11-12T22:12:40.965Z</time>
      </trkpt>
      <trkpt lat="47.492165" lon="7.811273">
        <ele>579.686901</ele>
        <time>2021-11-12T22:12:44.980Z</time>
      </trkpt>
      <trkpt lat="47.492224" lon="7.811327">
        <ele>579.026781</ele>
        <time>2021-11-12T22:12:45.581Z</time>
      </trkpt>
      <trkpt lat="47.492257" lon="7.811384">
        <ele>578.544156</ele>
        <time>2021-11-12T22:12:45.999Z</time>
      </trkpt>
      <trkpt lat="47.492257" lon="7.811384">
        <ele>578.544156</ele>
        <time>2021-11-12T22:12:46.020Z</time>
      </trkpt>
      <trkpt lat="47.492273" lon="7.811452">
        <ele>578.081183</ele>
        <time>2021-11-12T22:12:46.424Z</time>
      </trkpt>
      <trkpt lat="47.492264" lon="7.811614">
        <ele>576.973289</ele>
        <time>2021-11-12T22:12:47.415Z</time>
      </trkpt>
      <trkpt lat="47.492176" lon="7.811763">
        <ele>575.522332</ele>
        <time>2021-11-12T22:12:48.582Z</time>
      </trkpt>
      <trkpt lat="47.492008" lon="7.811905">
        <ele>573.423002</ele>
        <time>2021-11-12T22:12:50.202Z</time>
      </trkpt>
      <trkpt lat="47.491595" lon="7.812210">
        <ele>568.414568</ele>
        <time>2021-11-12T22:12:54.192Z</time>
      </trkpt>
      <trkpt lat="47.491212" lon="7.812513">
        <ele>563.702098</ele>
        <time>2021-11-12T22:12:57.894Z</time>
      </trkpt>
      <trkpt lat="47.491001" lon="7.812847">
        <ele>560.349593</ele>
        <time>2021-11-12T22:13:00.501Z</time>
      </trkpt>
      <trkpt lat="47.490928" lon="7.813010">
        <ele>558.915786</ele>
        <time>2021-11-12T22:13:01.601Z</time>
      </trkpt>
      <trkpt lat="47.490609" lon="7.813824">
        <ele>552.135378</ele>
        <time>2021-11-12T22:13:07.154Z</time>
      </trkpt>
      <trkpt lat="47.490583" lon="7.813886">
        <ele>551.611063</ele>
        <time>2021-11-12T22:13:07.551Z</time>
      </trkpt>
      <trkpt lat="47.490141" lon="7.814910">
        <ele>542.880089</ele>
        <time>2021-11-12T22:13:14.574Z</time>
      </trkpt>
      <trkpt lat="47.489951" lon="7.815143">
        <ele>540.256136</ele>
        <time>2021-11-12T22:13:16.671Z</time>
      </trkpt>
      <trkpt lat="47.489256" lon="7.815700">
        <ele>532.886568</ele>
        <time>2021-11-12T22:13:23.501Z</time>
      </trkpt>
      <trkpt lat="47.489000" lon="7.816098">
        <ele>529.523033</ele>
        <time>2021-11-12T22:13:26.764Z</time>
      </trkpt>
      <trkpt lat="47.488831" lon="7.816489">
        <ele>526.681862</ele>
        <time>2021-11-12T22:13:29.473Z</time>
      </trkpt>
      <trkpt lat="47.488720" lon="7.816914">
        <ele>523.892741</ele>
        <time>2021-11-12T22:13:32.152Z</time>
      </trkpt>
      <trkpt lat="47.488531" lon="7.818236">
        <ele>518.150465</ele>
        <time>2021-11-12T22:13:40.322Z</time>
      </trkpt>
      <trkpt lat="47.488476" lon="7.818598">
        <ele>516.708747</ele>
        <time>2021-11-12T22:13:42.641Z</time>
      </trkpt>
      <trkpt lat="47.488471" lon="7.818631">
        <ele>516.577337</ele>
        <time>2021-11-12T22:13:42.844Z</time>
      </trkpt>
      <trkpt lat="47.488351" lon="7.819266">
        <ele>514.015280</ele>
        <time>2021-11-12T22:13:47.153Z</time>
      </trkpt>
      <trkpt lat="47.488069" lon="7.819771">
        <ele>511.544537</ele>
        <time>2021-11-12T22:13:51.496Z</time>
      </trkpt>
      <trkpt lat="47.488038" lon="7.819855">
        <ele>511.210549</ele>
        <time>2021-11-12T22:13:52.136Z</time>
      </trkpt>
      <trkpt lat="47.488034" lon="7.819897">
        <ele>511.062539</ele>
        <time>2021-11-12T22:13:52.616Z</time>
      </trkpt>
      <trkpt lat="47.488272" lon="7.820957">
        <ele>507.164774</ele>
        <time>2021-11-12T22:14:00.383Z</time>
      </trkpt>
      <trkpt lat="47.488407" lon="7.821368">
        <ele>505.570115</ele>
        <time>2021-11-12T22:14:03.201Z</time>
      </trkpt>
      <trkpt lat="47.488631" lon="7.821707">
        <ele>503.915600</ele>
        <time>2021-11-12T22:14:06.079Z</time>
      </trkpt>
      <trkpt lat="47.489169" lon="7.822169">
        <ele>498.134168</ele>
        <time>2021-11-12T22:14:11.557Z</time>
      </trkpt>
      <trkpt lat="47.489263" lon="7.822249">
        <ele>496.923781</ele>
        <time>2021-11-12T22:14:12.476Z</time>
      </trkpt>
      <trkpt lat="47.489383" lon="7.822351">
        <ele>495.379085</ele>
        <time>2021-11-12T22:14:13.695Z</time>
      </trkpt>
      <trkpt lat="47.489514" lon="7.822403">
        <ele>493.865141</ele>
        <time>2021-11-12T22:14:14.830Z</time>
      </trkpt>
      <trkpt lat="47.489808" lon="7.822489">
        <ele>490.519943</ele>
        <time>2021-11-12T22:14:17.377Z</time>
      </trkpt>
      <trkpt lat="47.490467" lon="7.822385">
        <ele>483.122305</ele>
        <time>2021-11-12T22:14:22.953Z</time>
      </trkpt>
      <trkpt lat="47.490703" lon="7.822453">
        <ele>480.175561</ele>
        <time>2021-11-12T22:14:24.950Z</time>
      </trkpt>
      <trkpt lat="47.491130" lon="7.822694">
        <ele>474.515454</ele>
        <time>2021-11-12T22:14:28.751Z</time>
      </trkpt>
      <trkpt lat="47.492112" lon="7.823401">
        <ele>460.990177</ele>
        <time>2021-11-12T22:14:38.024Z</time>
      </trkpt>
      <trkpt lat="47.492353" lon="7.823575">
        <ele>458.534171</ele>
        <time>2021-11-12T22:14:40.300Z</time>
      </trkpt>
      <trkpt lat="47.492649" lon="7.823801">
        <ele>455.642751</ele>
        <time>2021-11-12T22:14:43.169Z</time>
      </trkpt>
      <trkpt lat="47.492910" lon="7.823929">
        <ele>453.255813</ele>
        <time>2021-11-12T22:14:45.562Z</time>
      </trkpt>
      <trkpt lat="47.493041" lon="7.823859">
        <ele>452.046730</ele>
        <time>2021-11-12T22:14:46.794Z</time>
      </trkpt>
      <trkpt lat="47.493084" lon="7.823708">
        <ele>451.085564</ele>
        <time>2021-11-12T22:14:47.812Z</time>
      </trkpt>
      <trkpt lat="47.493025" lon="7.823293">
        <ele>448.598009</ele>
        <time>2021-11-12T22:14:50.325Z</time>
      </trkpt>
      <trkpt lat="47.493047" lon="7.823163">
        <ele>447.811918</ele>
        <time>2021-11-12T22:14:51.154Z</time>
      </trkpt>
      <trkpt lat="47.493066" lon="7.823134">
        <ele>447.574976</ele>
        <time>2021-11-12T22:14:51.403Z</time>
      </trkpt>
      <trkpt lat="47.493081" lon="7.823112">
        <ele>447.391648</ele>
        <time>2021-11-12T22:14:51.574Z</time>
      </trkpt>
      <trkpt lat="47.493228" lon="7.823059">
        <ele>446.078198</ele>
        <time>2021-11-12T22:14:52.914Z</time>
      </trkpt>
      <trkpt lat="47.493316" lon="7.823106">
        <ele>445.266036</ele>
        <time>2021-11-12T22:14:53.828Z</time>
      </trkpt>
      <trkpt lat="47.493409" lon="7.823156">
        <ele>444.698365</ele>
        <time>2021-11-12T22:14:54.771Z</time>
      </trkpt>
      <trkpt lat="47.493592" lon="7.823360">
        <ele>443.781798</ele>
        <time>2021-11-12T22:14:56.874Z</time>
      </trkpt>
      <trkpt lat="47.493696" lon="7.823573">
        <ele>443.071428</ele>
        <time>2021-11-12T22:14:58.505Z</time>
      </trkpt>
      <trkpt lat="47.493699" lon="7.823782">
        <ele>442.506344</ele>
        <time>2021-11-12T22:14:59.887Z</time>
      </trkpt>
      <trkpt lat="47.493509" lon="7.824560">
        <ele>440.270141</ele>
        <time>2021-11-12T22:15:05.186Z</time>
      </trkpt>
      <trkpt lat="47.493537" lon="7.824674">
        <ele>439.942253</ele>
        <time>2021-11-12T22:15:05.967Z</time>
      </trkpt>
      <trkpt lat="47.493647" lon="7.824596">
        <ele>439.454277</ele>
        <time>2021-11-12T22:15:07.228Z</time>
      </trkpt>
      <trkpt lat="47.493875" lon="7.824391">
        <ele>438.386991</ele>
        <time>2021-11-12T22:15:10.401Z</time>
      </trkpt>
      <trkpt lat="47.493969" lon="7.824265">
        <ele>437.879617</ele>
        <time>2021-11-12T22:15:11.831Z</time>
      </trkpt>
      <trkpt lat="47.494072" lon="7.824126">
        <ele>437.778847</ele>
        <time>2021-11-12T22:15:14.247Z</time>
      </trkpt>
      <trkpt lat="47.494316" lon="7.823809">
        <ele>437.861336</ele>
        <time>2021-11-12T22:15:19.110Z</time>
      </trkpt>
      <trkpt lat="47.494522" lon="7.823673">
        <ele>437.918644</ele>
        <time>2021-11-12T22:15:21.966Z</time>
      </trkpt>
      <trkpt lat="47.494652" lon="7.823597">
        <ele>437.954157</ele>
        <time>2021-11-12T22:15:25.401Z</time>
      </trkpt>
      <trkpt lat="47.494910" lon="7.823403">
        <ele>438.027681</ele>
        <time>2021-11-12T22:15:29.876Z</time>
      </trkpt>
      <trkpt lat="47.494984" lon="7.823371">
        <ele>438.047268</ele>
        <time>2021-11-12T22:15:31.955Z</time>
      </trkpt>
      <trkpt lat="47.495379" lon="7.823313">
        <ele>438.148117</ele>
        <time>2021-11-12T22:15:38.993Z</time>
      </trkpt>
      <trkpt lat="47.495577" lon="7.823253">
        <ele>438.199466</ele>
        <time>2021-11-12T22:15:42.387Z</time>
      </trkpt>
      <trkpt lat="47.495873" lon="7.823177">
        <ele>437.936395</ele>
        <time>2021-11-12T22:15:47.485Z</time>
      </trkpt>
      <trkpt lat="47.496106" lon="7.823142">
        <ele>437.695609</ele>
        <time>2021-11-12T22:15:51.788Z</time>
      </trkpt>
      <trkpt lat="47.496254" lon="7.823140">
        <ele>437.543438</ele>
        <time>2021-11-12T22:15:54.400Z</time>
      </trkpt>
      <trkpt lat="47.496320" lon="7.823139">
        <ele>437.475578</ele>
        <time>2021-11-12T22:15:55.313Z</time>
      </trkpt>
      <trkpt lat="47.496375" lon="7.823140">
        <ele>437.419026</ele>
        <time>2021-11-12T22:15:56.211Z</time>
      </trkpt>
      <trkpt lat="47.496704" lon="7.823163">
        <ele>437.080392</ele>
        <time>2021-11-12T22:16:00.485Z</time>
      </trkpt>
      <trkpt lat="47.496927" lon="7.823151">
        <ele>436.850967</ele>
        <time>2021-11-12T22:16:02.972Z</time>
      </trkpt>
      <trkpt lat="47.497246" lon="7.823247">
        <ele>436.516281</ele>
        <time>2021-11-12T22:16:06.348Z</time>
      </trkpt>
      <trkpt lat="47.498162" lon="7.823883">
        <ele>432.239283</ele>
        <time>2021-11-12T22:16:16.372Z</time>
      </trkpt>
      <trkpt lat="47.498343" lon="7.824061">
        <ele>431.197110</ele>
        <time>2021-11-12T22:16:18.429Z</time>
      </trkpt>
      <trkpt lat="47.498586" lon="7.824227">
        <ele>429.913598</ele>
        <time>2021-11-12T22:16:20.987Z</time>
      </trkpt>
      <trkpt lat="47.499488" lon="7.824926">
        <ele>423.196246</ele>
        <time>2021-11-12T22:16:30.115Z</time>
      </trkpt>
      <trkpt lat="47.499602" lon="7.824975">
        <ele>422.240491</ele>
        <time>2021-11-12T22:16:31.156Z</time>
      </trkpt>
      <trkpt lat="47.499714" lon="7.825011">
        <ele>421.317737</ele>
        <time>2021-11-12T22:16:32.140Z</time>
      </trkpt>
      <trkpt lat="47.500062" lon="7.825087">
        <ele>418.485579</ele>
        <time>2021-11-12T22:16:35.234Z</time>
      </trkpt>
      <trkpt lat="47.500269" lon="7.825147">
        <ele>416.787322</ele>
        <time>2021-11-12T22:16:37.126Z</time>
      </trkpt>
      <trkpt lat="47.500385" lon="7.825189">
        <ele>415.825846</ele>
        <time>2021-11-12T22:16:38.149Z</time>
      </trkpt>
      <trkpt lat="47.501557" lon="7.825705">
        <ele>407.106437</ele>
        <time>2021-11-12T22:16:48.858Z</time>
      </trkpt>
      <trkpt lat="47.502825" lon="7.825809">
        <ele>400.034309</ele>
        <time>2021-11-12T22:17:00.767Z</time>
      </trkpt>
      <trkpt lat="47.503143" lon="7.825808">
        <ele>399.203991</ele>
        <time>2021-11-12T22:17:03.996Z</time>
      </trkpt>
      <trkpt lat="47.503195" lon="7.825807">
        <ele>399.068204</ele>
        <time>2021-11-12T22:17:04.564Z</time>
      </trkpt>
      <trkpt lat="47.503225" lon="7.825809">
        <ele>398.989793</ele>
        <time>2021-11-12T22:17:04.897Z</time>
      </trkpt>
      <trkpt lat="47.503509" lon="7.825771">
        <ele>398.245230</ele>
        <time>2021-11-12T22:17:07.917Z</time>
      </trkpt>
      <trkpt lat="47.503860" lon="7.825735">
        <ele>397.326551</ele>
        <time>2021-11-12T22:17:11.849Z</time>
      </trkpt>
      <trkpt lat="47.504813" lon="7.825703">
        <ele>396.311162</ele>
        <time>2021-11-12T22:17:24.457Z</time>
      </trkpt>
      <trkpt lat="47.506147" lon="7.825028">
        <ele>396.138996</ele>
        <time>2021-11-12T22:17:47.552Z</time>
      </trkpt>
      <trkpt lat="47.507017" lon="7.824678">
        <ele>395.310293</ele>
        <time>2021-11-12T22:18:01.129Z</time>
      </trkpt>
      <trkpt lat="47.507990" lon="7.824326">
        <ele>393.214258</ele>
        <time>2021-11-12T22:18:11.912Z</time>
      </trkpt>
      <trkpt lat="47.508288" lon="7.824180">
        <ele>391.615975</ele>
        <time>2021-11-12T22:18:14.993Z</time>
      </trkpt>
      <trkpt lat="47.509075" lon="7.823456">
        <ele>386.898077</ele>
        <time>2021-11-12T22:18:23.520Z</time>
      </trkpt>
      <trkpt lat="47.509744" lon="7.823275">
        <ele>383.131613</ele>
        <time>2021-11-12T22:18:29.596Z</time>
      </trkpt>
      <trkpt lat="47.510203" lon="7.823212">
        <ele>380.437642</ele>
        <time>2021-11-12T22:18:33.815Z</time>
      </trkpt>
      <trkpt lat="47.510706" lon="7.823221">
        <ele>377.497817</ele>
        <time>2021-11-12T22:18:38.457Z</time>
      </trkpt>
      <trkpt lat="47.511863" lon="7.823271">
        <ele>372.979360</ele>
        <time>2021-11-12T22:18:49.500Z</time>
      </trkpt>
      <trkpt lat="47.512067" lon="7.823229">
        <ele>372.412506</ele>
        <time>2021-11-12T22:18:51.715Z</time>
      </trkpt>
      <trkpt lat="47.512263" lon="7.823167">
        <ele>371.860897</ele>
        <time>2021-11-12T22:18:53.849Z</time>
      </trkpt>
      <trkpt lat="47.512648" lon="7.822935">
        <ele>370.716891</ele>
        <time>2021-11-12T22:18:58.676Z</time>
      </trkpt>
      <trkpt lat="47.513483" lon="7.822231">
        <ele>369.250783</ele>
        <time>2021-11-12T22:19:11.685Z</time>
      </trkpt>
      <trkpt lat="47.514302" lon="7.821660">
        <ele>368.260319</ele>
        <time>2021-11-12T22:19:23.171Z</time>
      </trkpt>
      <trkpt lat="47.514708" lon="7.821376">
        <ele>366.984280</ele>
        <time>2021-11-12T22:19:27.819Z</time>
      </trkpt>
      <trkpt lat="47.514821" lon="7.821292">
        <ele>366.473463</ele>
        <time>2021-11-12T22:19:29.153Z</time>
      </trkpt>
      <trkpt lat="47.515036" lon="7.821090">
        <ele>365.444766</ele>
        <time>2021-11-12T22:19:31.665Z</time>
      </trkpt>
      <trkpt lat="47.515202" lon="7.820909">
        <ele>364.611914</ele>
        <time>2021-11-12T22:19:33.739Z</time>
      </trkpt>
      <trkpt lat="47.515268" lon="7.820836">
        <ele>364.279096</ele>
        <time>2021-11-12T22:19:34.490Z</time>
      </trkpt>
      <trkpt lat="47.515469" lon="7.820644">
        <ele>363.312749</ele>
        <time>2021-11-12T22:19:36.863Z</time>
      </trkpt>
      <trkpt lat="47.515587" lon="7.820532">
        <ele>362.746498</ele>
        <time>2021-11-12T22:19:38.144Z</time>
      </trkpt>
      <trkpt lat="47.516786" lon="7.819655">
        <ele>357.425796</ele>
        <time>2021-11-12T22:19:50.600Z</time>
      </trkpt>
      <trkpt lat="47.517657" lon="7.818442">
        <ele>353.195862</ele>
        <time>2021-11-12T22:20:03.019Z</time>
      </trkpt>
      <trkpt lat="47.518035" lon="7.818005">
        <ele>352.232427</ele>
        <time>2021-11-12T22:20:08.410Z</time>
      </trkpt>
      <trkpt lat="47.518220" lon="7.817823">
        <ele>351.786216</ele>
        <time>2021-11-12T22:20:10.943Z</time>
      </trkpt>
      <trkpt lat="47.518481" lon="7.817598">
        <ele>351.179487</ele>
        <time>2021-11-12T22:20:14.393Z</time>
      </trkpt>
      <trkpt lat="47.518941" lon="7.817228">
        <ele>350.127822</ele>
        <time>2021-11-12T22:20:20.189Z</time>
      </trkpt>
      <trkpt lat="47.519453" lon="7.816861">
        <ele>348.650713</ele>
        <time>2021-11-12T22:20:26.380Z</time>
      </trkpt>
      <trkpt lat="47.519807" lon="7.816661">
        <ele>347.658584</ele>
        <time>2021-11-12T22:20:30.316Z</time>
      </trkpt>
      <trkpt lat="47.519959" lon="7.816575">
        <ele>347.232506</ele>
        <time>2021-11-12T22:20:32.050Z</time>
      </trkpt>
      <trkpt lat="47.520002" lon="7.816556">
        <ele>347.115005</ele>
        <time>2021-11-12T22:20:32.494Z</time>
      </trkpt>
      <trkpt lat="47.520578" lon="7.816306">
        <ele>345.543292</ele>
        <time>2021-11-12T22:20:38.620Z</time>
      </trkpt>
      <trkpt lat="47.521028" lon="7.816163">
        <ele>344.279165</ele>
        <time>2021-11-12T22:20:43.346Z</time>
      </trkpt>
      <trkpt lat="47.521087" lon="7.816144">
        <ele>344.112089</ele>
        <time>2021-11-12T22:20:43.906Z</time>
      </trkpt>
      <trkpt lat="47.521199" lon="7.816108">
        <ele>343.794955</ele>
        <time>2021-11-12T22:20:45.109Z</time>
      </trkpt>
      <trkpt lat="47.521383" lon="7.816075">
        <ele>343.282085</ele>
        <time>2021-11-12T22:20:47.075Z</time>
      </trkpt>
      <trkpt lat="47.521699" lon="7.816019">
        <ele>342.401438</ele>
        <time>2021-11-12T22:20:50.362Z</time>
      </trkpt>
      <trkpt lat="47.521870" lon="7.815989">
        <ele>341.924952</ele>
        <time>2021-11-12T22:20:52.117Z</time>
      </trkpt>
      <trkpt lat="47.522090" lon="7.815952">
        <ele>341.312273</ele>
        <time>2021-11-12T22:20:54.606Z</time>
      </trkpt>
      <trkpt lat="47.523608" lon="7.815695">
        <ele>337.292941</ele>
        <time>2021-11-12T22:21:10.671Z</time>
      </trkpt>
      <trkpt lat="47.523730" lon="7.815653">
        <ele>336.968145</ele>
        <time>2021-11-12T22:21:11.983Z</time>
      </trkpt>
      <trkpt lat="47.523757" lon="7.815629">
        <ele>336.886487</ele>
        <time>2021-11-12T22:21:12.266Z</time>
      </trkpt>
      <trkpt lat="47.523836" lon="7.814923">
        <ele>335.645531</ele>
        <time>2021-11-12T22:21:17.499Z</time>
      </trkpt>
      <trkpt lat="47.523994" lon="7.814691">
        <ele>335.136872</ele>
        <time>2021-11-12T22:21:19.787Z</time>
      </trkpt>
      <trkpt lat="47.524032" lon="7.814643">
        <ele>335.022691</ele>
        <time>2021-11-12T22:21:20.298Z</time>
      </trkpt>
      <trkpt lat="47.524286" lon="7.814362">
        <ele>334.297888</ele>
        <time>2021-11-12T22:21:23.631Z</time>
      </trkpt>
      <trkpt lat="47.524601" lon="7.814100">
        <ele>333.471967</ele>
        <time>2021-11-12T22:21:27.406Z</time>
      </trkpt>
      <trkpt lat="47.524645" lon="7.814069">
        <ele>333.360577</ele>
        <time>2021-11-12T22:21:27.931Z</time>
      </trkpt>
      <trkpt lat="47.524963" lon="7.813836">
        <ele>332.549492</ele>
        <time>2021-11-12T22:21:31.868Z</time>
      </trkpt>
      <trkpt lat="47.524982" lon="7.813822">
        <ele>332.500977</ele>
        <time>2021-11-12T22:21:32.108Z</time>
      </trkpt>
      <trkpt lat="47.525103" lon="7.813754">
        <ele>332.205115</ele>
        <time>2021-11-12T22:21:33.594Z</time>
      </trkpt>
      <trkpt lat="47.525265" lon="7.813766">
        <ele>331.834309</ele>
        <time>2021-11-12T22:21:35.313Z</time>
      </trkpt>
      <trkpt lat="47.525640" lon="7.813941">
        <ele>331.143657</ele>
        <time>2021-11-12T22:21:39.764Z</time>
      </trkpt>
      <trkpt lat="47.525829" lon="7.814027">
        <ele>330.828262</ele>
        <time>2021-11-12T22:21:42.002Z</time>
      </trkpt>
      <trkpt lat="47.525874" lon="7.814072">
        <ele>330.741647</ele>
        <time>2021-11-12T22:21:42.611Z</time>
      </trkpt>
      <trkpt lat="47.526135" lon="7.814494">
        <ele>330.125243</ele>
        <time>2021-11-12T22:21:46.947Z</time>
      </trkpt>
      <trkpt lat="47.526394" lon="7.814809">
        <ele>329.590629</ele>
        <time>2021-11-12T22:21:50.749Z</time>
      </trkpt>
      <trkpt lat="47.526478" lon="7.814853">
        <ele>329.448501</ele>
        <time>2021-11-12T22:21:51.806Z</time>
      </trkpt>
      <trkpt lat="47.526579" lon="7.814859">
        <ele>329.287260</ele>
        <time>2021-11-12T22:21:53.075Z</time>
      </trkpt>
      <trkpt lat="47.526655" lon="7.814822">
        <ele>329.159646</ele>
        <time>2021-11-12T22:21:54.006Z</time>
      </trkpt>
      <trkpt lat="47.526652" lon="7.814787">
        <ele>329.121644</ele>
        <time>2021-11-12T22:21:54.233Z</time>
      </trkpt>
      <trkpt lat="47.526961" lon="7.813898">
        <ele>328.210381</ele>
        <time>2021-11-12T22:22:02.247Z</time>
      </trkpt>
      <trkpt lat="47.526991" lon="7.813710">
        <ele>328.050835</ele>
        <time>2021-11-12T22:22:03.674Z</time>
      </trkpt>
      <trkpt lat="47.527017" lon="7.813562">
        <ele>327.924533</ele>
        <time>2021-11-12T22:22:07.335Z</time>
      </trkpt>
      <trkpt lat="47.527029" lon="7.813504">
        <ele>327.874433</ele>
        <time>2021-11-12T22:22:08.813Z</time>
      </trkpt>
      <trkpt lat="47.527062" lon="7.813419">
        <ele>327.793455</ele>
        <time>2021-11-12T22:22:11.117Z</time>
      </trkpt>
      <trkpt lat="47.527100" lon="7.813322">
        <ele>327.700836</ele>
        <time>2021-11-12T22:22:13.470Z</time>
      </trkpt>
      <trkpt lat="47.527132" lon="7.813271">
        <ele>327.643338</ele>
        <time>2021-11-12T22:22:14.940Z</time>
      </trkpt>
      <trkpt lat="47.527198" lon="7.813192">
        <ele>327.539542</ele>
        <time>2021-11-12T22:22:17.765Z</time>
      </trkpt>
      <trkpt lat="47.527245" lon="7.813136">
        <ele>327.465760</ele>
        <time>2021-11-12T22:22:19.831Z</time>
      </trkpt>
      <trkpt lat="47.527344" lon="7.813003">
        <ele>327.302272</ele>
        <time>2021-11-12T22:22:24.438Z</time>
      </trkpt>
      <trkpt lat="47.527405" lon="7.812921">
        <ele>327.201510</ele>
        <time>2021-11-12T22:22:26.969Z</time>
      </trkpt>
      <trkpt lat="47.527523" lon="7.812743">
        <ele>326.995495</ele>
        <time>2021-11-12T22:22:32.734Z</time>
      </trkpt>
      <trkpt lat="47.527551" lon="7.812698">
        <ele>326.944956</ele>
        <time>2021-11-12T22:22:34.209Z</time>
      </trkpt>
      <trkpt lat="47.527992" lon="7.811882">
        <ele>326.130698</ele>
        <time>2021-11-12T22:22:57.713Z</time>
      </trkpt>
      <trkpt lat="47.528071" lon="7.811726">
        <ele>325.986300</ele>
        <time>2021-11-12T22:23:02.271Z</time>
      </trkpt>
      <trkpt lat="47.528166" lon="7.811494">
        <ele>325.785380</ele>
        <time>2021-11-12T22:23:08.372Z</time>
      </trkpt>
      <trkpt lat="47.528485" lon="7.810633">
        <ele>325.058132</ele>
        <time>2021-11-12T22:23:30.710Z</time>
      </trkpt>
      <trkpt lat="47.528551" lon="7.810479">
        <ele>324.923064</ele>
        <time>2021-11-12T22:23:34.664Z</time>
      </trkpt>
      <trkpt lat="47.528632" lon="7.810311">
        <ele>324.770200</ele>
        <time>2021-11-12T22:23:39.506Z</time>
      </trkpt>
      <trkpt lat="47.528791" lon="7.810026">
        <ele>324.561348</ele>
        <time>2021-11-12T22:23:42.382Z</time>
      </trkpt>
      <trkpt lat="47.529039" lon="7.809593">
        <ele>324.457280</ele>
        <time>2021-11-12T22:23:46.998Z</time>
      </trkpt>
      <trkpt lat="47.529100" lon="7.809485">
        <ele>324.431473</ele>
        <time>2021-11-12T22:23:48.293Z</time>
      </trkpt>
      <trkpt lat="47.529208" lon="7.809338">
        <ele>324.391657</ele>
        <time>2021-11-12T22:23:50.086Z</time>
      </trkpt>
      <trkpt lat="47.529208" lon="7.809338">
        <ele>324.391657</ele>
        <time>2021-11-12T22:23:50.090Z</time>
      </trkpt>
      <trkpt lat="47.529208" lon="7.809338">
        <ele>324.391657</ele>
        <time>2021-11-12T22:23:50.100Z</time>
      </trkpt>
      <trkpt lat="47.529274" lon="7.809267">
        <ele>324.369514</ele>
        <time>2021-11-12T22:23:51.179Z</time>
      </trkpt>
      <trkpt lat="47.529336" lon="7.809212">
        <ele>324.349897</ele>
        <time>2021-11-12T22:23:52.569Z</time>
      </trkpt>
      <trkpt lat="47.529513" lon="7.809105">
        <ele>324.298002</ele>
        <time>2021-11-12T22:23:55.043Z</time>
      </trkpt>
      <trkpt lat="47.529594" lon="7.809061">
        <ele>324.274583</ele>
        <time>2021-11-12T22:23:56.168Z</time>
      </trkpt>
      <trkpt lat="47.529966" lon="7.808858">
        <ele>324.166969</ele>
        <time>2021-11-12T22:24:02.737Z</time>
      </trkpt>
      <trkpt lat="47.530041" lon="7.808819">
        <ele>324.145392</ele>
        <time>2021-11-12T22:24:04.302Z</time>
      </trkpt>
      <trkpt lat="47.530543" lon="7.808552">
        <ele>324.250224</ele>
        <time>2021-11-12T22:24:13.061Z</time>
      </trkpt>
      <trkpt lat="47.530585" lon="7.808529">
        <ele>324.270395</ele>
        <time>2021-11-12T22:24:13.811Z</time>
      </trkpt>
      <trkpt lat="47.530684" lon="7.808469">
        <ele>324.318580</ele>
        <time>2021-11-12T22:24:16.066Z</time>
      </trkpt>
      <trkpt lat="47.531066" lon="7.808197">
        <ele>324.509509</ele>
        <time>2021-11-12T22:24:23.580Z</time>
      </trkpt>
      <trkpt lat="47.531380" lon="7.807943">
        <ele>324.670674</ele>
        <time>2021-11-12T22:24:29.884Z</time>
      </trkpt>
      <trkpt lat="47.531735" lon="7.807655">
        <ele>324.853006</ele>
        <time>2021-11-12T22:24:36.246Z</time>
      </trkpt>
      <trkpt lat="47.532412" lon="7.807037">
        <ele>324.468472</ele>
        <time>2021-11-12T22:24:47.676Z</time>
      </trkpt>
      <trkpt lat="47.532581" lon="7.806843">
        <ele>324.331422</ele>
        <time>2021-11-12T22:24:50.513Z</time>
      </trkpt>
      <trkpt lat="47.532546" lon="7.806703">
        <ele>324.266815</ele>
        <time>2021-11-12T22:24:52.175Z</time>
      </trkpt>
      <trkpt lat="47.533091" lon="7.806305">
        <ele>323.877331</ele>
        <time>2021-11-12T22:25:02.610Z</time>
      </trkpt>
      <trkpt lat="47.533669" lon="7.806042">
        <ele>323.501627</ele>
        <time>2021-11-12T22:25:12.781Z</time>
      </trkpt>
      <trkpt lat="47.533723" lon="7.806018">
        <ele>323.467126</ele>
        <time>2021-11-12T22:25:13.695Z</time>
      </trkpt>
      <trkpt lat="47.534648" lon="7.805785">
        <ele>322.892950</ele>
        <time>2021-11-12T22:25:30.993Z</time>
      </trkpt>
      <trkpt lat="47.534894" lon="7.805725">
        <ele>322.740384</ele>
        <time>2021-11-12T22:25:35.692Z</time>
      </trkpt>
      <trkpt lat="47.535092" lon="7.805671">
        <ele>322.663868</ele>
        <time>2021-11-12T22:25:40.082Z</time>
      </trkpt>
      <trkpt lat="47.535828" lon="7.805308">
        <ele>322.841989</ele>
        <time>2021-11-12T22:25:56.214Z</time>
      </trkpt>
      <trkpt lat="47.536875" lon="7.804558">
        <ele>322.973898</ele>
        <time>2021-11-12T22:26:22.146Z</time>
      </trkpt>
      <trkpt lat="47.537755" lon="7.803639">
        <ele>322.477123</ele>
        <time>2021-11-12T22:26:42.285Z</time>
      </trkpt>
      <trkpt lat="47.538164" lon="7.803170">
        <ele>322.238483</ele>
        <time>2021-11-12T22:26:51.431Z</time>
      </trkpt>
      <trkpt lat="47.538256" lon="7.803059">
        <ele>322.118314</ele>
        <time>2021-11-12T22:26:53.270Z</time>
      </trkpt>
      <trkpt lat="47.540006" lon="7.800680">
        <ele>320.493276</ele>
        <time>2021-11-12T22:27:34.163Z</time>
      </trkpt>
      <trkpt lat="47.540192" lon="7.800458">
        <ele>320.550052</ele>
        <time>2021-11-12T22:27:38.710Z</time>
      </trkpt>
      <trkpt lat="47.540260" lon="7.800353">
        <ele>320.573400</ele>
        <time>2021-11-12T22:27:41.775Z</time>
      </trkpt>
      <trkpt lat="47.540644" lon="7.800163">
        <ele>320.669631</ele>
        <time>2021-11-12T22:27:51.570Z</time>
      </trkpt>
      <trkpt lat="47.540897" lon="7.800171">
        <ele>320.729781</ele>
        <time>2021-11-12T22:27:57.737Z</time>
      </trkpt>
      <trkpt lat="47.541705" lon="7.800028">
        <ele>321.011995</ele>
        <time>2021-11-12T22:28:19.510Z</time>
      </trkpt>
      <trkpt lat="47.542307" lon="7.799830">
        <ele>321.237212</ele>
        <time>2021-11-12T22:28:34.483Z</time>
      </trkpt>
      <trkpt lat="47.542998" lon="7.799859">
        <ele>320.503895</ele>
        <time>2021-11-12T22:28:46.712Z</time>
      </trkpt>
      <trkpt lat="47.544071" lon="7.799629">
        <ele>315.700335</ele>
        <time>2021-11-12T22:29:01.634Z</time>
      </trkpt>
      <trkpt lat="47.544184" lon="7.799620">
        <ele>315.198952</ele>
        <time>2021-11-12T22:29:03.023Z</time>
      </trkpt>
      <trkpt lat="47.544345" lon="7.799570">
        <ele>314.470117</ele>
        <time>2021-11-12T22:29:05.223Z</time>
      </trkpt>
      <trkpt lat="47.544568" lon="7.799371">
        <ele>313.284756</ele>
        <time>2021-11-12T22:29:08.576Z</time>
      </trkpt>
      <trkpt lat="47.544744" lon="7.799388">
        <ele>312.309656</ele>
        <time>2021-11-12T22:29:10.962Z</time>
      </trkpt>
      <trkpt lat="47.544749" lon="7.799388">
        <ele>312.282013</ele>
        <time>2021-11-12T22:29:11.020Z</time>
      </trkpt>
      <trkpt lat="47.544827" lon="7.799356">
        <ele>311.834551</ele>
        <time>2021-11-12T22:29:12.002Z</time>
      </trkpt>
      <trkpt lat="47.545096" lon="7.799250">
        <ele>310.295646</ele>
        <time>2021-11-12T22:29:15.722Z</time>
      </trkpt>
      <trkpt lat="47.545182" lon="7.799205">
        <ele>309.791400</ele>
        <time>2021-11-12T22:29:16.819Z</time>
      </trkpt>
      <trkpt lat="47.545396" lon="7.798977">
        <ele>308.334094</ele>
        <time>2021-11-12T22:29:20.370Z</time>
      </trkpt>
      <trkpt lat="47.545449" lon="7.798705">
        <ele>307.277588</ele>
        <time>2021-11-12T22:29:22.766Z</time>
      </trkpt>
      <trkpt lat="47.545511" lon="7.798680">
        <ele>306.922344</ele>
        <time>2021-11-12T22:29:23.600Z</time>
      </trkpt>
      <trkpt lat="47.545581" lon="7.798713">
        <ele>306.516220</ele>
        <time>2021-11-12T22:29:24.643Z</time>
      </trkpt>
      <trkpt lat="47.545731" lon="7.798810">
        <ele>305.611368</ele>
        <time>2021-11-12T22:29:26.842Z</time>
      </trkpt>
      <trkpt lat="47.545807" lon="7.798846">
        <ele>305.170239</ele>
        <time>2021-11-12T22:29:27.951Z</time>
      </trkpt>
      <trkpt lat="47.546418" lon="7.798980">
        <ele>302.969812</ele>
        <time>2021-11-12T22:29:36.796Z</time>
      </trkpt>
      <trkpt lat="47.547540" lon="7.799538">
        <ele>300.977266</ele>
        <time>2021-11-12T22:29:56.520Z</time>
      </trkpt>
      <trkpt lat="47.547912" lon="7.799646">
        <ele>300.461243</ele>
        <time>2021-11-12T22:30:03.900Z</time>
      </trkpt>
      <trkpt lat="47.548459" lon="7.799691">
        <ele>300.377792</ele>
        <time>2021-11-12T22:30:14.839Z</time>
      </trkpt>
      <trkpt lat="47.548535" lon="7.799720">
        <ele>300.365838</ele>
        <time>2021-11-12T22:30:16.358Z</time>
      </trkpt>
      <trkpt lat="47.548514" lon="7.799795">
        <ele>300.357489</ele>
        <time>2021-11-12T22:30:17.422Z</time>
      </trkpt>
      <trkpt lat="47.548519" lon="7.799896">
        <ele>300.347077</ele>
        <time>2021-11-12T22:30:18.777Z</time>
      </trkpt>
      <trkpt lat="47.548542" lon="7.800346">
        <ele>300.300678</ele>
        <time>2021-11-12T22:30:24.788Z</time>
      </trkpt>
      <trkpt lat="47.548545" lon="7.800404">
        <ele>300.294697</ele>
        <time>2021-11-12T22:30:25.568Z</time>
      </trkpt>
      <trkpt lat="47.548560" lon="7.800672">
        <ele>300.267048</ele>
        <time>2021-11-12T22:30:29.260Z</time>
      </trkpt>
      <trkpt lat="47.548569" lon="7.800838">
        <ele>300.249926</ele>
        <time>2021-11-12T22:30:31.504Z</time>
      </trkpt>
      <trkpt lat="47.548576" lon="7.800968">
        <ele>300.236517</ele>
        <time>2021-11-12T22:30:33.280Z</time>
      </trkpt>
      <trkpt lat="47.548596" lon="7.801213">
        <ele>300.211144</ele>
        <time>2021-11-12T22:30:36.659Z</time>
      </trkpt>
      <trkpt lat="47.548607" lon="7.801690">
        <ele>300.155372</ele>
        <time>2021-11-12T22:30:43.159Z</time>
      </trkpt>
      <trkpt lat="47.548626" lon="7.802129">
        <ele>300.102029</ele>
        <time>2021-11-12T22:30:49.078Z</time>
      </trkpt>
      <trkpt lat="47.548877" lon="7.802168">
        <ele>300.056687</ele>
        <time>2021-11-12T22:30:54.079Z</time>
      </trkpt>
      <trkpt lat="47.549410" lon="7.802226">
        <ele>299.960672</ele>
        <time>2021-11-12T22:31:04.501Z</time>
      </trkpt>
      <trkpt lat="47.549481" lon="7.802234">
        <ele>299.947879</ele>
        <time>2021-11-12T22:31:05.836Z</time>
      </trkpt>
      <trkpt lat="47.549879" lon="7.802247">
        <ele>299.876358</ele>
        <time>2021-11-12T22:31:13.301Z</time>
      </trkpt>
      <trkpt lat="47.550146" lon="7.802262">
        <ele>299.782814</ele>
        <time>2021-11-12T22:31:18.378Z</time>
      </trkpt>
      <trkpt lat="47.550139" lon="7.802758">
        <ele>299.665486</ele>
        <time>2021-11-12T22:31:24.821Z</time>
      </trkpt>
      <trkpt lat="47.550134" lon="7.803051">
        <ele>299.596171</ele>
        <time>2021-11-12T22:31:28.597Z</time>
      </trkpt>
      <trkpt lat="47.550196" lon="7.803120">
        <ele>299.569000</ele>
        <time>2021-11-12T22:31:30.059Z</time>
      </trkpt>
      <trkpt lat="47.550981" lon="7.803132">
        <ele>299.293926</ele>
        <time>2021-11-12T22:31:44.708Z</time>
      </trkpt>
      <trkpt lat="47.551163" lon="7.803129">
        <ele>299.269310</ele>
        <time>2021-11-12T22:31:48.107Z</time>
      </trkpt>
      <trkpt lat="47.551598" lon="7.803160">
        <ele>299.492737</ele>
        <time>2021-11-12T22:31:56.685Z</time>
      </trkpt>
      <trkpt lat="47.551666" lon="7.803144">
        <ele>299.528060</ele>
        <time>2021-11-12T22:32:01.429Z</time>
      </trkpt>
      <trkpt lat="47.551732" lon="7.803125">
        <ele>299.562553</ele>
        <time>2021-11-12T22:32:06.096Z</time>
      </trkpt>
      <trkpt lat="47.551744" lon="7.803277">
        <ele>299.615544</ele>
        <time>2021-11-12T22:32:07.809Z</time>
      </trkpt>
      <trkpt lat="47.551751" lon="7.803369">
        <ele>299.647601</ele>
        <time>2021-11-12T22:32:08.904Z</time>
      </trkpt>
      <trkpt lat="47.551692" lon="7.803510">
        <ele>299.705045</ele>
        <time>2021-11-12T22:32:11.481Z</time>
      </trkpt>
      <trkpt lat="47.551741" lon="7.804294">
        <ele>299.977673</ele>
        <time>2021-11-12T22:32:24.489Z</time>
      </trkpt>
      <trkpt lat="47.551744" lon="7.804473">
        <ele>300.039672</ele>
        <time>2021-11-12T22:32:27.038Z</time>
      </trkpt>
      <trkpt lat="47.551731" lon="7.804667">
        <ele>300.107177</ele>
        <time>2021-11-12T22:32:30.980Z</time>
      </trkpt>
      <trkpt lat="47.551709" lon="7.805000">
        <ele>300.220573</ele>
        <time>2021-11-12T22:32:35.508Z</time>
      </trkpt>
      <trkpt lat="47.551694" lon="7.805265">
        <ele>300.308479</ele>
        <time>2021-11-12T22:32:40.359Z</time>
      </trkpt>
      <trkpt lat="47.551681" lon="7.805477">
        <ele>300.378847</ele>
        <time>2021-11-12T22:32:43.245Z</time>
      </trkpt>
      <trkpt lat="47.551671" lon="7.806117">
        <ele>300.590462</ele>
        <time>2021-11-12T22:32:53.324Z</time>
      </trkpt>
      <trkpt lat="47.551651" lon="7.806246">
        <ele>300.634214</ele>
        <time>2021-11-12T22:32:56.201Z</time>
      </trkpt>
      <trkpt lat="47.551895" lon="7.806278">
        <ele>300.754186</ele>
        <time>2021-11-12T22:32:59.756Z</time>
      </trkpt>
      <trkpt lat="47.552015" lon="7.806307">
        <ele>300.813736</ele>
        <time>2021-11-12T22:33:02.592Z</time>
      </trkpt>
      <trkpt lat="47.552068" lon="7.806445">
        <ele>300.866221</ele>
        <time>2021-11-12T22:33:04.054Z</time>
      </trkpt>
      <trkpt lat="47.552398" lon="7.808880">
        <ele>300.366745</ele>
        <time>2021-11-12T22:33:26.215Z</time>
      </trkpt>
      <trkpt lat="47.552566" lon="7.810386">
        <ele>299.748349</ele>
        <time>2021-11-12T22:33:39.226Z</time>
      </trkpt>
      <trkpt lat="47.552711" lon="7.812955">
        <ele>298.597685</ele>
        <time>2021-11-12T22:34:01.835Z</time>
      </trkpt>
      <trkpt lat="47.552844" lon="7.816432">
        <ele>297.494949</ele>
        <time>2021-11-12T22:34:32.328Z</time>
      </trkpt>
      <trkpt lat="47.552948" lon="7.819358">
        <ele>297.816845</ele>
        <time>2021-11-12T22:35:03.558Z</time>
      </trkpt>
      <trkpt lat="47.552896" lon="7.820699">
        <ele>298.310975</ele>
        <time>2021-11-12T22:35:19.642Z</time>
      </trkpt>
      <trkpt lat="47.552567" lon="7.824508">
        <ele>300.192487</ele>
        <time>2021-11-12T22:36:06.048Z</time>
      </trkpt>
      <trkpt lat="47.552511" lon="7.826514">
        <ele>301.272021</ele>
        <time>2021-11-12T22:36:29.127Z</time>
      </trkpt>
      <trkpt lat="47.552491" lon="7.827227">
        <ele>301.717264</ele>
        <time>2021-11-12T22:36:37.788Z</time>
      </trkpt>
      <trkpt lat="47.552515" lon="7.828094">
        <ele>302.258662</ele>
        <time>2021-11-12T22:36:49.512Z</time>
      </trkpt>
      <trkpt lat="47.552477" lon="7.828294">
        <ele>302.474286</ele>
        <time>2021-11-12T22:36:52.143Z</time>
      </trkpt>
      <trkpt lat="47.552421" lon="7.828481">
        <ele>302.768560</ele>
        <time>2021-11-12T22:36:55.080Z</time>
      </trkpt>
      <trkpt lat="47.552404" lon="7.828582">
        <ele>302.918291</ele>
        <time>2021-11-12T22:36:56.768Z</time>
      </trkpt>
      <trkpt lat="47.552416" lon="7.828822">
        <ele>303.264458</ele>
        <time>2021-11-12T22:37:00.020Z</time>
      </trkpt>
      <trkpt lat="47.552554" lon="7.829266">
        <ele>303.967585</ele>
        <time>2021-11-12T22:37:07.394Z</time>
      </trkpt>
      <trkpt lat="47.552645" lon="7.830686">
        <ele>306.019322</ele>
        <time>2021-11-12T22:37:30.700Z</time>
      </trkpt>
      <trkpt lat="47.552690" lon="7.832598">
        <ele>309.825989</ele>
        <time>2021-11-12T22:38:06.177Z</time>
      </trkpt>
      <trkpt lat="47.552616" lon="7.832891">
        <ele>310.457461</ele>
        <time>2021-11-12T22:38:11.541Z</time>
      </trkpt>
      <trkpt lat="47.552556" lon="7.832977">
        <ele>310.707130</ele>
        <time>2021-11-12T22:38:14.273Z</time>
      </trkpt>
      <trkpt lat="47.552511" lon="7.833072">
        <ele>310.941402</ele>
        <time>2021-11-12T22:38:16.298Z</time>
      </trkpt>
      <trkpt lat="47.552467" lon="7.833198">
        <ele>311.227761</ele>
        <time>2021-11-12T22:38:18.700Z</time>
      </trkpt>
      <trkpt lat="47.552452" lon="7.833284">
        <ele>311.407055</ele>
        <time>2021-11-12T22:38:20.311Z</time>
      </trkpt>
      <trkpt lat="47.552696" lon="7.833789">
        <ele>312.430593</ele>
        <time>2021-11-12T22:38:31.342Z</time>
      </trkpt>
      <trkpt lat="47.552700" lon="7.833938">
        <ele>312.670058</ele>
        <time>2021-11-12T22:38:34.287Z</time>
      </trkpt>
      <trkpt lat="47.552714" lon="7.835010">
        <ele>314.391880</ele>
        <time>2021-11-12T22:38:52.764Z</time>
      </trkpt>
      <trkpt lat="47.552719" lon="7.836790">
        <ele>316.716153</ele>
        <time>2021-11-12T22:39:18.047Z</time>
      </trkpt>
      <trkpt lat="47.552697" lon="7.838068">
        <ele>318.005180</ele>
        <time>2021-11-12T22:39:35.761Z</time>
      </trkpt>
      <trkpt lat="47.552736" lon="7.838578">
        <ele>318.524404</ele>
        <time>2021-11-12T22:39:42.891Z</time>
      </trkpt>
      <trkpt lat="47.552802" lon="7.839009">
        <ele>319.006442</ele>
        <time>2021-11-12T22:39:49.039Z</time>
      </trkpt>
      <trkpt lat="47.552817" lon="7.839065">
        <ele>319.072155</ele>
        <time>2021-11-12T22:39:49.921Z</time>
      </trkpt>
      <trkpt lat="47.552939" lon="7.839526">
        <ele>319.612238</ele>
        <time>2021-11-12T22:39:56.855Z</time>
      </trkpt>
      <trkpt lat="47.553231" lon="7.841529">
        <ele>321.741492</ele>
        <time>2021-11-12T22:40:26.968Z</time>
      </trkpt>
      <trkpt lat="47.553216" lon="7.841849">
        <ele>322.006989</ele>
        <time>2021-11-12T22:40:31.479Z</time>
      </trkpt>
      <trkpt lat="47.553123" lon="7.842222">
        <ele>322.336108</ele>
        <time>2021-11-12T22:40:36.708Z</time>
      </trkpt>
      <trkpt lat="47.553133" lon="7.842431">
        <ele>322.509527</ele>
        <time>2021-11-12T22:40:39.838Z</time>
      </trkpt>
      <trkpt lat="47.552833" lon="7.842495">
        <ele>322.881232</ele>
        <time>2021-11-12T22:40:47.147Z</time>
      </trkpt>
      <trkpt lat="47.552380" lon="7.842592">
        <ele>323.442547</ele>
        <time>2021-11-12T22:40:58.195Z</time>
      </trkpt>
      <trkpt lat="47.551922" lon="7.842704">
        <ele>323.872647</ele>
        <time>2021-11-12T22:41:08.761Z</time>
      </trkpt>
      <trkpt lat="47.551668" lon="7.842770">
        <ele>324.078147</ele>
        <time>2021-11-12T22:41:14.720Z</time>
      </trkpt>
      <trkpt lat="47.551454" lon="7.842815">
        <ele>324.250391</ele>
        <time>2021-11-12T22:41:19.407Z</time>
      </trkpt>
      <trkpt lat="47.551344" lon="7.844621">
        <ele>325.332825</ele>
        <time>2021-11-12T22:41:41.921Z</time>
      </trkpt>
      <trkpt lat="47.551205" lon="7.846694">
        <ele>327.127817</ele>
        <time>2021-11-12T22:42:09.909Z</time>
      </trkpt>
      <trkpt lat="47.551184" lon="7.847206">
        <ele>327.620923</ele>
        <time>2021-11-12T22:42:17.295Z</time>
      </trkpt>
      <trkpt lat="47.551196" lon="7.847517">
        <ele>327.950102</ele>
        <time>2021-11-12T22:42:21.859Z</time>
      </trkpt>
      <trkpt lat="47.551669" lon="7.848083">
        <ele>328.902031</ele>
        <time>2021-11-12T22:42:34.944Z</time>
      </trkpt>
      <trkpt lat="47.551242" lon="7.848702">
        <ele>329.837346</ele>
        <time>2021-11-12T22:42:47.527Z</time>
      </trkpt>
      <trkpt lat="47.550975" lon="7.849066">
        <ele>330.352614</ele>
        <time>2021-11-12T22:42:54.843Z</time>
      </trkpt>
      <trkpt lat="47.550810" lon="7.849346">
        <ele>330.660863</ele>
        <time>2021-11-12T22:43:01.236Z</time>
      </trkpt>
      <trkpt lat="47.550488" lon="7.850081">
        <ele>331.387537</ele>
        <time>2021-11-12T22:43:16.702Z</time>
      </trkpt>
      <trkpt lat="47.550333" lon="7.850434">
        <ele>331.736775</ele>
        <time>2021-11-12T22:43:24.033Z</time>
      </trkpt>
      <trkpt lat="47.550009" lon="7.851173">
        <ele>332.375623</ele>
        <time>2021-11-12T22:43:38.589Z</time>
      </trkpt>
      <trkpt lat="47.549652" lon="7.851969">
        <ele>332.420935</ele>
        <time>2021-11-12T22:43:52.467Z</time>
      </trkpt>
      <trkpt lat="47.549535" lon="7.852225">
        <ele>332.435593</ele>
        <time>2021-11-12T22:43:56.517Z</time>
      </trkpt>
      <trkpt lat="47.549285" lon="7.852784">
        <ele>332.467387</ele>
        <time>2021-11-12T22:44:05.163Z</time>
      </trkpt>
      <trkpt lat="47.549441" lon="7.852966">
        <ele>332.481334</ele>
        <time>2021-11-12T22:44:08.942Z</time>
      </trkpt>
      <trkpt lat="47.549708" lon="7.853279">
        <ele>332.427502</ele>
        <time>2021-11-12T22:44:15.547Z</time>
      </trkpt>
      <trkpt lat="47.550221" lon="7.853833">
        <ele>332.080691</ele>
        <time>2021-11-12T22:44:27.476Z</time>
      </trkpt>
      <trkpt lat="47.549883" lon="7.854434">
        <ele>331.792229</ele>
        <time>2021-11-12T22:44:34.151Z</time>
      </trkpt>
      <trkpt lat="47.549566" lon="7.855225">
        <ele>331.482838</ele>
        <time>2021-11-12T22:44:45.324Z</time>
      </trkpt>
      <trkpt lat="47.549362" lon="7.855774">
        <ele>331.365214</ele>
        <time>2021-11-12T22:44:53.246Z</time>
      </trkpt>
      <trkpt lat="47.548887" lon="7.857308">
        <ele>331.048445</ele>
        <time>2021-11-12T22:45:15.354Z</time>
      </trkpt>
      <trkpt lat="47.548743" lon="7.857692">
        <ele>331.117755</ele>
        <time>2021-11-12T22:45:21.325Z</time>
      </trkpt>
      <trkpt lat="47.548701" lon="7.857893">
        <ele>331.204177</ele>
        <time>2021-11-12T22:45:24.297Z</time>
      </trkpt>
      <trkpt lat="47.548686" lon="7.857973">
        <ele>331.238279</ele>
        <time>2021-11-12T22:45:25.420Z</time>
      </trkpt>
      <trkpt lat="47.548611" lon="7.858381">
        <ele>331.411960</ele>
        <time>2021-11-12T22:45:31.634Z</time>
      </trkpt>
      <trkpt lat="47.548334" lon="7.859801">
        <ele>332.019065</ele>
        <time>2021-11-12T22:45:54.672Z</time>
      </trkpt>
      <trkpt lat="47.548049" lon="7.860929">
        <ele>333.185824</ele>
        <time>2021-11-12T22:46:15.690Z</time>
      </trkpt>
      <trkpt lat="47.547930" lon="7.861711">
        <ele>334.060552</ele>
        <time>2021-11-12T22:46:30.454Z</time>
      </trkpt>
      <trkpt lat="47.547568" lon="7.863151">
        <ele>335.450751</ele>
        <time>2021-11-12T22:46:59.581Z</time>
      </trkpt>
      <trkpt lat="47.547320" lon="7.863864">
        <ele>335.978348</ele>
        <time>2021-11-12T22:47:13.521Z</time>
      </trkpt>
      <trkpt lat="47.546974" lon="7.864423">
        <ele>336.477235</ele>
        <time>2021-11-12T22:47:24.345Z</time>
      </trkpt>
      <trkpt lat="47.546885" lon="7.864500">
        <ele>336.577672</ele>
        <time>2021-11-12T22:47:27.430Z</time>
      </trkpt>
      <trkpt lat="47.546894" lon="7.864837">
        <ele>336.743590</ele>
        <time>2021-11-12T22:47:31.314Z</time>
      </trkpt>
      <trkpt lat="47.546889" lon="7.865225">
        <ele>336.536374</ele>
        <time>2021-11-12T22:47:36.739Z</time>
      </trkpt>
      <trkpt lat="47.546819" lon="7.865489">
        <ele>336.384921</ele>
        <time>2021-11-12T22:47:40.683Z</time>
      </trkpt>
      <trkpt lat="47.546510" lon="7.865766">
        <ele>336.099214</ele>
        <time>2021-11-12T22:47:47.317Z</time>
      </trkpt>
      <trkpt lat="47.546327" lon="7.865959">
        <ele>335.921513</ele>
        <time>2021-11-12T22:47:50.832Z</time>
      </trkpt>
      <trkpt lat="47.546096" lon="7.866147">
        <ele>335.713016</ele>
        <time>2021-11-12T22:47:55.388Z</time>
      </trkpt>
      <trkpt lat="47.545240" lon="7.866887">
        <ele>335.505708</ele>
        <time>2021-11-12T22:48:12.062Z</time>
      </trkpt>
      <trkpt lat="47.545160" lon="7.866985">
        <ele>335.537217</ele>
        <time>2021-11-12T22:48:14.018Z</time>
      </trkpt>
      <trkpt lat="47.545003" lon="7.867278">
        <ele>335.613863</ele>
        <time>2021-11-12T22:48:19.686Z</time>
      </trkpt>
      <trkpt lat="47.544568" lon="7.867693">
        <ele>335.770908</ele>
        <time>2021-11-12T22:48:32.477Z</time>
      </trkpt>
      <trkpt lat="47.544469" lon="7.867776">
        <ele>335.805436</ele>
        <time>2021-11-12T22:48:35.339Z</time>
      </trkpt>
      <trkpt lat="47.544410" lon="7.867825">
        <ele>335.825966</ele>
        <time>2021-11-12T22:48:37.427Z</time>
      </trkpt>
      <trkpt lat="47.544246" lon="7.867967">
        <ele>335.883624</ele>
        <time>2021-11-12T22:48:42.111Z</time>
      </trkpt>
      <trkpt lat="47.544214" lon="7.867988">
        <ele>335.903843</ele>
        <time>2021-11-12T22:48:42.959Z</time>
      </trkpt>
      <trkpt lat="47.543801" lon="7.868269">
        <ele>336.567771</ele>
        <time>2021-11-12T22:48:54.562Z</time>
      </trkpt>
      <trkpt lat="47.543657" lon="7.868359">
        <ele>336.796091</ele>
        <time>2021-11-12T22:48:58.911Z</time>
      </trkpt>
      <trkpt lat="47.543201" lon="7.868657">
        <ele>337.524184</ele>
        <time>2021-11-12T22:49:09.112Z</time>
      </trkpt>
      <trkpt lat="47.543105" lon="7.868711">
        <ele>337.674197</ele>
        <time>2021-11-12T22:49:11.696Z</time>
      </trkpt>
      <trkpt lat="47.543049" lon="7.868759">
        <ele>337.768712</ele>
        <time>2021-11-12T22:49:13.072Z</time>
      </trkpt>
      <trkpt lat="47.542722" lon="7.869201">
        <ele>338.415386</ele>
        <time>2021-11-12T22:49:22.905Z</time>
      </trkpt>
      <trkpt lat="47.542696" lon="7.869257">
        <ele>338.482411</ele>
        <time>2021-11-12T22:49:23.735Z</time>
      </trkpt>
      <trkpt lat="47.542657" lon="7.869354">
        <ele>338.519306</ele>
        <time>2021-11-12T22:49:25.170Z</time>
      </trkpt>
      <trkpt lat="47.542372" lon="7.869746">
        <ele>338.519306</ele>
        <time>2021-11-12T22:49:32.370Z</time>
      </trkpt>
      <trkpt lat="47.542329" lon="7.869820">
        <ele>338.519306</ele>
        <time>2021-11-12T22:49:33.567Z</time>
      </trkpt>
      <trkpt lat="47.542348" lon="7.869983">
        <ele>338.519306</ele>
        <time>2021-11-12T22:49:35.146Z</time>
      </trkpt>
      <trkpt lat="47.542317" lon="7.870012">
        <ele>338.519306</ele>
        <time>2021-11-12T22:49:35.858Z</time>
      </trkpt>
      <trkpt lat="47.542181" lon="7.870131">
        <ele>338.519306</ele>
        <time>2021-11-12T22:49:38.467Z</time>
      </trkpt>
      <trkpt lat="47.542118" lon="7.870135">
        <ele>338.519306</ele>
        <time>2021-11-12T22:49:39.485Z</time>
      </trkpt>
      <trkpt lat="47.542014" lon="7.870126">
        <ele>338.519306</ele>
        <time>2021-11-12T22:49:40.872Z</time>
      </trkpt>
      <trkpt lat="47.541910" lon="7.870106">
        <ele>338.519306</ele>
        <time>2021-11-12T22:49:42.543Z</time>
      </trkpt>
      <trkpt lat="47.541606" lon="7.870424">
        <ele>338.519306</ele>
        <time>2021-11-12T22:49:47.916Z</time>
      </trkpt>
      <trkpt lat="47.541521" lon="7.870517">
        <ele>338.519306</ele>
        <time>2021-11-12T22:49:49.397Z</time>
      </trkpt>
      <trkpt lat="47.541550" lon="7.870601">
        <ele>338.519306</ele>
        <time>2021-11-12T22:49:50.267Z</time>
      </trkpt>
      <trkpt lat="47.541576" lon="7.870664">
        <ele>338.519306</ele>
        <time>2021-11-12T22:49:50.946Z</time>
      </trkpt>
      <trkpt lat="47.541410" lon="7.870791">
        <ele>338.519306</ele>
        <time>2021-11-12T22:49:54.156Z</time>
      </trkpt>
      <trkpt lat="47.541210" lon="7.870957">
        <ele>338.519306</ele>
        <time>2021-11-12T22:49:57.530Z</time>
      </trkpt>
      <trkpt lat="47.541024" lon="7.871111">
        <ele>338.519306</ele>
        <time>2021-11-12T22:50:00.962Z</time>
      </trkpt>
    </trkseg>
  </trk>
</gpx>